PWSweather.com
Personal Weather Stations
Station Observations
KNJEWING3
Ewing, NJ 08638

Ewing, NJ 08638

Lat: 40.25193, Lon: -74.77511

Elevation: 106

Station Type: Oregon Scientific WMR968 / SRS100 Solar Radiation Shield. Rain Data At www.cocorahs.org (NJ-MC-11)

Latest ConditionsUpdated 7:06:01 PM EDT Wednesday, May 4, 2016
Currently Today's Max Today's Min Today's Average
Temperature 51.5°F10.8°C 54.9°F12.7°C 50.8°F10.4°C 52.4°F11.3°C
Dew Point 50.7°F10.4°C 54.9°F12.7°C 47.5°F8.6°C 51.0°F10.6°C
Winds Calm Calm 13.2 mph E21.2 kmh E - 2.5 mph 4.0 kmh
Wind Gusts 7.0 mph11.3 kmh 14.2 mph22.9 kmh - -
Humidity 97% 100% 79% 95%
Pressure 29.79 in1008.8 mb 29.91 in1012.9 mb 29.79 in1008.8 mb -
Hour Temp Dew Point Humidity Winds Wind Gusts Pressure Precip Precip Rate Daily Precip Total
07:06 PM 51.5°F10.8°C 50.7°F10.4°C 97% Calm Calm 7.0 mph11.3 kmh 29.79 in1008.8 mb 0.00 in0.0 mm 0.00 in0.0 mm 0.00 in0.0 mm
07:04 PM 51.5°F10.8°C 50.7°F10.4°C 97% 3.2 mph E5.1 kmh E 9.9 mph15.9 kmh 29.79 in1008.8 mb 0.00 in0.0 mm 0.00 in0.0 mm 0.00 in0.0 mm
07:02 PM 51.5°F10.8°C 50.7°F10.4°C 97% 3.2 mph E5.1 kmh E 9.9 mph15.9 kmh 29.79 in1008.8 mb 0.00 in0.0 mm 0.00 in0.0 mm 0.00 in0.0 mm
07:01 PM 51.3°F10.7°C 50.5°F10.3°C 97% 4.3 mph E6.9 kmh E 9.9 mph15.9 kmh 29.79 in1008.8 mb 0.00 in0.0 mm 0.00 in0.0 mm 0.00 in0.0 mm
06:59 PM 51.3°F10.7°C 50.5°F10.3°C 97% 7.0 mph E11.3 kmh E 9.9 mph15.9 kmh 29.79 in1008.8 mb 0.00 in0.0 mm 0.00 in0.0 mm 0.00 in0.0 mm
06:58 PM 51.3°F10.7°C 50.2°F10.1°C 96% Calm Calm 9.9 mph15.9 kmh 29.79 in1008.8 mb 0.00 in0.0 mm 0.00 in0.0 mm 0.00 in0.0 mm
06:57 PM 51.3°F10.7°C 50.2°F10.1°C 96% 9.1 mph ESE14.6 kmh ESE 9.7 mph15.6 kmh 29.79 in1008.8 mb 0.00 in0.0 mm 0.00 in0.0 mm 0.00 in0.0 mm
06:55 PM 51.5°F10.8°C 50.4°F10.2°C 96% 7.5 mph E12.1 kmh E 9.7 mph15.6 kmh 29.79 in1008.8 mb 0.00 in0.0 mm 0.00 in0.0 mm 0.00 in0.0 mm
06:54 PM 51.5°F10.8°C 50.4°F10.2°C 96% 3.8 mph S6.1 kmh S 9.7 mph15.6 kmh 29.79 in1008.8 mb 0.00 in0.0 mm 0.00 in0.0 mm 0.00 in0.0 mm
06:53 PM 51.5°F10.8°C 50.4°F10.2°C 96% 4.3 mph E6.9 kmh E 10.5 mph16.9 kmh 29.79 in1008.8 mb 0.00 in0.0 mm 0.00 in0.0 mm 0.00 in0.0 mm
06:51 PM 51.5°F10.8°C 50.4°F10.2°C 96% 3.2 mph E5.1 kmh E 10.5 mph16.9 kmh 29.79 in1008.8 mb 0.00 in0.0 mm 0.00 in0.0 mm 0.00 in0.0 mm
06:50 PM 51.3°F10.7°C 50.2°F10.1°C 96% 7.5 mph NE12.1 kmh NE 12.1 mph19.5 kmh 29.79 in1008.8 mb 0.00 in0.0 mm 0.00 in0.0 mm 0.00 in0.0 mm
06:49 PM 51.3°F10.7°C 50.2°F10.1°C 96% 4.8 mph E7.7 kmh E 12.1 mph19.5 kmh 29.79 in1008.8 mb 0.00 in0.0 mm 0.00 in0.0 mm 0.00 in0.0 mm
06:47 PM 51.5°F10.8°C 50.4°F10.2°C 96% 3.8 mph NE6.1 kmh NE 12.1 mph19.5 kmh 29.79 in1008.8 mb 0.00 in0.0 mm 0.00 in0.0 mm 0.00 in0.0 mm
06:45 PM 51.5°F10.8°C 50.4°F10.2°C 96% 3.2 mph NE5.1 kmh NE 12.1 mph19.5 kmh 29.79 in1008.8 mb 0.00 in0.0 mm 0.00 in0.0 mm 0.00 in0.0 mm
06:43 PM 51.7°F10.9°C 50.3°F10.2°C 95% 10.5 mph NE16.9 kmh NE 12.1 mph19.5 kmh 29.79 in1008.8 mb 0.00 in0.0 mm 0.00 in0.0 mm 0.00 in0.0 mm
06:42 PM 51.7°F10.9°C 50.3°F10.2°C 95% 11.0 mph E17.7 kmh E 12.1 mph19.5 kmh 29.82 in1009.8 mb 0.00 in0.0 mm 0.00 in0.0 mm 0.00 in0.0 mm
06:40 PM 51.5°F10.8°C 49.9°F9.9°C 94% Calm Calm 9.1 mph14.6 kmh 29.82 in1009.8 mb 0.00 in0.0 mm 0.00 in0.0 mm 0.00 in0.0 mm
06:38 PM 51.5°F10.8°C 49.9°F9.9°C 94% 7.0 mph E11.3 kmh E 9.1 mph14.6 kmh 29.82 in1009.8 mb 0.00 in0.0 mm 0.00 in0.0 mm 0.00 in0.0 mm
06:37 PM 51.5°F10.8°C 49.9°F9.9°C 94% 3.2 mph E5.1 kmh E 9.1 mph14.6 kmh 29.82 in1009.8 mb 0.00 in0.0 mm 0.00 in0.0 mm 0.00 in0.0 mm
06:36 PM 51.5°F10.8°C 49.9°F9.9°C 94% Calm Calm 9.1 mph14.6 kmh 29.82 in1009.8 mb 0.00 in0.0 mm 0.00 in0.0 mm 0.00 in0.0 mm
06:35 PM 51.5°F10.8°C 49.9°F9.9°C 94% 4.3 mph NE6.9 kmh NE 9.1 mph14.6 kmh 29.82 in1009.8 mb 0.00 in0.0 mm 0.00 in0.0 mm 0.00 in0.0 mm
06:33 PM 51.7°F10.9°C 50.0°F10.0°C 94% 7.0 mph ESE11.3 kmh ESE 7.0 mph11.3 kmh 29.82 in1009.8 mb 0.00 in0.0 mm 0.00 in0.0 mm 0.00 in0.0 mm
06:31 PM 51.7°F10.9°C 50.0°F10.0°C 94% Calm Calm 7.0 mph11.3 kmh 29.82 in1009.8 mb 0.00 in0.0 mm 0.00 in0.0 mm 0.00 in0.0 mm
06:30 PM 51.7°F10.9°C 50.0°F10.0°C 94% 6.4 mph NE10.3 kmh NE 7.0 mph11.3 kmh 29.82 in1009.8 mb 0.00 in0.0 mm 0.00 in0.0 mm 0.00 in0.0 mm
06:29 PM 51.7°F10.9°C 50.0°F10.0°C 94% Calm Calm 7.0 mph11.3 kmh 29.82 in1009.8 mb 0.00 in0.0 mm 0.00 in0.0 mm 0.00 in0.0 mm
06:27 PM 51.7°F10.9°C 50.0°F10.0°C 94% 3.8 mph E6.1 kmh E 7.0 mph11.3 kmh 29.82 in1009.8 mb 0.00 in0.0 mm 0.00 in0.0 mm 0.00 in0.0 mm
06:26 PM 51.7°F10.9°C 50.0°F10.0°C 94% 7.0 mph ENE11.3 kmh ENE 7.0 mph11.3 kmh 29.82 in1009.8 mb 0.00 in0.0 mm 0.00 in0.0 mm 0.00 in0.0 mm
06:24 PM 51.7°F10.9°C 50.0°F10.0°C 94% 4.8 mph ENE7.7 kmh ENE 5.4 mph8.7 kmh 29.82 in1009.8 mb 0.00 in0.0 mm 0.00 in0.0 mm 0.00 in0.0 mm
06:23 PM 51.7°F10.9°C 49.8°F9.9°C 93% Calm Calm 5.9 mph9.5 kmh 29.82 in1009.8 mb 0.00 in0.0 mm 0.00 in0.0 mm 0.00 in0.0 mm
06:22 PM 51.7°F10.9°C 49.8°F9.9°C 93% Calm Calm 5.9 mph9.5 kmh 29.82 in1009.8 mb 0.00 in0.0 mm 0.00 in0.0 mm 0.00 in0.0 mm
06:20 PM 51.7°F10.9°C 49.8°F9.9°C 93% Calm Calm 5.9 mph9.5 kmh 29.82 in1009.8 mb 0.00 in0.0 mm 0.00 in0.0 mm 0.00 in0.0 mm
06:19 PM 51.7°F10.9°C 49.8°F9.9°C 93% 3.8 mph E6.1 kmh E 6.4 mph10.3 kmh 29.82 in1009.8 mb 0.00 in0.0 mm 0.00 in0.0 mm 0.00 in0.0 mm
06:18 PM 51.7°F10.9°C 49.8°F9.9°C 93% 5.4 mph N8.7 kmh N 6.4 mph10.3 kmh 29.82 in1009.8 mb 0.00 in0.0 mm 0.00 in0.0 mm 0.00 in0.0 mm
06:16 PM 51.7°F10.9°C 49.8°F9.9°C 93% 3.2 mph N5.1 kmh N 7.5 mph12.1 kmh 29.82 in1009.8 mb 0.00 in0.0 mm 0.00 in0.0 mm 0.00 in0.0 mm
06:15 PM 51.9°F11.1°C 49.9°F9.9°C 93% 3.8 mph ENE6.1 kmh ENE 7.5 mph12.1 kmh 29.82 in1009.8 mb 0.00 in0.0 mm 0.00 in0.0 mm 0.00 in0.0 mm
06:13 PM 51.9°F11.1°C 49.9°F9.9°C 93% Calm Calm 7.5 mph12.1 kmh 29.82 in1009.8 mb 0.00 in0.0 mm 0.00 in0.0 mm 0.00 in0.0 mm
06:12 PM 51.9°F11.1°C 49.9°F9.9°C 93% 3.2 mph NE5.1 kmh NE 7.5 mph12.1 kmh 29.82 in1009.8 mb 0.00 in0.0 mm 0.00 in0.0 mm 0.00 in0.0 mm
06:11 PM 51.9°F11.1°C 49.9°F9.9°C 93% 5.4 mph NE8.7 kmh NE 7.5 mph12.1 kmh 29.82 in1009.8 mb 0.00 in0.0 mm 0.00 in0.0 mm 0.00 in0.0 mm
06:09 PM 51.9°F11.1°C 49.9°F9.9°C 93% 6.4 mph NE10.3 kmh NE 7.5 mph12.1 kmh 29.82 in1009.8 mb 0.00 in0.0 mm 0.00 in0.0 mm 0.00 in0.0 mm
06:08 PM 52.1°F11.2°C 50.1°F10.1°C 93% 2.7 mph NNE4.3 kmh NNE 7.0 mph11.3 kmh 29.82 in1009.8 mb 0.00 in0.0 mm 0.00 in0.0 mm 0.00 in0.0 mm
06:06 PM 52.1°F11.2°C 49.8°F9.9°C 92% 6.4 mph ENE10.3 kmh ENE 7.0 mph11.3 kmh 29.82 in1009.8 mb 0.00 in0.0 mm 0.00 in0.0 mm 0.00 in0.0 mm
06:05 PM 52.1°F11.2°C 49.8°F9.9°C 92% Calm Calm 5.9 mph9.5 kmh 29.82 in1009.8 mb 0.00 in0.0 mm 0.00 in0.0 mm 0.00 in0.0 mm
06:04 PM 52.1°F11.2°C 49.8°F9.9°C 92% Calm Calm 5.9 mph9.5 kmh 29.82 in1009.8 mb 0.00 in0.0 mm 0.00 in0.0 mm 0.00 in0.0 mm
06:02 PM 52.1°F11.2°C 49.8°F9.9°C 92% Calm Calm 6.4 mph10.3 kmh 29.82 in1009.8 mb 0.00 in0.0 mm 0.00 in0.0 mm 0.00 in0.0 mm
06:01 PM 52.1°F11.2°C 49.8°F9.9°C 92% Calm Calm 6.4 mph10.3 kmh 29.82 in1009.8 mb 0.00 in0.0 mm 0.00 in0.0 mm 0.00 in0.0 mm
06:00 PM 52.1°F11.2°C 49.8°F9.9°C 92% 3.8 mph ENE6.1 kmh ENE 6.4 mph10.3 kmh 29.82 in1009.8 mb 0.00 in0.0 mm 0.00 in0.0 mm 0.00 in0.0 mm
05:58 PM 52.1°F11.2°C 49.8°F9.9°C 92% Calm Calm 6.4 mph10.3 kmh 29.82 in1009.8 mb 0.00 in0.0 mm 0.00 in0.0 mm 0.00 in0.0 mm
05:56 PM 52.1°F11.2°C 49.8°F9.9°C 92% 5.9 mph E9.5 kmh E 6.4 mph10.3 kmh 29.82 in1009.8 mb 0.00 in0.0 mm 0.00 in0.0 mm 0.00 in0.0 mm
05:55 PM 52.1°F11.2°C 49.8°F9.9°C 92% 6.4 mph N10.3 kmh N 6.4 mph10.3 kmh 29.82 in1009.8 mb 0.00 in0.0 mm 0.00 in0.0 mm 0.00 in0.0 mm
05:54 PM 52.1°F11.2°C 49.8°F9.9°C 92% 4.8 mph E7.7 kmh E 9.1 mph14.6 kmh 29.82 in1009.8 mb 0.00 in0.0 mm 0.00 in0.0 mm 0.00 in0.0 mm
05:52 PM 52.1°F11.2°C 49.8°F9.9°C 92% 3.8 mph ENE6.1 kmh ENE 9.1 mph14.6 kmh 29.82 in1009.8 mb 0.00 in0.0 mm 0.00 in0.0 mm 0.00 in0.0 mm
05:51 PM 52.1°F11.2°C 49.8°F9.9°C 92% Calm Calm 9.1 mph14.6 kmh 29.82 in1009.8 mb 0.00 in0.0 mm 0.00 in0.0 mm 0.00 in0.0 mm
05:49 PM 52.1°F11.2°C 49.8°F9.9°C 92% 6.4 mph NE10.3 kmh NE 9.1 mph14.6 kmh 29.82 in1009.8 mb 0.00 in0.0 mm 0.00 in0.0 mm 0.00 in0.0 mm
05:48 PM 52.1°F11.2°C 49.8°F9.9°C 92% 4.8 mph ENE7.7 kmh ENE 9.1 mph14.6 kmh 29.82 in1009.8 mb 0.00 in0.0 mm 0.00 in0.0 mm 0.00 in0.0 mm
05:47 PM 52.1°F11.2°C 49.5°F9.7°C 91% Calm Calm 9.9 mph15.9 kmh 29.82 in1009.8 mb 0.00 in0.0 mm 0.00 in0.0 mm 0.00 in0.0 mm
05:45 PM 52.1°F11.2°C 49.5°F9.7°C 91% 2.7 mph N4.3 kmh N 9.9 mph15.9 kmh 29.82 in1009.8 mb 0.00 in0.0 mm 0.00 in0.0 mm 0.00 in0.0 mm
05:44 PM 52.1°F11.2°C 49.5°F9.7°C 91% 4.8 mph NE7.7 kmh NE 9.9 mph15.9 kmh 29.82 in1009.8 mb 0.00 in0.0 mm 0.00 in0.0 mm 0.00 in0.0 mm
05:42 PM 52.1°F11.2°C 49.5°F9.7°C 91% 6.4 mph NE10.3 kmh NE 9.9 mph15.9 kmh 29.82 in1009.8 mb 0.00 in0.0 mm 0.00 in0.0 mm 0.00 in0.0 mm
05:41 PM 52.1°F11.2°C 49.5°F9.7°C 91% Calm Calm 9.9 mph15.9 kmh 29.82 in1009.8 mb 0.00 in0.0 mm 0.00 in0.0 mm 0.00 in0.0 mm
05:40 PM 52.4°F11.3°C 49.6°F9.8°C 90% 4.8 mph ENE7.7 kmh ENE 9.7 mph15.6 kmh 29.82 in1009.8 mb 0.00 in0.0 mm 0.00 in0.0 mm 0.00 in0.0 mm
05:38 PM 52.4°F11.3°C 49.6°F9.8°C 90% 3.8 mph NW6.1 kmh NW 9.7 mph15.6 kmh 29.82 in1009.8 mb 0.00 in0.0 mm 0.00 in0.0 mm 0.00 in0.0 mm
05:37 PM 52.4°F11.3°C 49.6°F9.8°C 90% 7.5 mph NE12.1 kmh NE 9.7 mph15.6 kmh 29.82 in1009.8 mb 0.00 in0.0 mm 0.00 in0.0 mm 0.00 in0.0 mm
05:36 PM 52.4°F11.3°C 49.6°F9.8°C 90% 6.4 mph E10.3 kmh E 7.0 mph11.3 kmh 29.82 in1009.8 mb 0.00 in0.0 mm 0.00 in0.0 mm 0.00 in0.0 mm
05:34 PM 52.4°F11.3°C 49.6°F9.8°C 90% Calm Calm 6.4 mph10.3 kmh 29.82 in1009.8 mb 0.00 in0.0 mm 0.00 in0.0 mm 0.00 in0.0 mm
05:33 PM 52.4°F11.3°C 49.6°F9.8°C 90% Calm Calm 7.0 mph11.3 kmh 29.82 in1009.8 mb 0.00 in0.0 mm 0.00 in0.0 mm 0.00 in0.0 mm
05:31 PM 52.4°F11.3°C 49.6°F9.8°C 90% Calm Calm 9.7 mph15.6 kmh 29.82 in1009.8 mb 0.00 in0.0 mm 0.00 in0.0 mm 0.00 in0.0 mm
05:30 PM 52.4°F11.3°C 49.6°F9.8°C 90% 3.8 mph ENE6.1 kmh ENE 9.7 mph15.6 kmh 29.82 in1009.8 mb 0.00 in0.0 mm 0.00 in0.0 mm 0.00 in0.0 mm
05:28 PM 52.4°F11.3°C 49.6°F9.8°C 90% Calm Calm 9.7 mph15.6 kmh 29.82 in1009.8 mb 0.00 in0.0 mm 0.00 in0.0 mm 0.00 in0.0 mm
05:27 PM 52.4°F11.3°C 49.6°F9.8°C 90% 2.7 mph ESE4.3 kmh ESE 9.7 mph15.6 kmh 29.82 in1009.8 mb 0.00 in0.0 mm 0.00 in0.0 mm 0.00 in0.0 mm
05:26 PM 52.6°F11.4°C 49.5°F9.7°C 89% 2.7 mph NE4.3 kmh NE 9.7 mph15.6 kmh 29.79 in1008.8 mb 0.00 in0.0 mm 0.00 in0.0 mm 0.00 in0.0 mm
05:24 PM 52.6°F11.4°C 49.5°F9.7°C 89% 7.0 mph NE11.3 kmh NE 9.7 mph15.6 kmh 29.79 in1008.8 mb 0.00 in0.0 mm 0.00 in0.0 mm 0.00 in0.0 mm
05:23 PM 53.3°F11.8°C 48.6°F9.2°C 84% Calm Calm 7.5 mph12.1 kmh 29.79 in1008.8 mb 0.00 in0.0 mm 0.00 in0.0 mm 0.00 in0.0 mm
05:21 PM 53.3°F11.8°C 48.6°F9.2°C 84% 3.2 mph E5.1 kmh E 7.5 mph12.1 kmh 29.79 in1008.8 mb 0.00 in0.0 mm 0.00 in0.0 mm 0.00 in0.0 mm
05:20 PM 53.3°F11.8°C 48.6°F9.2°C 84% 7.5 mph NE12.1 kmh NE 7.5 mph12.1 kmh 29.79 in1008.8 mb 0.00 in0.0 mm 0.00 in0.0 mm 0.00 in0.0 mm
05:19 PM 53.3°F11.8°C 48.6°F9.2°C 84% Calm Calm 7.0 mph11.3 kmh 29.79 in1008.8 mb 0.00 in0.0 mm 0.00 in0.0 mm 0.00 in0.0 mm
05:17 PM 53.3°F11.8°C 48.6°F9.2°C 84% 5.9 mph E9.5 kmh E 7.0 mph11.3 kmh 29.79 in1008.8 mb 0.00 in0.0 mm 0.00 in0.0 mm 0.00 in0.0 mm
05:16 PM 53.3°F11.8°C 48.6°F9.2°C 84% Calm Calm 7.5 mph12.1 kmh 29.79 in1008.8 mb 0.00 in0.0 mm 0.00 in0.0 mm 0.00 in0.0 mm
05:14 PM 53.3°F11.8°C 48.6°F9.2°C 84% Calm Calm 7.5 mph12.1 kmh 29.79 in1008.8 mb 0.00 in0.0 mm 0.00 in0.0 mm 0.00 in0.0 mm
05:12 PM 53.3°F11.8°C 48.6°F9.2°C 84% 4.8 mph ENE7.7 kmh ENE 9.7 mph15.6 kmh 29.79 in1008.8 mb 0.00 in0.0 mm 0.00 in0.0 mm 0.00 in0.0 mm
05:10 PM 53.3°F11.8°C 48.6°F9.2°C 84% Calm Calm 9.7 mph15.6 kmh 29.79 in1008.8 mb 0.00 in0.0 mm 0.00 in0.0 mm 0.00 in0.0 mm
05:09 PM 53.3°F11.8°C 48.6°F9.2°C 84% 3.2 mph ESE5.1 kmh ESE 9.7 mph15.6 kmh 29.79 in1008.8 mb 0.00 in0.0 mm 0.00 in0.0 mm 0.00 in0.0 mm
05:07 PM 53.3°F11.8°C 48.6°F9.2°C 84% 7.0 mph ENE11.3 kmh ENE 10.5 mph16.9 kmh 29.79 in1008.8 mb 0.00 in0.0 mm 0.00 in0.0 mm 0.00 in0.0 mm
05:05 PM 53.3°F11.8°C 48.6°F9.2°C 84% 7.0 mph ENE11.3 kmh ENE 10.5 mph16.9 kmh 29.79 in1008.8 mb 0.00 in0.0 mm 0.00 in0.0 mm 0.00 in0.0 mm
05:03 PM 53.3°F11.8°C 48.6°F9.2°C 84% Calm Calm 10.5 mph16.9 kmh 29.79 in1008.8 mb 0.00 in0.0 mm 0.00 in0.0 mm 0.00 in0.0 mm
05:02 PM 53.3°F11.8°C 48.6°F9.2°C 84% 4.8 mph NE7.7 kmh NE 10.5 mph16.9 kmh 29.79 in1008.8 mb 0.00 in0.0 mm 0.00 in0.0 mm 0.00 in0.0 mm
05:00 PM 53.3°F11.8°C 48.6°F9.2°C 84% 3.8 mph E6.1 kmh E 10.5 mph16.9 kmh 29.79 in1008.8 mb 0.00 in0.0 mm 0.00 in0.0 mm 0.00 in0.0 mm
04:59 PM 53.3°F11.8°C 48.6°F9.2°C 84% 3.8 mph NE6.1 kmh NE 10.5 mph16.9 kmh 29.79 in1008.8 mb 0.00 in0.0 mm 0.00 in0.0 mm 0.00 in0.0 mm
04:58 PM 53.3°F11.8°C 48.6°F9.2°C 84% 4.8 mph ENE7.7 kmh ENE 9.1 mph14.6 kmh 29.79 in1008.8 mb 0.00 in0.0 mm 0.00 in0.0 mm 0.00 in0.0 mm
04:56 PM 53.3°F11.8°C 48.6°F9.2°C 84% 4.3 mph ENE6.9 kmh ENE 9.1 mph14.6 kmh 29.79 in1008.8 mb 0.00 in0.0 mm 0.00 in0.0 mm 0.00 in0.0 mm
04:55 PM 53.3°F11.8°C 48.6°F9.2°C 84% 4.3 mph ENE6.9 kmh ENE 7.5 mph12.1 kmh 29.79 in1008.8 mb 0.00 in0.0 mm 0.00 in0.0 mm 0.00 in0.0 mm
04:53 PM 53.3°F11.8°C 48.6°F9.2°C 84% 4.3 mph E6.9 kmh E 7.5 mph12.1 kmh 29.79 in1008.8 mb 0.00 in0.0 mm 0.00 in0.0 mm 0.00 in0.0 mm
04:52 PM 53.3°F11.8°C 48.6°F9.2°C 84% Calm Calm 7.5 mph12.1 kmh 29.79 in1008.8 mb 0.00 in0.0 mm 0.00 in0.0 mm 0.00 in0.0 mm
04:51 PM 53.3°F11.8°C 48.6°F9.2°C 84% 3.8 mph NE6.1 kmh NE 7.5 mph12.1 kmh 29.79 in1008.8 mb 0.00 in0.0 mm 0.00 in0.0 mm 0.00 in0.0 mm
04:49 PM 53.3°F11.8°C 48.6°F9.2°C 84% Calm Calm 6.4 mph10.3 kmh 29.79 in1008.8 mb 0.00 in0.0 mm 0.00 in0.0 mm 0.00 in0.0 mm
04:48 PM 53.3°F11.8°C 48.6°F9.2°C 84% 6.4 mph NE10.3 kmh NE 6.4 mph10.3 kmh 29.79 in1008.8 mb 0.00 in0.0 mm 0.00 in0.0 mm 0.00 in0.0 mm
04:46 PM 53.3°F11.8°C 48.6°F9.2°C 84% 4.3 mph ENE6.9 kmh ENE 6.4 mph10.3 kmh 29.79 in1008.8 mb 0.00 in0.0 mm 0.00 in0.0 mm 0.00 in0.0 mm
04:45 PM 53.3°F11.8°C 48.6°F9.2°C 84% Calm Calm 6.4 mph10.3 kmh 29.79 in1008.8 mb 0.00 in0.0 mm 0.00 in0.0 mm 0.00 in0.0 mm
04:44 PM 53.3°F11.8°C 48.6°F9.2°C 84% 4.8 mph ENE7.7 kmh ENE 7.0 mph11.3 kmh 29.79 in1008.8 mb 0.00 in0.0 mm 0.00 in0.0 mm 0.00 in0.0 mm
04:42 PM 53.3°F11.8°C 48.6°F9.2°C 84% Calm Calm 7.5 mph12.1 kmh 29.79 in1008.8 mb 0.00 in0.0 mm 0.00 in0.0 mm 0.00 in0.0 mm
04:41 PM 53.3°F11.8°C 48.6°F9.2°C 84% Calm Calm 7.5 mph12.1 kmh 29.79 in1008.8 mb 0.00 in0.0 mm 0.00 in0.0 mm 0.00 in0.0 mm
04:39 PM 53.3°F11.8°C 48.6°F9.2°C 84% 4.8 mph ESE7.7 kmh ESE 7.5 mph12.1 kmh 29.79 in1008.8 mb 0.00 in0.0 mm 0.00 in0.0 mm 0.00 in0.0 mm
04:38 PM 53.3°F11.8°C 48.6°F9.2°C 84% 3.2 mph SE5.1 kmh SE 7.5 mph12.1 kmh 29.79 in1008.8 mb 0.00 in0.0 mm 0.00 in0.0 mm 0.00 in0.0 mm
04:37 PM 53.3°F11.8°C 48.6°F9.2°C 84% Calm Calm 7.5 mph12.1 kmh 29.79 in1008.8 mb 0.00 in0.0 mm 0.00 in0.0 mm 0.00 in0.0 mm
04:36 PM 53.3°F11.8°C 48.6°F9.2°C 84% 5.9 mph SE9.5 kmh SE 7.5 mph12.1 kmh 29.79 in1008.8 mb 0.00 in0.0 mm 0.00 in0.0 mm 0.00 in0.0 mm
04:34 PM 53.3°F11.8°C 48.6°F9.2°C 84% Calm Calm 7.0 mph11.3 kmh 29.79 in1008.8 mb 0.00 in0.0 mm 0.00 in0.0 mm 0.00 in0.0 mm
04:32 PM 53.3°F11.8°C 48.6°F9.2°C 84% Calm Calm 7.0 mph11.3 kmh 29.79 in1008.8 mb 0.00 in0.0 mm 0.00 in0.0 mm 0.00 in0.0 mm
04:31 PM 53.3°F11.8°C 48.6°F9.2°C 84% Calm Calm 7.0 mph11.3 kmh 29.79 in1008.8 mb 0.00 in0.0 mm 0.00 in0.0 mm 0.00 in0.0 mm
04:30 PM 53.3°F11.8°C 48.3°F9.1°C 83% Calm Calm 7.0 mph11.3 kmh 29.79 in1008.8 mb 0.00 in0.0 mm 0.00 in0.0 mm 0.00 in0.0 mm
04:29 PM 53.3°F11.8°C 48.3°F9.1°C 83% 6.4 mph ENE10.3 kmh ENE 7.0 mph11.3 kmh 29.79 in1008.8 mb 0.00 in0.0 mm 0.00 in0.0 mm 0.00 in0.0 mm
04:27 PM 53.1°F11.7°C 48.1°F8.9°C 83% 5.4 mph NNE8.7 kmh NNE 5.4 mph8.7 kmh 29.79 in1008.8 mb 0.00 in0.0 mm 0.00 in0.0 mm 0.00 in0.0 mm
04:26 PM 53.1°F11.7°C 48.1°F8.9°C 83% Calm Calm 4.8 mph7.7 kmh 29.79 in1008.8 mb 0.00 in0.0 mm 0.00 in0.0 mm 0.00 in0.0 mm
04:25 PM 53.1°F11.7°C 48.1°F8.9°C 83% Calm Calm 5.9 mph9.5 kmh 29.79 in1008.8 mb 0.00 in0.0 mm 0.00 in0.0 mm 0.00 in0.0 mm
04:23 PM 53.1°F11.7°C 48.1°F8.9°C 83% Calm Calm 5.9 mph9.5 kmh 29.79 in1008.8 mb 0.00 in0.0 mm 0.00 in0.0 mm 0.00 in0.0 mm
04:21 PM 53.1°F11.7°C 47.8°F8.8°C 82% Calm Calm 5.9 mph9.5 kmh 29.79 in1008.8 mb 0.00 in0.0 mm 0.00 in0.0 mm 0.00 in0.0 mm
04:20 PM 53.1°F11.7°C 47.8°F8.8°C 82% Calm Calm 9.1 mph14.6 kmh 29.79 in1008.8 mb 0.00 in0.0 mm 0.00 in0.0 mm 0.00 in0.0 mm
04:19 PM 53.1°F11.7°C 47.8°F8.8°C 82% 4.8 mph ESE7.7 kmh ESE 9.1 mph14.6 kmh 29.79 in1008.8 mb 0.00 in0.0 mm 0.00 in0.0 mm 0.00 in0.0 mm
04:17 PM 53.1°F11.7°C 47.8°F8.8°C 82% 3.8 mph E6.1 kmh E 10.5 mph16.9 kmh 29.79 in1008.8 mb 0.00 in0.0 mm 0.00 in0.0 mm 0.00 in0.0 mm
04:16 PM 53.1°F11.7°C 47.8°F8.8°C 82% 3.8 mph ESE6.1 kmh ESE 10.5 mph16.9 kmh 29.79 in1008.8 mb 0.00 in0.0 mm 0.00 in0.0 mm 0.00 in0.0 mm
04:12 PM 53.5°F11.9°C 47.8°F8.8°C 81% Calm Calm 10.5 mph16.9 kmh 29.79 in1008.8 mb 0.00 in0.0 mm 0.00 in0.0 mm 0.00 in0.0 mm
04:11 PM 53.5°F11.9°C 47.8°F8.8°C 81% 10.5 mph E16.9 kmh E 10.5 mph16.9 kmh 29.79 in1008.8 mb 0.00 in0.0 mm 0.00 in0.0 mm 0.00 in0.0 mm
04:10 PM 53.3°F11.8°C 47.7°F8.7°C 81% Calm Calm 9.7 mph15.6 kmh 29.79 in1008.8 mb 0.00 in0.0 mm 0.00 in0.0 mm 0.00 in0.0 mm
04:09 PM 53.3°F11.8°C 47.7°F8.7°C 81% Calm Calm 10.5 mph16.9 kmh 29.79 in1008.8 mb 0.00 in0.0 mm 0.00 in0.0 mm 0.00 in0.0 mm
04:07 PM 53.5°F11.9°C 47.8°F8.8°C 81% 4.3 mph N6.9 kmh N 10.5 mph16.9 kmh 29.79 in1008.8 mb 0.00 in0.0 mm 0.00 in0.0 mm 0.00 in0.0 mm
04:04 PM 53.5°F11.9°C 47.5°F8.6°C 80% 6.4 mph E10.3 kmh E 10.5 mph16.9 kmh 29.79 in1008.8 mb 0.00 in0.0 mm 0.00 in0.0 mm 0.00 in0.0 mm
04:03 PM 53.5°F11.9°C 47.8°F8.8°C 81% 3.2 mph E5.1 kmh E 10.5 mph16.9 kmh 29.79 in1008.8 mb 0.00 in0.0 mm 0.00 in0.0 mm 0.00 in0.0 mm
04:02 PM 53.5°F11.9°C 47.8°F8.8°C 81% 3.8 mph E6.1 kmh E 9.9 mph15.9 kmh 29.79 in1008.8 mb 0.00 in0.0 mm 0.00 in0.0 mm 0.00 in0.0 mm
04:01 PM 53.5°F11.9°C 47.8°F8.8°C 81% 7.5 mph NE12.1 kmh NE 9.7 mph15.6 kmh 29.79 in1008.8 mb 0.00 in0.0 mm 0.00 in0.0 mm 0.00 in0.0 mm
03:59 PM 53.7°F12.1°C 48.0°F8.9°C 81% 3.8 mph NE6.1 kmh NE 9.7 mph15.6 kmh 29.79 in1008.8 mb 0.00 in0.0 mm 0.00 in0.0 mm 0.00 in0.0 mm
03:58 PM 53.7°F12.1°C 48.0°F8.9°C 81% 7.5 mph E12.1 kmh E 9.7 mph15.6 kmh 29.79 in1008.8 mb 0.00 in0.0 mm 0.00 in0.0 mm 0.00 in0.0 mm
03:55 PM 53.9°F12.2°C 48.2°F9.0°C 81% 3.8 mph NE6.1 kmh NE 9.1 mph14.6 kmh 29.79 in1008.8 mb 0.00 in0.0 mm 0.00 in0.0 mm 0.00 in0.0 mm
03:53 PM 53.9°F12.2°C 48.2°F9.0°C 81% 3.2 mph ENE5.1 kmh ENE 9.1 mph14.6 kmh 29.79 in1008.8 mb 0.00 in0.0 mm 0.00 in0.0 mm 0.00 in0.0 mm
03:52 PM 53.7°F12.1°C 48.0°F8.9°C 81% 4.8 mph E7.7 kmh E 9.1 mph14.6 kmh 29.79 in1008.8 mb 0.00 in0.0 mm 0.00 in0.0 mm 0.00 in0.0 mm
03:51 PM 53.7°F12.1°C 48.0°F8.9°C 81% Calm Calm 9.1 mph14.6 kmh 29.79 in1008.8 mb 0.00 in0.0 mm 0.00 in0.0 mm 0.00 in0.0 mm
03:49 PM 53.7°F12.1°C 48.0°F8.9°C 81% 4.3 mph NE6.9 kmh NE 8.6 mph13.8 kmh 29.79 in1008.8 mb 0.00 in0.0 mm 0.00 in0.0 mm 0.00 in0.0 mm
03:48 PM 53.7°F12.1°C 48.0°F8.9°C 81% Calm Calm 9.7 mph15.6 kmh 29.79 in1008.8 mb 0.00 in0.0 mm 0.00 in0.0 mm 0.00 in0.0 mm
03:47 PM 53.7°F12.1°C 47.7°F8.7°C 80% Calm Calm 9.9 mph15.9 kmh 29.79 in1008.8 mb 0.00 in0.0 mm 0.00 in0.0 mm 0.00 in0.0 mm
03:45 PM 53.9°F12.2°C 47.8°F8.8°C 80% Calm Calm 9.9 mph15.9 kmh 29.79 in1008.8 mb 0.00 in0.0 mm 0.00 in0.0 mm 0.00 in0.0 mm
03:44 PM 53.9°F12.2°C 47.8°F8.8°C 80% 4.3 mph E6.9 kmh E 9.9 mph15.9 kmh 29.79 in1008.8 mb 0.00 in0.0 mm 0.00 in0.0 mm 0.00 in0.0 mm
03:43 PM 53.9°F12.2°C 47.8°F8.8°C 80% 4.3 mph E6.9 kmh E 9.9 mph15.9 kmh 29.79 in1008.8 mb 0.00 in0.0 mm 0.00 in0.0 mm 0.00 in0.0 mm
03:41 PM 53.9°F12.2°C 47.8°F8.8°C 80% 6.4 mph ESE10.3 kmh ESE 9.9 mph15.9 kmh 29.79 in1008.8 mb 0.00 in0.0 mm 0.00 in0.0 mm 0.00 in0.0 mm
03:40 PM 54.0°F12.2°C 48.0°F8.9°C 80% 3.2 mph E5.1 kmh E 9.9 mph15.9 kmh 29.79 in1008.8 mb 0.00 in0.0 mm 0.00 in0.0 mm 0.00 in0.0 mm
03:39 PM 54.0°F12.2°C 48.0°F8.9°C 80% Calm Calm 9.9 mph15.9 kmh 29.79 in1008.8 mb 0.00 in0.0 mm 0.00 in0.0 mm 0.00 in0.0 mm
03:38 PM 54.0°F12.2°C 48.0°F8.9°C 80% 3.2 mph SE5.1 kmh SE 10.5 mph16.9 kmh 29.79 in1008.8 mb 0.00 in0.0 mm 0.00 in0.0 mm 0.00 in0.0 mm
03:37 PM 54.0°F12.2°C 48.0°F8.9°C 80% Calm Calm 10.5 mph16.9 kmh 29.79 in1008.8 mb 0.00 in0.0 mm 0.00 in0.0 mm 0.00 in0.0 mm
03:35 PM 54.0°F12.2°C 48.0°F8.9°C 80% Calm Calm 10.5 mph16.9 kmh 29.79 in1008.8 mb 0.00 in0.0 mm 0.00 in0.0 mm 0.00 in0.0 mm
03:34 PM 54.2°F12.3°C 48.2°F9.0°C 80% 9.9 mph NNE15.9 kmh NNE 10.5 mph16.9 kmh 29.79 in1008.8 mb 0.00 in0.0 mm 0.00 in0.0 mm 0.00 in0.0 mm
03:33 PM 54.2°F12.3°C 48.2°F9.0°C 80% Calm Calm 10.5 mph16.9 kmh 29.79 in1008.8 mb 0.00 in0.0 mm 0.00 in0.0 mm 0.00 in0.0 mm
03:32 PM 54.2°F12.3°C 48.2°F9.0°C 80% 4.3 mph S6.9 kmh S 10.5 mph16.9 kmh 29.79 in1008.8 mb 0.00 in0.0 mm 0.00 in0.0 mm 0.00 in0.0 mm
03:31 PM 54.4°F12.4°C 48.0°F8.9°C 79% 4.3 mph SE6.9 kmh SE 10.5 mph16.9 kmh 29.79 in1008.8 mb 0.00 in0.0 mm 0.00 in0.0 mm 0.00 in0.0 mm
03:30 PM 54.4°F12.4°C 48.4°F9.1°C 80% 7.5 mph E12.1 kmh E 10.5 mph16.9 kmh 29.79 in1008.8 mb 0.00 in0.0 mm 0.00 in0.0 mm 0.00 in0.0 mm
03:28 PM 54.4°F12.4°C 48.4°F9.1°C 80% 9.1 mph ENE14.6 kmh ENE 10.5 mph16.9 kmh 29.79 in1008.8 mb 0.00 in0.0 mm 0.00 in0.0 mm 0.00 in0.0 mm
03:27 PM 54.4°F12.4°C 48.4°F9.1°C 80% Calm Calm 12.6 mph20.3 kmh 29.79 in1008.8 mb 0.00 in0.0 mm 0.00 in0.0 mm 0.00 in0.0 mm
03:25 PM 54.4°F12.4°C 48.0°F8.9°C 79% 4.3 mph E6.9 kmh E 12.6 mph20.3 kmh 29.79 in1008.8 mb 0.00 in0.0 mm 0.00 in0.0 mm 0.00 in0.0 mm
03:24 PM 54.6°F12.6°C 48.5°F9.2°C 80% Calm Calm 12.6 mph20.3 kmh 29.79 in1008.8 mb 0.00 in0.0 mm 0.00 in0.0 mm 0.00 in0.0 mm
03:20 PM 54.8°F12.7°C 50.0°F10.0°C 84% 12.1 mph E19.5 kmh E 12.1 mph19.5 kmh 29.79 in1008.8 mb 0.00 in0.0 mm 0.00 in0.0 mm 0.00 in0.0 mm
03:19 PM 54.8°F12.7°C 50.0°F10.0°C 84% 6.4 mph ENE10.3 kmh ENE 10.5 mph16.9 kmh 29.79 in1008.8 mb 0.00 in0.0 mm 0.00 in0.0 mm 0.00 in0.0 mm
03:17 PM 54.8°F12.7°C 50.0°F10.0°C 84% Calm Calm 10.5 mph16.9 kmh 29.79 in1008.8 mb 0.00 in0.0 mm 0.00 in0.0 mm 0.00 in0.0 mm
03:15 PM 54.8°F12.7°C 49.7°F9.8°C 83% Calm Calm 10.5 mph16.9 kmh 29.79 in1008.8 mb 0.00 in0.0 mm 0.00 in0.0 mm 0.00 in0.0 mm
03:12 PM 54.9°F12.7°C 50.8°F10.4°C 86% 10.5 mph E16.9 kmh E 12.1 mph19.5 kmh 29.82 in1009.8 mb 0.00 in0.0 mm 0.00 in0.0 mm 0.00 in0.0 mm
03:11 PM 54.9°F12.7°C 50.8°F10.4°C 86% 3.2 mph SE5.1 kmh SE 12.1 mph19.5 kmh 29.82 in1009.8 mb 0.00 in0.0 mm 0.00 in0.0 mm 0.00 in0.0 mm
03:10 PM 54.9°F12.7°C 50.8°F10.4°C 86% Calm Calm 12.1 mph19.5 kmh 29.82 in1009.8 mb 0.00 in0.0 mm 0.00 in0.0 mm 0.00 in0.0 mm
03:09 PM 54.8°F12.7°C 51.6°F10.9°C 89% 6.4 mph E10.3 kmh E 12.1 mph19.5 kmh 29.82 in1009.8 mb 0.00 in0.0 mm 0.00 in0.0 mm 0.00 in0.0 mm
03:07 PM 54.8°F12.7°C 51.6°F10.9°C 89% 7.5 mph ENE12.1 kmh ENE 8.6 mph13.8 kmh 29.82 in1009.8 mb 0.00 in0.0 mm 0.00 in0.0 mm 0.00 in0.0 mm
03:03 PM 54.8°F12.7°C 51.6°F10.9°C 89% 6.4 mph E10.3 kmh E 11.0 mph17.7 kmh 29.82 in1009.8 mb 0.00 in0.0 mm 0.00 in0.0 mm 0.00 in0.0 mm
03:02 PM 54.6°F12.6°C 51.4°F10.8°C 89% 5.4 mph E8.7 kmh E 11.0 mph17.7 kmh 29.82 in1009.8 mb 0.00 in0.0 mm 0.00 in0.0 mm 0.00 in0.0 mm
03:01 PM 54.4°F12.4°C 51.5°F10.8°C 90% 8.6 mph E13.8 kmh E 11.0 mph17.7 kmh 29.82 in1009.8 mb 0.00 in0.0 mm 0.00 in0.0 mm 0.00 in0.0 mm
02:59 PM 54.4°F12.4°C 51.8°F11.0°C 91% 10.5 mph E16.9 kmh E 11.0 mph17.7 kmh 29.82 in1009.8 mb 0.00 in0.0 mm 0.00 in0.0 mm 0.00 in0.0 mm
02:58 PM 54.2°F12.3°C 52.0°F11.1°C 92% 5.9 mph E9.5 kmh E 9.1 mph14.6 kmh 29.82 in1009.8 mb 0.00 in0.0 mm 0.00 in0.0 mm 0.00 in0.0 mm
02:56 PM 54.2°F12.3°C 52.0°F11.1°C 92% 3.8 mph SSE6.1 kmh SSE 9.1 mph14.6 kmh 29.79 in1008.8 mb 0.00 in0.0 mm 0.00 in0.0 mm 0.00 in0.0 mm
02:55 PM 54.2°F12.3°C 52.2°F11.2°C 93% 6.4 mph ENE10.3 kmh ENE 9.1 mph14.6 kmh 29.79 in1008.8 mb 0.00 in0.0 mm 0.00 in0.0 mm 0.00 in0.0 mm
02:54 PM 54.0°F12.2°C 52.1°F11.2°C 93% 3.8 mph ENE6.1 kmh ENE 10.5 mph16.9 kmh 29.79 in1008.8 mb 0.00 in0.0 mm 0.00 in0.0 mm 0.00 in0.0 mm
02:52 PM 54.0°F12.2°C 52.1°F11.2°C 93% 4.3 mph E6.9 kmh E 10.5 mph16.9 kmh 29.79 in1008.8 mb 0.00 in0.0 mm 0.00 in0.0 mm 0.00 in0.0 mm
02:50 PM 54.0°F12.2°C 52.1°F11.2°C 93% Calm Calm 10.5 mph16.9 kmh 29.79 in1008.8 mb 0.00 in0.0 mm 0.00 in0.0 mm 0.00 in0.0 mm
02:49 PM 54.0°F12.2°C 52.1°F11.2°C 93% 6.4 mph ENE10.3 kmh ENE 10.5 mph16.9 kmh 29.79 in1008.8 mb 0.00 in0.0 mm 0.00 in0.0 mm 0.00 in0.0 mm
02:47 PM 54.0°F12.2°C 52.1°F11.2°C 93% 3.8 mph ENE6.1 kmh ENE 10.5 mph16.9 kmh 29.79 in1008.8 mb 0.00 in0.0 mm 0.00 in0.0 mm 0.00 in0.0 mm
02:45 PM 53.9°F12.2°C 51.9°F11.1°C 93% 4.8 mph ENE7.7 kmh ENE 12.1 mph19.5 kmh 29.79 in1008.8 mb 0.00 in0.0 mm 0.00 in0.0 mm 0.00 in0.0 mm
02:43 PM 53.9°F12.2°C 51.9°F11.1°C 93% Calm Calm 12.1 mph19.5 kmh 29.79 in1008.8 mb 0.00 in0.0 mm 0.00 in0.0 mm 0.00 in0.0 mm
02:42 PM 53.7°F12.1°C 51.7°F10.9°C 93% 5.9 mph SE9.5 kmh SE 12.1 mph19.5 kmh 29.79 in1008.8 mb 0.00 in0.0 mm 0.00 in0.0 mm 0.00 in0.0 mm
02:40 PM 53.7°F12.1°C 51.7°F10.9°C 93% 3.8 mph S6.1 kmh S 12.1 mph19.5 kmh 29.79 in1008.8 mb 0.00 in0.0 mm 0.00 in0.0 mm 0.00 in0.0 mm
02:39 PM 53.7°F12.1°C 51.7°F10.9°C 93% 3.8 mph E6.1 kmh E 12.1 mph19.5 kmh 29.79 in1008.8 mb 0.00 in0.0 mm 0.00 in0.0 mm 0.00 in0.0 mm
02:38 PM 53.5°F11.9°C 51.5°F10.8°C 93% 9.1 mph E14.6 kmh E 10.5 mph16.9 kmh 29.79 in1008.8 mb 0.00 in0.0 mm 0.00 in0.0 mm 0.00 in0.0 mm
02:36 PM 53.5°F11.9°C 51.2°F10.7°C 92% 4.3 mph NE6.9 kmh NE 10.5 mph16.9 kmh 29.79 in1008.8 mb 0.00 in0.0 mm 0.00 in0.0 mm 0.00 in0.0 mm
02:35 PM 53.3°F11.8°C 51.1°F10.6°C 92% 6.4 mph E10.3 kmh E 8.1 mph13.0 kmh 29.79 in1008.8 mb 0.00 in0.0 mm 0.00 in0.0 mm 0.00 in0.0 mm
02:34 PM 53.3°F11.8°C 51.1°F10.6°C 92% Calm Calm 8.6 mph13.8 kmh 29.79 in1008.8 mb 0.00 in0.0 mm 0.00 in0.0 mm 0.00 in0.0 mm
02:32 PM 53.1°F11.7°C 50.9°F10.5°C 92% Calm Calm 9.9 mph15.9 kmh 29.79 in1008.8 mb 0.00 in0.0 mm 0.00 in0.0 mm 0.00 in0.0 mm
02:31 PM 53.1°F11.7°C 50.9°F10.5°C 92% Calm Calm 10.5 mph16.9 kmh 29.79 in1008.8 mb 0.00 in0.0 mm 0.00 in0.0 mm 0.00 in0.0 mm
02:29 PM 53.1°F11.7°C 51.2°F10.7°C 93% Calm Calm 10.5 mph16.9 kmh 29.79 in1008.8 mb 0.00 in0.0 mm 0.00 in0.0 mm 0.00 in0.0 mm
02:28 PM 53.1°F11.7°C 50.9°F10.5°C 92% Calm Calm 10.5 mph16.9 kmh 29.79 in1008.8 mb 0.00 in0.0 mm 0.00 in0.0 mm 0.00 in0.0 mm
02:27 PM 53.0°F11.7°C 50.7°F10.4°C 92% 6.4 mph ENE10.3 kmh ENE 10.5 mph16.9 kmh 29.82 in1009.8 mb 0.00 in0.0 mm 0.00 in0.0 mm 0.00 in0.0 mm
02:26 PM 53.0°F11.7°C 50.7°F10.4°C 92% 9.9 mph ESE15.9 kmh ESE 14.2 mph22.9 kmh 29.82 in1009.8 mb 0.00 in0.0 mm 0.00 in0.0 mm 0.00 in0.0 mm
02:24 PM 52.8°F11.6°C 50.5°F10.3°C 92% 10.5 mph NE16.9 kmh NE 14.2 mph22.9 kmh 29.82 in1009.8 mb 0.00 in0.0 mm 0.00 in0.0 mm 0.00 in0.0 mm
02:23 PM 52.8°F11.6°C 50.5°F10.3°C 92% 3.8 mph NE6.1 kmh NE 14.2 mph22.9 kmh 29.82 in1009.8 mb 0.00 in0.0 mm 0.00 in0.0 mm 0.00 in0.0 mm
02:21 PM 52.6°F11.4°C 50.4°F10.2°C 92% 3.8 mph SE6.1 kmh SE 14.2 mph22.9 kmh 29.82 in1009.8 mb 0.00 in0.0 mm 0.00 in0.0 mm 0.00 in0.0 mm
02:19 PM 52.6°F11.4°C 50.4°F10.2°C 92% 9.7 mph ENE15.6 kmh ENE 14.2 mph22.9 kmh 29.82 in1009.8 mb 0.00 in0.0 mm 0.00 in0.0 mm 0.00 in0.0 mm
02:18 PM 52.6°F11.4°C 50.6°F10.3°C 93% 6.4 mph E10.3 kmh E 9.7 mph15.6 kmh 29.82 in1009.8 mb 0.00 in0.0 mm 0.00 in0.0 mm 0.00 in0.0 mm
02:17 PM 52.8°F11.6°C 50.8°F10.4°C 93% 3.8 mph E6.1 kmh E 12.6 mph20.3 kmh 29.82 in1009.8 mb 0.00 in0.0 mm 0.00 in0.0 mm 0.00 in0.0 mm
02:16 PM 52.8°F11.6°C 50.8°F10.4°C 93% 5.4 mph SSE8.7 kmh SSE 12.6 mph20.3 kmh 29.82 in1009.8 mb 0.00 in0.0 mm 0.00 in0.0 mm 0.00 in0.0 mm
02:14 PM 52.6°F11.4°C 50.6°F10.3°C 93% Calm Calm 12.6 mph20.3 kmh 29.82 in1009.8 mb 0.00 in0.0 mm 0.00 in0.0 mm 0.00 in0.0 mm
02:12 PM 52.6°F11.4°C 50.6°F10.3°C 93% 4.3 mph NE6.9 kmh NE 12.6 mph20.3 kmh 29.82 in1009.8 mb 0.00 in0.0 mm 0.00 in0.0 mm 0.00 in0.0 mm
02:11 PM 52.6°F11.4°C 50.6°F10.3°C 93% 2.7 mph E4.3 kmh E 12.6 mph20.3 kmh 29.82 in1009.8 mb 0.00 in0.0 mm 0.00 in0.0 mm 0.00 in0.0 mm
02:10 PM 52.6°F11.4°C 50.6°F10.3°C 93% 4.3 mph E6.9 kmh E 12.6 mph20.3 kmh 29.82 in1009.8 mb 0.00 in0.0 mm 0.00 in0.0 mm 0.00 in0.0 mm
02:08 PM 52.6°F11.4°C 50.6°F10.3°C 93% 4.8 mph E7.7 kmh E 7.5 mph12.1 kmh 29.82 in1009.8 mb 0.00 in0.0 mm 0.00 in0.0 mm 0.00 in0.0 mm
02:07 PM 52.6°F11.4°C 50.6°F10.3°C 93% 3.8 mph E6.1 kmh E 7.5 mph12.1 kmh 29.82 in1009.8 mb 0.00 in0.0 mm 0.00 in0.0 mm 0.00 in0.0 mm
02:05 PM 52.4°F11.3°C 50.8°F10.4°C 94% Calm Calm 10.5 mph16.9 kmh 29.82 in1009.8 mb 0.00 in0.0 mm 0.00 in0.0 mm 0.00 in0.0 mm
02:04 PM 52.4°F11.3°C 50.8°F10.4°C 94% 4.8 mph E7.7 kmh E 13.2 mph21.2 kmh 29.82 in1009.8 mb 0.00 in0.0 mm 0.00 in0.0 mm 0.00 in0.0 mm
02:03 PM 52.4°F11.3°C 50.8°F10.4°C 94% Calm Calm 13.2 mph21.2 kmh 29.82 in1009.8 mb 0.00 in0.0 mm 0.00 in0.0 mm 0.00 in0.0 mm
02:01 PM 52.4°F11.3°C 50.8°F10.4°C 94% Calm Calm 13.2 mph21.2 kmh 29.82 in1009.8 mb 0.00 in0.0 mm 0.00 in0.0 mm 0.00 in0.0 mm
02:00 PM 52.4°F11.3°C 50.5°F10.3°C 93% 3.2 mph ESE5.1 kmh ESE 13.2 mph21.2 kmh 29.82 in1009.8 mb 0.00 in0.0 mm 0.00 in0.0 mm 0.00 in0.0 mm
01:58 PM 52.4°F11.3°C 50.5°F10.3°C 93% 10.5 mph SE16.9 kmh SE 13.2 mph21.2 kmh 29.82 in1009.8 mb 0.00 in0.0 mm 0.00 in0.0 mm 0.00 in0.0 mm
01:57 PM 52.4°F11.3°C 50.5°F10.3°C 93% 3.8 mph ENE6.1 kmh ENE 9.9 mph15.9 kmh 29.82 in1009.8 mb 0.00 in0.0 mm 0.00 in0.0 mm 0.00 in0.0 mm
01:56 PM 52.4°F11.3°C 50.5°F10.3°C 93% Calm Calm 9.9 mph15.9 kmh 29.82 in1009.8 mb 0.00 in0.0 mm 0.00 in0.0 mm 0.00 in0.0 mm
01:54 PM 52.4°F11.3°C 50.5°F10.3°C 93% 4.3 mph E6.9 kmh E 9.9 mph15.9 kmh 29.82 in1009.8 mb 0.00 in0.0 mm 0.00 in0.0 mm 0.00 in0.0 mm
01:53 PM 52.4°F11.3°C 50.5°F10.3°C 93% 4.3 mph ENE6.9 kmh ENE 9.9 mph15.9 kmh 29.82 in1009.8 mb 0.00 in0.0 mm 0.00 in0.0 mm 0.00 in0.0 mm
01:51 PM 52.2°F11.2°C 50.3°F10.2°C 93% 6.4 mph E10.3 kmh E 10.5 mph16.9 kmh 29.82 in1009.8 mb 0.00 in0.0 mm 0.00 in0.0 mm 0.00 in0.0 mm
01:50 PM 52.2°F11.2°C 50.3°F10.2°C 93% 4.8 mph ENE7.7 kmh ENE 10.5 mph16.9 kmh 29.82 in1009.8 mb 0.00 in0.0 mm 0.00 in0.0 mm 0.00 in0.0 mm
01:49 PM 52.2°F11.2°C 50.3°F10.2°C 93% 9.1 mph E14.6 kmh E 10.5 mph16.9 kmh 29.82 in1009.8 mb 0.00 in0.0 mm 0.00 in0.0 mm 0.00 in0.0 mm
01:47 PM 52.2°F11.2°C 50.3°F10.2°C 93% 7.0 mph NE11.3 kmh NE 10.5 mph16.9 kmh 29.82 in1009.8 mb 0.00 in0.0 mm 0.00 in0.0 mm 0.00 in0.0 mm
01:46 PM 52.1°F11.2°C 49.8°F9.9°C 92% 5.9 mph ESE9.5 kmh ESE 10.5 mph16.9 kmh 29.82 in1009.8 mb 0.00 in0.0 mm 0.00 in0.0 mm 0.00 in0.0 mm
01:45 PM 52.1°F11.2°C 49.8°F9.9°C 92% 6.4 mph E10.3 kmh E 7.5 mph12.1 kmh 29.82 in1009.8 mb 0.00 in0.0 mm 0.00 in0.0 mm 0.00 in0.0 mm
01:43 PM 52.1°F11.2°C 49.8°F9.9°C 92% Calm Calm 9.1 mph14.6 kmh 29.82 in1009.8 mb 0.00 in0.0 mm 0.00 in0.0 mm 0.00 in0.0 mm
01:42 PM 52.1°F11.2°C 49.8°F9.9°C 92% 4.3 mph E6.9 kmh E 9.1 mph14.6 kmh 29.82 in1009.8 mb 0.00 in0.0 mm 0.00 in0.0 mm 0.00 in0.0 mm
01:41 PM 52.1°F11.2°C 49.8°F9.9°C 92% 4.3 mph ENE6.9 kmh ENE 9.7 mph15.6 kmh 29.82 in1009.8 mb 0.00 in0.0 mm 0.00 in0.0 mm 0.00 in0.0 mm
01:39 PM 52.2°F11.2°C 50.0°F10.0°C 92% 3.2 mph E5.1 kmh E 10.5 mph16.9 kmh 29.82 in1009.8 mb 0.00 in0.0 mm 0.00 in0.0 mm 0.00 in0.0 mm
01:38 PM 52.2°F11.2°C 49.7°F9.8°C 91% 4.8 mph SE7.7 kmh SE 10.5 mph16.9 kmh 29.82 in1009.8 mb 0.00 in0.0 mm 0.00 in0.0 mm 0.00 in0.0 mm
01:36 PM 52.2°F11.2°C 49.7°F9.8°C 91% 3.8 mph ESE6.1 kmh ESE 10.5 mph16.9 kmh 29.82 in1009.8 mb 0.00 in0.0 mm 0.00 in0.0 mm 0.00 in0.0 mm
01:35 PM 52.2°F11.2°C 49.7°F9.8°C 91% Calm Calm 10.5 mph16.9 kmh 29.82 in1009.8 mb 0.00 in0.0 mm 0.00 in0.0 mm 0.00 in0.0 mm
01:33 PM 52.2°F11.2°C 49.4°F9.7°C 90% 6.4 mph NE10.3 kmh NE 9.7 mph15.6 kmh 29.82 in1009.8 mb 0.00 in0.0 mm 0.00 in0.0 mm 0.00 in0.0 mm
01:32 PM 52.2°F11.2°C 49.4°F9.7°C 90% Calm Calm 9.7 mph15.6 kmh 29.82 in1009.8 mb 0.00 in0.0 mm 0.00 in0.0 mm 0.00 in0.0 mm
01:30 PM 52.2°F11.2°C 49.1°F9.5°C 89% 4.8 mph SE7.7 kmh SE 9.7 mph15.6 kmh 29.82 in1009.8 mb 0.00 in0.0 mm 0.00 in0.0 mm 0.00 in0.0 mm
01:29 PM 52.2°F11.2°C 49.1°F9.5°C 89% Calm Calm 9.7 mph15.6 kmh 29.82 in1009.8 mb 0.00 in0.0 mm 0.00 in0.0 mm 0.00 in0.0 mm
01:28 PM 52.2°F11.2°C 49.1°F9.5°C 89% 4.8 mph S7.7 kmh S 9.7 mph15.6 kmh 29.82 in1009.8 mb 0.00 in0.0 mm 0.00 in0.0 mm 0.00 in0.0 mm
01:26 PM 52.4°F11.3°C 49.3°F9.6°C 89% 3.2 mph SE5.1 kmh SE 7.5 mph12.1 kmh 29.85 in1010.8 mb 0.00 in0.0 mm 0.00 in0.0 mm 0.00 in0.0 mm
01:25 PM 52.4°F11.3°C 49.3°F9.6°C 89% 4.3 mph S6.9 kmh S 7.5 mph12.1 kmh 29.85 in1010.8 mb 0.00 in0.0 mm 0.00 in0.0 mm 0.00 in0.0 mm
01:24 PM 52.4°F11.3°C 49.3°F9.6°C 89% 4.8 mph E7.7 kmh E 7.5 mph12.1 kmh 29.85 in1010.8 mb 0.00 in0.0 mm 0.00 in0.0 mm 0.00 in0.0 mm
01:22 PM 52.6°F11.4°C 49.2°F9.6°C 88% 4.8 mph SE7.7 kmh SE 5.9 mph9.5 kmh 29.85 in1010.8 mb 0.00 in0.0 mm 0.00 in0.0 mm 0.00 in0.0 mm
01:21 PM 52.6°F11.4°C 49.2°F9.6°C 88% Calm Calm 9.7 mph15.6 kmh 29.85 in1010.8 mb 0.00 in0.0 mm 0.00 in0.0 mm 0.00 in0.0 mm
01:20 PM 52.6°F11.4°C 49.2°F9.6°C 88% Calm Calm 9.7 mph15.6 kmh 29.85 in1010.8 mb 0.00 in0.0 mm 0.00 in0.0 mm 0.00 in0.0 mm
01:19 PM 52.6°F11.4°C 49.2°F9.6°C 88% Calm Calm 9.7 mph15.6 kmh 29.85 in1010.8 mb 0.00 in0.0 mm 0.00 in0.0 mm 0.00 in0.0 mm
01:18 PM 52.6°F11.4°C 49.2°F9.6°C 88% Calm Calm 9.7 mph15.6 kmh 29.85 in1010.8 mb 0.00 in0.0 mm 0.00 in0.0 mm 0.00 in0.0 mm
01:16 PM 52.6°F11.4°C 49.2°F9.6°C 88% Calm Calm 9.9 mph15.9 kmh 29.85 in1010.8 mb 0.00 in0.0 mm 0.00 in0.0 mm 0.00 in0.0 mm
01:15 PM 52.6°F11.4°C 49.2°F9.6°C 88% Calm Calm 9.9 mph15.9 kmh 29.85 in1010.8 mb 0.00 in0.0 mm 0.00 in0.0 mm 0.00 in0.0 mm
01:14 PM 52.6°F11.4°C 49.2°F9.6°C 88% 4.8 mph ESE7.7 kmh ESE 9.9 mph15.9 kmh 29.85 in1010.8 mb 0.00 in0.0 mm 0.00 in0.0 mm 0.00 in0.0 mm
01:12 PM 52.6°F11.4°C 48.9°F9.4°C 87% 4.3 mph SSE6.9 kmh SSE 9.9 mph15.9 kmh 29.85 in1010.8 mb 0.00 in0.0 mm 0.00 in0.0 mm 0.00 in0.0 mm
01:11 PM 52.6°F11.4°C 48.9°F9.4°C 87% 5.9 mph NE9.5 kmh NE 9.9 mph15.9 kmh 29.85 in1010.8 mb 0.00 in0.0 mm 0.00 in0.0 mm 0.00 in0.0 mm
01:09 PM 52.6°F11.4°C 48.9°F9.4°C 87% 3.2 mph ESE5.1 kmh ESE 8.6 mph13.8 kmh 29.85 in1010.8 mb 0.00 in0.0 mm 0.00 in0.0 mm 0.00 in0.0 mm
01:08 PM 52.6°F11.4°C 48.9°F9.4°C 87% 2.7 mph S4.3 kmh S 7.5 mph12.1 kmh 29.85 in1010.8 mb 0.00 in0.0 mm 0.00 in0.0 mm 0.00 in0.0 mm
01:07 PM 52.6°F11.4°C 48.9°F9.4°C 87% 3.2 mph SSE5.1 kmh SSE 5.9 mph9.5 kmh 29.85 in1010.8 mb 0.00 in0.0 mm 0.00 in0.0 mm 0.00 in0.0 mm
01:05 PM 52.6°F11.4°C 48.9°F9.4°C 87% Calm Calm 5.9 mph9.5 kmh 29.85 in1010.8 mb 0.00 in0.0 mm 0.00 in0.0 mm 0.00 in0.0 mm
01:04 PM 52.6°F11.4°C 48.9°F9.4°C 87% Calm Calm 4.8 mph7.7 kmh 29.85 in1010.8 mb 0.00 in0.0 mm 0.00 in0.0 mm 0.00 in0.0 mm
01:02 PM 52.6°F11.4°C 48.9°F9.4°C 87% Calm Calm 7.0 mph11.3 kmh 29.85 in1010.8 mb 0.00 in0.0 mm 0.00 in0.0 mm 0.00 in0.0 mm
01:01 PM 52.6°F11.4°C 48.5°F9.2°C 86% Calm Calm 7.5 mph12.1 kmh 29.85 in1010.8 mb 0.00 in0.0 mm 0.00 in0.0 mm 0.00 in0.0 mm
01:00 PM 52.6°F11.4°C 48.5°F9.2°C 86% Calm Calm 7.5 mph12.1 kmh 29.85 in1010.8 mb 0.00 in0.0 mm 0.00 in0.0 mm 0.00 in0.0 mm
12:59 PM 52.6°F11.4°C 48.5°F9.2°C 86% 2.7 mph ESE4.3 kmh ESE 7.5 mph12.1 kmh 29.85 in1010.8 mb 0.00 in0.0 mm 0.00 in0.0 mm 0.00 in0.0 mm
12:57 PM 52.6°F11.4°C 48.5°F9.2°C 86% 3.8 mph E6.1 kmh E 7.5 mph12.1 kmh 29.85 in1010.8 mb 0.00 in0.0 mm 0.00 in0.0 mm 0.00 in0.0 mm
12:56 PM 52.8°F11.6°C 48.7°F9.3°C 86% 2.7 mph S4.3 kmh S 7.5 mph12.1 kmh 29.85 in1010.8 mb 0.00 in0.0 mm 0.00 in0.0 mm 0.00 in0.0 mm
12:54 PM 52.8°F11.6°C 48.4°F9.1°C 85% 7.5 mph ENE12.1 kmh ENE 7.5 mph12.1 kmh 29.85 in1010.8 mb 0.00 in0.0 mm 0.00 in0.0 mm 0.00 in0.0 mm
12:53 PM 53.0°F11.7°C 48.9°F9.4°C 86% Calm Calm 7.5 mph12.1 kmh 29.85 in1010.8 mb 0.00 in0.0 mm 0.00 in0.0 mm 0.00 in0.0 mm
12:51 PM 53.0°F11.7°C 48.6°F9.2°C 85% 3.8 mph SE6.1 kmh SE 9.7 mph15.6 kmh 29.85 in1010.8 mb 0.00 in0.0 mm 0.00 in0.0 mm 0.00 in0.0 mm
12:50 PM 53.1°F11.7°C 48.8°F9.3°C 85% Calm Calm 9.7 mph15.6 kmh 29.85 in1010.8 mb 0.00 in0.0 mm 0.00 in0.0 mm 0.00 in0.0 mm
12:48 PM 53.3°F11.8°C 48.9°F9.4°C 85% 5.9 mph E9.5 kmh E 9.7 mph15.6 kmh 29.85 in1010.8 mb 0.00 in0.0 mm 0.00 in0.0 mm 0.00 in0.0 mm
12:46 PM 53.3°F11.8°C 48.9°F9.4°C 85% 2.7 mph ESE4.3 kmh ESE 9.7 mph15.6 kmh 29.85 in1010.8 mb 0.00 in0.0 mm 0.00 in0.0 mm 0.00 in0.0 mm
12:44 PM 53.3°F11.8°C 48.9°F9.4°C 85% Calm Calm 7.5 mph12.1 kmh 29.85 in1010.8 mb 0.00 in0.0 mm 0.00 in0.0 mm 0.00 in0.0 mm
12:43 PM 53.3°F11.8°C 48.9°F9.4°C 85% Calm Calm 9.1 mph14.6 kmh 29.85 in1010.8 mb 0.00 in0.0 mm 0.00 in0.0 mm 0.00 in0.0 mm
12:41 PM 53.3°F11.8°C 48.9°F9.4°C 85% 2.7 mph ESE4.3 kmh ESE 9.1 mph14.6 kmh 29.85 in1010.8 mb 0.00 in0.0 mm 0.00 in0.0 mm 0.00 in0.0 mm
12:39 PM 53.3°F11.8°C 48.9°F9.4°C 85% Calm Calm 9.1 mph14.6 kmh 29.85 in1010.8 mb 0.00 in0.0 mm 0.00 in0.0 mm 0.00 in0.0 mm
12:37 PM 53.5°F11.9°C 49.1°F9.5°C 85% Calm Calm 9.1 mph14.6 kmh 29.85 in1010.8 mb 0.00 in0.0 mm 0.00 in0.0 mm 0.00 in0.0 mm
12:36 PM 53.5°F11.9°C 48.8°F9.3°C 84% 5.4 mph E8.7 kmh E 7.5 mph12.1 kmh 29.85 in1010.8 mb 0.00 in0.0 mm 0.00 in0.0 mm 0.00 in0.0 mm
12:35 PM 53.5°F11.9°C 48.8°F9.3°C 84% Calm Calm 7.5 mph12.1 kmh 29.85 in1010.8 mb 0.00 in0.0 mm 0.00 in0.0 mm 0.00 in0.0 mm
12:33 PM 53.5°F11.9°C 48.8°F9.3°C 84% 3.2 mph E5.1 kmh E 7.5 mph12.1 kmh 29.85 in1010.8 mb 0.00 in0.0 mm 0.00 in0.0 mm 0.00 in0.0 mm
12:32 PM 53.5°F11.9°C 48.8°F9.3°C 84% Calm Calm 7.5 mph12.1 kmh 29.85 in1010.8 mb 0.00 in0.0 mm 0.00 in0.0 mm 0.00 in0.0 mm
12:30 PM 53.7°F12.1°C 49.0°F9.4°C 84% 5.9 mph ESE9.5 kmh ESE 9.1 mph14.6 kmh 29.85 in1010.8 mb 0.00 in0.0 mm 0.00 in0.0 mm 0.00 in0.0 mm
12:29 PM 53.7°F12.1°C 49.0°F9.4°C 84% 3.2 mph ENE5.1 kmh ENE 9.7 mph15.6 kmh 29.85 in1010.8 mb 0.00 in0.0 mm 0.00 in0.0 mm 0.00 in0.0 mm
12:28 PM 53.7°F12.1°C 49.0°F9.4°C 84% 3.2 mph SE5.1 kmh SE 9.7 mph15.6 kmh 29.85 in1010.8 mb 0.00 in0.0 mm 0.00 in0.0 mm 0.00 in0.0 mm
12:27 PM 53.7°F12.1°C 48.7°F9.3°C 83% Calm Calm 9.7 mph15.6 kmh 29.85 in1010.8 mb 0.00 in0.0 mm 0.00 in0.0 mm 0.00 in0.0 mm
12:25 PM 53.9°F12.2°C 48.8°F9.3°C 83% 3.8 mph S6.1 kmh S 9.7 mph15.6 kmh 29.85 in1010.8 mb 0.00 in0.0 mm 0.00 in0.0 mm 0.00 in0.0 mm
12:23 PM 53.9°F12.2°C 48.8°F9.3°C 83% 3.2 mph ENE5.1 kmh ENE 9.7 mph15.6 kmh 29.85 in1010.8 mb 0.00 in0.0 mm 0.00 in0.0 mm 0.00 in0.0 mm
12:22 PM 53.9°F12.2°C 49.2°F9.6°C 84% 9.7 mph E15.6 kmh E 9.7 mph15.6 kmh 29.85 in1010.8 mb 0.00 in0.0 mm 0.00 in0.0 mm 0.00 in0.0 mm
12:21 PM 53.9°F12.2°C 49.2°F9.6°C 84% 3.8 mph E6.1 kmh E 11.5 mph18.5 kmh 29.85 in1010.8 mb 0.00 in0.0 mm 0.00 in0.0 mm 0.00 in0.0 mm
12:19 PM 53.9°F12.2°C 49.2°F9.6°C 84% 4.3 mph ENE6.9 kmh ENE 11.5 mph18.5 kmh 29.85 in1010.8 mb 0.00 in0.0 mm 0.00 in0.0 mm 0.00 in0.0 mm
12:18 PM 53.9°F12.2°C 49.2°F9.6°C 84% Calm Calm 11.5 mph18.5 kmh 29.85 in1010.8 mb 0.00 in0.0 mm 0.00 in0.0 mm 0.00 in0.0 mm
12:16 PM 53.9°F12.2°C 49.2°F9.6°C 84% 3.2 mph SW5.1 kmh SW 11.5 mph18.5 kmh 29.85 in1010.8 mb 0.00 in0.0 mm 0.00 in0.0 mm 0.00 in0.0 mm
12:15 PM 53.9°F12.2°C 49.5°F9.7°C 85% 4.8 mph SE7.7 kmh SE 11.5 mph18.5 kmh 29.85 in1010.8 mb 0.00 in0.0 mm 0.00 in0.0 mm 0.00 in0.0 mm
12:13 PM 54.0°F12.2°C 49.6°F9.8°C 85% 11.5 mph E18.5 kmh E 11.5 mph18.5 kmh 29.85 in1010.8 mb 0.00 in0.0 mm 0.00 in0.0 mm 0.00 in0.0 mm
12:12 PM 54.0°F12.2°C 49.6°F9.8°C 85% Calm Calm 9.7 mph15.6 kmh 29.85 in1010.8 mb 0.00 in0.0 mm 0.00 in0.0 mm 0.00 in0.0 mm
12:11 PM 54.0°F12.2°C 49.6°F9.8°C 85% 7.0 mph E11.3 kmh E 9.7 mph15.6 kmh 29.85 in1010.8 mb 0.00 in0.0 mm 0.00 in0.0 mm 0.00 in0.0 mm
12:10 PM 54.0°F12.2°C 50.0°F10.0°C 86% Calm Calm 8.6 mph13.8 kmh 29.85 in1010.8 mb 0.00 in0.0 mm 0.00 in0.0 mm 0.00 in0.0 mm
12:08 PM 54.2°F12.3°C 50.1°F10.1°C 86% Calm Calm 8.6 mph13.8 kmh 29.85 in1010.8 mb 0.00 in0.0 mm 0.00 in0.0 mm 0.00 in0.0 mm
12:07 PM 54.2°F12.3°C 49.8°F9.9°C 85% Calm Calm 8.6 mph13.8 kmh 29.85 in1010.8 mb 0.00 in0.0 mm 0.00 in0.0 mm 0.00 in0.0 mm
12:06 PM 54.2°F12.3°C 49.8°F9.9°C 85% 8.6 mph ESE13.8 kmh ESE 8.6 mph13.8 kmh 29.85 in1010.8 mb 0.00 in0.0 mm 0.00 in0.0 mm 0.00 in0.0 mm
12:04 PM 54.2°F12.3°C 49.8°F9.9°C 85% Calm Calm 9.7 mph15.6 kmh 29.85 in1010.8 mb 0.00 in0.0 mm 0.00 in0.0 mm 0.00 in0.0 mm
12:03 PM 54.2°F12.3°C 49.8°F9.9°C 85% 2.7 mph S4.3 kmh S 11.5 mph18.5 kmh 29.85 in1010.8 mb 0.00 in0.0 mm 0.00 in0.0 mm 0.00 in0.0 mm
12:01 PM 54.4°F12.4°C 50.0°F10.0°C 85% Calm Calm 11.5 mph18.5 kmh 29.85 in1010.8 mb 0.00 in0.0 mm 0.00 in0.0 mm 0.00 in0.0 mm
11:59 AM 54.4°F12.4°C 50.0°F10.0°C 85% Calm Calm 11.5 mph18.5 kmh 29.85 in1010.8 mb 0.00 in0.0 mm 0.00 in0.0 mm 0.00 in0.0 mm
11:58 AM 54.4°F12.4°C 50.0°F10.0°C 85% Calm Calm 11.5 mph18.5 kmh 29.85 in1010.8 mb 0.00 in0.0 mm 0.00 in0.0 mm 0.00 in0.0 mm
11:57 AM 54.4°F12.4°C 50.0°F10.0°C 85% Calm Calm 11.5 mph18.5 kmh 29.85 in1010.8 mb 0.00 in0.0 mm 0.00 in0.0 mm 0.00 in0.0 mm
11:56 AM 54.4°F12.4°C 50.0°F10.0°C 85% 11.5 mph E18.5 kmh E 11.5 mph18.5 kmh 29.85 in1010.8 mb 0.00 in0.0 mm 0.00 in0.0 mm 0.00 in0.0 mm
11:54 AM 54.4°F12.4°C 50.0°F10.0°C 85% 3.8 mph E6.1 kmh E 7.0 mph11.3 kmh 29.85 in1010.8 mb 0.00 in0.0 mm 0.00 in0.0 mm 0.00 in0.0 mm
11:53 AM 54.4°F12.4°C 50.0°F10.0°C 85% Calm Calm 7.0 mph11.3 kmh 29.85 in1010.8 mb 0.00 in0.0 mm 0.00 in0.0 mm 0.00 in0.0 mm
11:51 AM 54.2°F12.3°C 49.8°F9.9°C 85% 3.8 mph E6.1 kmh E 7.0 mph11.3 kmh 29.85 in1010.8 mb 0.00 in0.0 mm 0.00 in0.0 mm 0.00 in0.0 mm
11:50 AM 54.2°F12.3°C 49.8°F9.9°C 85% 4.3 mph NNE6.9 kmh NNE 7.0 mph11.3 kmh 29.85 in1010.8 mb 0.00 in0.0 mm 0.00 in0.0 mm 0.00 in0.0 mm
11:48 AM 54.4°F12.4°C 50.0°F10.0°C 85% Calm Calm 7.0 mph11.3 kmh 29.85 in1010.8 mb 0.00 in0.0 mm 0.00 in0.0 mm 0.00 in0.0 mm
11:47 AM 54.6°F12.6°C 50.2°F10.1°C 85% 4.3 mph ESE6.9 kmh ESE 6.4 mph10.3 kmh 29.85 in1010.8 mb 0.00 in0.0 mm 0.00 in0.0 mm 0.00 in0.0 mm
11:45 AM 54.6°F12.6°C 49.9°F9.9°C 84% Calm Calm -- 29.85 in1010.8 mb 0.00 in0.0 mm 0.00 in0.0 mm 0.00 in0.0 mm
11:44 AM 54.6°F12.6°C 49.9°F9.9°C 84% Calm Calm 7.0 mph11.3 kmh 29.85 in1010.8 mb 0.00 in0.0 mm 0.00 in0.0 mm 0.00 in0.0 mm
11:43 AM 54.4°F12.4°C 49.4°F9.7°C 83% Calm Calm 8.6 mph13.8 kmh 29.85 in1010.8 mb 0.00 in0.0 mm 0.00 in0.0 mm 0.00 in0.0 mm
11:42 AM 54.4°F12.4°C 49.4°F9.7°C 83% Calm Calm 8.6 mph13.8 kmh 29.82 in1009.8 mb 0.00 in0.0 mm 0.00 in0.0 mm 0.00 in0.0 mm
11:40 AM 54.4°F12.4°C 48.7°F9.3°C 81% Calm Calm 12.1 mph19.5 kmh 29.82 in1009.8 mb 0.00 in0.0 mm 0.00 in0.0 mm 0.00 in0.0 mm
11:38 AM 54.4°F12.4°C 48.4°F9.1°C 80% Calm Calm 12.1 mph19.5 kmh 29.82 in1009.8 mb 0.00 in0.0 mm 0.00 in0.0 mm 0.00 in0.0 mm
11:37 AM 54.2°F12.3°C 48.2°F9.0°C 80% 7.0 mph E11.3 kmh E 12.1 mph19.5 kmh 29.82 in1009.8 mb 0.00 in0.0 mm 0.00 in0.0 mm 0.00 in0.0 mm
11:36 AM 54.2°F12.3°C 48.2°F9.0°C 80% 6.4 mph ENE10.3 kmh ENE 12.6 mph20.3 kmh 29.82 in1009.8 mb 0.00 in0.0 mm 0.00 in0.0 mm 0.00 in0.0 mm
11:34 AM 54.2°F12.3°C 48.5°F9.2°C 81% 3.8 mph ENE6.1 kmh ENE 12.6 mph20.3 kmh 29.82 in1009.8 mb 0.00 in0.0 mm 0.00 in0.0 mm 0.00 in0.0 mm
11:33 AM 54.4°F12.4°C 49.7°F9.8°C 84% 7.5 mph ENE12.1 kmh ENE 12.6 mph20.3 kmh 29.82 in1009.8 mb 0.00 in0.0 mm 0.00 in0.0 mm 0.00 in0.0 mm
11:32 AM 54.4°F12.4°C 50.0°F10.0°C 85% 6.4 mph E10.3 kmh E 12.6 mph20.3 kmh 29.82 in1009.8 mb 0.00 in0.0 mm 0.00 in0.0 mm 0.00 in0.0 mm
11:30 AM 54.4°F12.4°C 50.3°F10.2°C 86% 4.8 mph NE7.7 kmh NE 12.6 mph20.3 kmh 29.82 in1009.8 mb 0.00 in0.0 mm 0.00 in0.0 mm 0.00 in0.0 mm
11:29 AM 54.6°F12.6°C 51.1°F10.6°C 88% 7.0 mph ENE11.3 kmh ENE 12.6 mph20.3 kmh 29.82 in1009.8 mb 0.00 in0.0 mm 0.00 in0.0 mm 0.00 in0.0 mm
11:27 AM 54.6°F12.6°C 51.4°F10.8°C 89% 7.0 mph E11.3 kmh E 9.7 mph15.6 kmh 29.82 in1009.8 mb 0.00 in0.0 mm 0.00 in0.0 mm 0.00 in0.0 mm
11:26 AM 54.6°F12.6°C 51.7°F10.9°C 90% Calm Calm 9.7 mph15.6 kmh 29.85 in1010.8 mb 0.00 in0.0 mm 0.00 in0.0 mm 0.00 in0.0 mm
11:25 AM 54.6°F12.6°C 51.7°F10.9°C 90% Calm Calm 9.7 mph15.6 kmh 29.85 in1010.8 mb 0.00 in0.0 mm 0.00 in0.0 mm 0.00 in0.0 mm
11:23 AM 54.6°F12.6°C 51.7°F10.9°C 90% Calm Calm 9.7 mph15.6 kmh 29.85 in1010.8 mb 0.00 in0.0 mm 0.00 in0.0 mm 0.00 in0.0 mm
11:22 AM 54.6°F12.6°C 52.0°F11.1°C 91% 9.1 mph E14.6 kmh E 12.1 mph19.5 kmh 29.85 in1010.8 mb 0.00 in0.0 mm 0.00 in0.0 mm 0.00 in0.0 mm
11:21 AM 54.6°F12.6°C 52.0°F11.1°C 91% 3.8 mph NE6.1 kmh NE 12.1 mph19.5 kmh 29.85 in1010.8 mb 0.00 in0.0 mm 0.00 in0.0 mm 0.00 in0.0 mm
11:19 AM 54.6°F12.6°C 52.9°F11.6°C 94% 7.5 mph NE12.1 kmh NE 12.1 mph19.5 kmh 29.85 in1010.8 mb 0.00 in0.0 mm 0.00 in0.0 mm 0.00 in0.0 mm
11:17 AM 54.8°F12.7°C 53.1°F11.7°C 94% Calm Calm 12.1 mph19.5 kmh 29.85 in1010.8 mb 0.00 in0.0 mm 0.00 in0.0 mm 0.00 in0.0 mm
11:16 AM 54.8°F12.7°C 53.1°F11.7°C 94% 6.4 mph E10.3 kmh E 12.1 mph19.5 kmh 29.85 in1010.8 mb 0.00 in0.0 mm 0.00 in0.0 mm 0.00 in0.0 mm
11:15 AM 54.8°F12.7°C 53.4°F11.9°C 95% Calm Calm 9.9 mph15.9 kmh 29.85 in1010.8 mb 0.00 in0.0 mm 0.00 in0.0 mm 0.00 in0.0 mm
11:13 AM 54.8°F12.7°C 53.4°F11.9°C 95% 3.2 mph SE5.1 kmh SE 9.9 mph15.9 kmh 29.85 in1010.8 mb 0.00 in0.0 mm 0.00 in0.0 mm 0.00 in0.0 mm
11:12 AM 54.8°F12.7°C 53.7°F12.1°C 96% 7.0 mph SSE11.3 kmh SSE 9.9 mph15.9 kmh 29.85 in1010.8 mb 0.00 in0.0 mm 0.00 in0.0 mm 0.00 in0.0 mm
11:10 AM 54.9°F12.7°C 53.8°F12.1°C 96% 4.3 mph E6.9 kmh E 9.9 mph15.9 kmh 29.85 in1010.8 mb 0.00 in0.0 mm 0.00 in0.0 mm 0.00 in0.0 mm
11:09 AM 54.9°F12.7°C 53.8°F12.1°C 96% 7.5 mph E12.1 kmh E 11.0 mph17.7 kmh 29.85 in1010.8 mb 0.00 in0.0 mm 0.00 in0.0 mm 0.00 in0.0 mm
11:08 AM 54.8°F12.7°C 53.9°F12.2°C 97% 3.8 mph NW6.1 kmh NW 11.0 mph17.7 kmh 29.85 in1010.8 mb 0.00 in0.0 mm 0.00 in0.0 mm 0.00 in0.0 mm
11:06 AM 54.8°F12.7°C 54.2°F12.3°C 98% 6.4 mph E10.3 kmh E 11.0 mph17.7 kmh 29.85 in1010.8 mb 0.00 in0.0 mm 0.00 in0.0 mm 0.00 in0.0 mm
11:05 AM 54.8°F12.7°C 54.2°F12.3°C 98% 5.9 mph E9.5 kmh E 11.0 mph17.7 kmh 29.85 in1010.8 mb 0.00 in0.0 mm 0.00 in0.0 mm 0.00 in0.0 mm
11:03 AM 54.9°F12.7°C 54.9°F12.7°C 100% 4.3 mph NE6.9 kmh NE 11.0 mph17.7 kmh 29.85 in1010.8 mb 0.00 in0.0 mm 0.00 in0.0 mm 0.00 in0.0 mm
11:02 AM 54.9°F12.7°C 54.9°F12.7°C 100% 4.3 mph E6.9 kmh E 11.0 mph17.7 kmh 29.85 in1010.8 mb 0.00 in0.0 mm 0.00 in0.0 mm 0.00 in0.0 mm
11:01 AM 54.9°F12.7°C 54.9°F12.7°C 100% Calm Calm 8.6 mph13.8 kmh 29.85 in1010.8 mb 0.00 in0.0 mm 0.00 in0.0 mm 0.00 in0.0 mm
11:00 AM 54.9°F12.7°C 54.9°F12.7°C 100% 4.3 mph E6.9 kmh E 8.6 mph13.8 kmh 29.85 in1010.8 mb 0.00 in0.0 mm 0.00 in0.0 mm 0.00 in0.0 mm
10:58 AM 54.8°F12.7°C 54.8°F12.7°C 100% 4.3 mph SE6.9 kmh SE 8.1 mph13.0 kmh 29.85 in1010.8 mb 0.00 in0.0 mm 0.00 in0.0 mm 0.00 in0.0 mm
10:57 AM 54.8°F12.7°C 54.8°F12.7°C 100% 3.2 mph ENE5.1 kmh ENE 8.1 mph13.0 kmh 29.85 in1010.8 mb 0.00 in0.0 mm 0.00 in0.0 mm 0.00 in0.0 mm
10:55 AM 54.8°F12.7°C 54.8°F12.7°C 100% 4.8 mph SE7.7 kmh SE 8.1 mph13.0 kmh 29.85 in1010.8 mb 0.00 in0.0 mm 0.00 in0.0 mm 0.00 in0.0 mm
10:54 AM 54.8°F12.7°C 54.8°F12.7°C 100% Calm Calm 12.6 mph20.3 kmh 29.85 in1010.8 mb 0.00 in0.0 mm 0.00 in0.0 mm 0.00 in0.0 mm
10:52 AM 54.9°F12.7°C 54.9°F12.7°C - 3.8 mph E6.1 kmh E 12.6 mph20.3 kmh 29.85 in1010.8 mb 0.00 in0.0 mm 0.00 in0.0 mm 0.00 in0.0 mm
10:51 AM 54.9°F12.7°C 54.9°F12.7°C 100% 3.8 mph SSE6.1 kmh SSE 12.6 mph20.3 kmh 29.85 in1010.8 mb 0.00 in0.0 mm 0.00 in0.0 mm 0.00 in0.0 mm
10:50 AM 54.9°F12.7°C 54.9°F12.7°C 100% Calm Calm 12.6 mph20.3 kmh 29.85 in1010.8 mb 0.00 in0.0 mm 0.00 in0.0 mm 0.00 in0.0 mm
10:48 AM 54.9°F12.7°C 54.9°F12.7°C 100% 7.0 mph E11.3 kmh E 12.6 mph20.3 kmh 29.85 in1010.8 mb 0.00 in0.0 mm 0.00 in0.0 mm 0.00 in0.0 mm
10:47 AM 54.9°F12.7°C 54.9°F12.7°C 100% 4.8 mph N7.7 kmh N 7.5 mph12.1 kmh 29.85 in1010.8 mb 0.00 in0.0 mm 0.00 in0.0 mm 0.00 in0.0 mm
10:45 AM 54.9°F12.7°C 54.9°F12.7°C 100% 3.8 mph NE6.1 kmh NE 7.5 mph12.1 kmh 29.85 in1010.8 mb 0.00 in0.0 mm 0.00 in0.0 mm 0.00 in0.0 mm
10:44 AM 54.9°F12.7°C 54.9°F12.7°C 100% Calm Calm 7.5 mph12.1 kmh 29.85 in1010.8 mb 0.00 in0.0 mm 0.00 in0.0 mm 0.00 in0.0 mm
10:43 AM 54.8°F12.7°C 54.8°F12.7°C 100% 4.8 mph SE7.7 kmh SE 7.5 mph12.1 kmh 29.85 in1010.8 mb 0.00 in0.0 mm 0.00 in0.0 mm 0.00 in0.0 mm
10:41 AM 54.8°F12.7°C 54.8°F12.7°C 100% Calm Calm 7.5 mph12.1 kmh 29.85 in1010.8 mb 0.00 in0.0 mm 0.00 in0.0 mm 0.00 in0.0 mm
10:40 AM 54.6°F12.6°C 54.6°F12.6°C 100% 7.5 mph SE12.1 kmh SE 7.5 mph12.1 kmh 29.85 in1010.8 mb 0.00 in0.0 mm 0.00 in0.0 mm 0.00 in0.0 mm
10:38 AM 54.6°F12.6°C 54.6°F12.6°C 100% Calm Calm 9.9 mph15.9 kmh 29.85 in1010.8 mb 0.00 in0.0 mm 0.00 in0.0 mm 0.00 in0.0 mm
10:37 AM 54.6°F12.6°C 54.6°F12.6°C 100% 3.2 mph SE5.1 kmh SE 9.9 mph15.9 kmh 29.85 in1010.8 mb 0.00 in0.0 mm 0.00 in0.0 mm 0.00 in0.0 mm
10:36 AM 54.6°F12.6°C 54.6°F12.6°C 100% 6.4 mph ESE10.3 kmh ESE 9.9 mph15.9 kmh 29.85 in1010.8 mb 0.00 in0.0 mm 0.00 in0.0 mm 0.00 in0.0 mm
10:35 AM 54.6°F12.6°C 54.6°F12.6°C 100% 4.3 mph ENE6.9 kmh ENE 9.9 mph15.9 kmh 29.85 in1010.8 mb 0.00 in0.0 mm 0.00 in0.0 mm 0.00 in0.0 mm
10:33 AM 54.4°F12.4°C 54.4°F12.4°C 100% 3.8 mph ESE6.1 kmh ESE 9.9 mph15.9 kmh 29.85 in1010.8 mb 0.00 in0.0 mm 0.00 in0.0 mm 0.00 in0.0 mm
10:31 AM 54.2°F12.3°C 54.2°F12.3°C 100% 4.3 mph NE6.9 kmh NE 7.0 mph11.3 kmh 29.85 in1010.8 mb 0.00 in0.0 mm 0.00 in0.0 mm 0.00 in0.0 mm
10:30 AM 54.0°F12.2°C 54.0°F12.2°C 100% Calm Calm 9.9 mph15.9 kmh 29.85 in1010.8 mb 0.00 in0.0 mm 0.00 in0.0 mm 0.00 in0.0 mm
10:29 AM 54.0°F12.2°C 54.0°F12.2°C 100% Calm Calm 9.9 mph15.9 kmh 29.85 in1010.8 mb 0.00 in0.0 mm 0.00 in0.0 mm 0.00 in0.0 mm
10:28 AM 54.0°F12.2°C 54.0°F12.2°C 100% Calm Calm 9.9 mph15.9 kmh 29.85 in1010.8 mb 0.00 in0.0 mm 0.00 in0.0 mm 0.00 in0.0 mm
10:26 AM 53.9°F12.2°C 53.9°F12.2°C 100% 5.9 mph SE9.5 kmh SE 9.9 mph15.9 kmh 29.85 in1010.8 mb 0.00 in0.0 mm 0.00 in0.0 mm 0.00 in0.0 mm
10:24 AM 53.9°F12.2°C 53.9°F12.2°C 100% 4.8 mph ENE7.7 kmh ENE 9.9 mph15.9 kmh 29.85 in1010.8 mb 0.00 in0.0 mm 0.00 in0.0 mm 0.00 in0.0 mm
10:23 AM 53.9°F12.2°C 53.9°F12.2°C 100% 9.9 mph SE15.9 kmh SE 9.9 mph15.9 kmh 29.85 in1010.8 mb 0.00 in0.0 mm 0.00 in0.0 mm 0.00 in0.0 mm
10:21 AM 53.7°F12.1°C 53.7°F12.1°C 100% Calm Calm 7.5 mph12.1 kmh 29.85 in1010.8 mb 0.00 in0.0 mm 0.00 in0.0 mm 0.00 in0.0 mm
10:20 AM 53.7°F12.1°C 53.7°F12.1°C 100% 3.8 mph ENE6.1 kmh ENE 7.5 mph12.1 kmh 29.85 in1010.8 mb 0.00 in0.0 mm 0.00 in0.0 mm 0.00 in0.0 mm
10:19 AM 53.5°F11.9°C 53.5°F11.9°C 100% 4.8 mph SE7.7 kmh SE 7.5 mph12.1 kmh 29.85 in1010.8 mb 0.00 in0.0 mm 0.00 in0.0 mm 0.00 in0.0 mm
10:17 AM 53.5°F11.9°C 53.5°F11.9°C 100% 3.8 mph S6.1 kmh S 7.5 mph12.1 kmh 29.85 in1010.8 mb 0.00 in0.0 mm 0.00 in0.0 mm 0.00 in0.0 mm
10:16 AM 53.3°F11.8°C 53.3°F11.8°C 100% 7.0 mph ESE11.3 kmh ESE 7.5 mph12.1 kmh 29.85 in1010.8 mb 0.00 in0.0 mm 0.00 in0.0 mm 0.00 in0.0 mm
10:14 AM 53.3°F11.8°C 53.3°F11.8°C 100% Calm Calm 7.0 mph11.3 kmh 29.85 in1010.8 mb 0.00 in0.0 mm 0.00 in0.0 mm 0.00 in0.0 mm
10:13 AM 53.1°F11.7°C 53.1°F11.7°C 100% Calm Calm 7.0 mph11.3 kmh 29.85 in1010.8 mb 0.00 in0.0 mm 0.00 in0.0 mm 0.00 in0.0 mm
10:12 AM 53.1°F11.7°C 53.1°F11.7°C 100% 3.2 mph SSE5.1 kmh SSE 7.0 mph11.3 kmh 29.85 in1010.8 mb 0.00 in0.0 mm 0.00 in0.0 mm 0.00 in0.0 mm
10:10 AM 53.1°F11.7°C 53.1°F11.7°C 100% Calm Calm 7.0 mph11.3 kmh 29.85 in1010.8 mb 0.00 in0.0 mm 0.00 in0.0 mm 0.00 in0.0 mm
10:09 AM 53.0°F11.7°C 53.0°F11.7°C 100% 4.8 mph SW7.7 kmh SW 7.0 mph11.3 kmh 29.85 in1010.8 mb 0.00 in0.0 mm 0.00 in0.0 mm 0.00 in0.0 mm
10:08 AM 53.0°F11.7°C 53.0°F11.7°C 100% 3.2 mph SSW5.1 kmh SSW 7.0 mph11.3 kmh 29.85 in1010.8 mb 0.00 in0.0 mm 0.00 in0.0 mm 0.00 in0.0 mm
10:07 AM 53.0°F11.7°C 53.0°F11.7°C 100% Calm Calm 7.0 mph11.3 kmh 29.85 in1010.8 mb 0.00 in0.0 mm 0.00 in0.0 mm 0.00 in0.0 mm
10:05 AM 52.8°F11.6°C 52.8°F11.6°C 100% Calm Calm 6.4 mph10.3 kmh 29.85 in1010.8 mb 0.00 in0.0 mm 0.00 in0.0 mm 0.00 in0.0 mm
10:03 AM 52.8°F11.6°C 52.8°F11.6°C 100% 4.3 mph NE6.9 kmh NE 6.4 mph10.3 kmh 29.85 in1010.8 mb 0.00 in0.0 mm 0.00 in0.0 mm 0.00 in0.0 mm
10:02 AM 52.8°F11.6°C 52.8°F11.6°C 100% 4.3 mph S6.9 kmh S 6.4 mph10.3 kmh 29.85 in1010.8 mb 0.00 in0.0 mm 0.00 in0.0 mm 0.00 in0.0 mm
10:00 AM 52.8°F11.6°C 52.8°F11.6°C 100% 3.2 mph E5.1 kmh E 6.4 mph10.3 kmh 29.85 in1010.8 mb 0.00 in0.0 mm 0.00 in0.0 mm 0.00 in0.0 mm
09:59 AM 52.8°F11.6°C 52.8°F11.6°C 100% Calm Calm 6.4 mph10.3 kmh 29.85 in1010.8 mb 0.00 in0.0 mm 0.00 in0.0 mm 0.00 in0.0 mm
09:58 AM 52.8°F11.6°C 52.8°F11.6°C 100% 6.4 mph E10.3 kmh E 9.7 mph15.6 kmh 29.85 in1010.8 mb 0.00 in0.0 mm 0.00 in0.0 mm 0.00 in0.0 mm
09:57 AM 52.8°F11.6°C 52.8°F11.6°C 100% 3.8 mph SE6.1 kmh SE 9.7 mph15.6 kmh 29.85 in1010.8 mb 0.00 in0.0 mm 0.00 in0.0 mm 0.00 in0.0 mm
09:55 AM 52.8°F11.6°C 52.8°F11.6°C 100% Calm Calm 9.7 mph15.6 kmh 29.85 in1010.8 mb 0.00 in0.0 mm 0.00 in0.0 mm 0.00 in0.0 mm
09:53 AM 52.8°F11.6°C 52.8°F11.6°C 100% Calm Calm 9.7 mph15.6 kmh 29.85 in1010.8 mb 0.00 in0.0 mm 0.00 in0.0 mm 0.00 in0.0 mm
09:52 AM 52.8°F11.6°C 52.8°F11.6°C 100% 3.8 mph NE6.1 kmh NE 9.7 mph15.6 kmh 29.85 in1010.8 mb 0.00 in0.0 mm 0.00 in0.0 mm 0.00 in0.0 mm
09:51 AM 52.8°F11.6°C 52.8°F11.6°C 100% 7.5 mph E12.1 kmh E 10.5 mph16.9 kmh 29.85 in1010.8 mb 0.00 in0.0 mm 0.00 in0.0 mm 0.00 in0.0 mm
09:50 AM 52.8°F11.6°C 52.8°F11.6°C 100% 3.2 mph E5.1 kmh E 10.5 mph16.9 kmh 29.85 in1010.8 mb 0.00 in0.0 mm 0.00 in0.0 mm 0.00 in0.0 mm
09:48 AM 53.0°F11.7°C 53.0°F11.7°C 100% Calm Calm 10.5 mph16.9 kmh 29.85 in1010.8 mb 0.00 in0.0 mm 0.00 in0.0 mm 0.00 in0.0 mm
09:46 AM 53.0°F11.7°C 53.0°F11.7°C 100% 4.3 mph SE6.9 kmh SE 10.5 mph16.9 kmh 29.85 in1010.8 mb 0.00 in0.0 mm 0.00 in0.0 mm 0.00 in0.0 mm
09:45 AM 53.0°F11.7°C 53.0°F11.7°C 100% Calm Calm 10.5 mph16.9 kmh 29.85 in1010.8 mb 0.00 in0.0 mm 0.00 in0.0 mm 0.00 in0.0 mm
09:44 AM 53.0°F11.7°C 53.0°F11.7°C 100% 9.9 mph ESE15.9 kmh ESE 9.9 mph15.9 kmh 29.85 in1010.8 mb 0.00 in0.0 mm 0.00 in0.0 mm 0.00 in0.0 mm
09:43 AM 53.0°F11.7°C 53.0°F11.7°C 100% 4.3 mph E6.9 kmh E 9.7 mph15.6 kmh 29.85 in1010.8 mb 0.00 in0.0 mm 0.00 in0.0 mm 0.00 in0.0 mm
09:41 AM 53.0°F11.7°C 53.0°F11.7°C 100% 5.4 mph E8.7 kmh E 9.7 mph15.6 kmh 29.88 in1011.9 mb 0.00 in0.0 mm 0.00 in0.0 mm 0.00 in0.0 mm
09:39 AM 53.0°F11.7°C 53.0°F11.7°C 100% 6.4 mph E10.3 kmh E 9.7 mph15.6 kmh 29.88 in1011.9 mb 0.00 in0.0 mm 0.00 in0.0 mm 0.00 in0.0 mm
09:38 AM 52.8°F11.6°C 52.8°F11.6°C 100% 5.9 mph E9.5 kmh E 9.7 mph15.6 kmh 29.88 in1011.9 mb 0.00 in0.0 mm 0.00 in0.0 mm 0.00 in0.0 mm
09:37 AM 52.8°F11.6°C 52.8°F11.6°C 100% 7.5 mph E12.1 kmh E 9.7 mph15.6 kmh 29.88 in1011.9 mb 0.00 in0.0 mm 0.00 in0.0 mm 0.00 in0.0 mm
09:35 AM 52.8°F11.6°C 52.8°F11.6°C 100% 9.1 mph ENE14.6 kmh ENE 9.1 mph14.6 kmh 29.88 in1011.9 mb 0.00 in0.0 mm 0.00 in0.0 mm 0.00 in0.0 mm
09:34 AM 52.6°F11.4°C 52.6°F11.4°C 100% Calm Calm 7.5 mph12.1 kmh 29.88 in1011.9 mb 0.00 in0.0 mm 0.00 in0.0 mm 0.00 in0.0 mm
09:33 AM 52.6°F11.4°C 52.6°F11.4°C 100% Calm Calm 7.5 mph12.1 kmh 29.88 in1011.9 mb 0.00 in0.0 mm 0.00 in0.0 mm 0.00 in0.0 mm
09:31 AM 52.6°F11.4°C 52.6°F11.4°C 100% Calm Calm 7.5 mph12.1 kmh 29.88 in1011.9 mb 0.00 in0.0 mm 0.00 in0.0 mm 0.00 in0.0 mm
09:30 AM 52.6°F11.4°C 52.6°F11.4°C 100% Calm Calm 7.5 mph12.1 kmh 29.88 in1011.9 mb 0.00 in0.0 mm 0.00 in0.0 mm 0.00 in0.0 mm
09:28 AM 52.6°F11.4°C 52.6°F11.4°C 100% 3.2 mph E5.1 kmh E 9.9 mph15.9 kmh 29.88 in1011.9 mb 0.00 in0.0 mm 0.00 in0.0 mm 0.00 in0.0 mm
09:27 AM 52.6°F11.4°C 52.6°F11.4°C 100% 3.8 mph E6.1 kmh E 9.9 mph15.9 kmh 29.88 in1011.9 mb 0.00 in0.0 mm 0.00 in0.0 mm 0.00 in0.0 mm
09:25 AM 52.6°F11.4°C 52.6°F11.4°C 100% Calm Calm 9.9 mph15.9 kmh 29.88 in1011.9 mb 0.00 in0.0 mm 0.00 in0.0 mm 0.00 in0.0 mm
09:24 AM 52.6°F11.4°C 52.6°F11.4°C 100% Calm Calm 9.9 mph15.9 kmh 29.88 in1011.9 mb 0.00 in0.0 mm 0.00 in0.0 mm 0.00 in0.0 mm
09:23 AM 52.6°F11.4°C 52.6°F11.4°C 100% 5.9 mph ENE9.5 kmh ENE 9.9 mph15.9 kmh 29.88 in1011.9 mb 0.00 in0.0 mm 0.00 in0.0 mm 0.00 in0.0 mm
09:22 AM 52.8°F11.6°C 52.8°F11.6°C 100% Calm Calm 7.0 mph11.3 kmh 29.88 in1011.9 mb 0.00 in0.0 mm 0.00 in0.0 mm 0.00 in0.0 mm
09:20 AM 52.8°F11.6°C 52.8°F11.6°C 100% 7.0 mph SE11.3 kmh SE 7.0 mph11.3 kmh 29.88 in1011.9 mb 0.00 in0.0 mm 0.00 in0.0 mm 0.00 in0.0 mm
09:19 AM 52.8°F11.6°C 52.8°F11.6°C 100% 4.8 mph NNW7.7 kmh NNW 7.0 mph11.3 kmh 29.88 in1011.9 mb 0.00 in0.0 mm 0.00 in0.0 mm 0.00 in0.0 mm
09:17 AM 53.0°F11.7°C 53.0°F11.7°C 100% 2.7 mph E4.3 kmh E 7.0 mph11.3 kmh 29.88 in1011.9 mb 0.00 in0.0 mm 0.00 in0.0 mm 0.00 in0.0 mm
09:16 AM 53.0°F11.7°C 53.0°F11.7°C 100% Calm Calm 7.0 mph11.3 kmh 29.88 in1011.9 mb 0.00 in0.0 mm 0.00 in0.0 mm 0.00 in0.0 mm
09:14 AM 52.8°F11.6°C 52.8°F11.6°C 100% Calm Calm 9.9 mph15.9 kmh 29.88 in1011.9 mb 0.00 in0.0 mm 0.00 in0.0 mm 0.00 in0.0 mm
09:13 AM 52.8°F11.6°C 52.8°F11.6°C 100% Calm Calm 9.9 mph15.9 kmh 29.88 in1011.9 mb 0.00 in0.0 mm 0.00 in0.0 mm 0.00 in0.0 mm
09:12 AM 52.8°F11.6°C 52.8°F11.6°C 100% Calm Calm 9.9 mph15.9 kmh 29.85 in1010.8 mb 0.00 in0.0 mm 0.00 in0.0 mm 0.00 in0.0 mm
09:10 AM 52.8°F11.6°C 52.8°F11.6°C 100% 5.9 mph ENE9.5 kmh ENE 9.9 mph15.9 kmh 29.85 in1010.8 mb 0.00 in0.0 mm 0.00 in0.0 mm 0.00 in0.0 mm
09:09 AM 52.8°F11.6°C 52.8°F11.6°C 100% Calm Calm 9.9 mph15.9 kmh 29.85 in1010.8 mb 0.00 in0.0 mm 0.00 in0.0 mm 0.00 in0.0 mm
09:07 AM 52.8°F11.6°C 52.8°F11.6°C 100% 6.4 mph E10.3 kmh E 9.9 mph15.9 kmh 29.85 in1010.8 mb 0.00 in0.0 mm 0.00 in0.0 mm 0.00 in0.0 mm
09:06 AM 52.6°F11.4°C 52.6°F11.4°C 100% 4.8 mph S7.7 kmh S 7.5 mph12.1 kmh 29.85 in1010.8 mb 0.00 in0.0 mm 0.00 in0.0 mm 0.00 in0.0 mm
09:05 AM 52.6°F11.4°C 52.6°F11.4°C 100% 3.2 mph SW5.1 kmh SW 7.5 mph12.1 kmh 29.85 in1010.8 mb 0.00 in0.0 mm 0.00 in0.0 mm 0.00 in0.0 mm
09:03 AM 52.6°F11.4°C 52.6°F11.4°C 100% 4.3 mph ENE6.9 kmh ENE 7.5 mph12.1 kmh 29.85 in1010.8 mb 0.00 in0.0 mm 0.00 in0.0 mm 0.00 in0.0 mm
09:02 AM 52.8°F11.6°C 52.8°F11.6°C 100% Calm Calm 7.0 mph11.3 kmh 29.85 in1010.8 mb 0.00 in0.0 mm 0.00 in0.0 mm 0.00 in0.0 mm
09:01 AM 52.8°F11.6°C 52.8°F11.6°C 100% 6.4 mph E10.3 kmh E 7.0 mph11.3 kmh 29.85 in1010.8 mb 0.00 in0.0 mm 0.00 in0.0 mm 0.00 in0.0 mm
09:00 AM 52.8°F11.6°C 52.8°F11.6°C 100% Calm Calm 7.0 mph11.3 kmh 29.85 in1010.8 mb 0.00 in0.0 mm 0.00 in0.0 mm 0.00 in0.0 mm
08:59 AM 52.6°F11.4°C 52.6°F11.4°C 100% 3.8 mph ENE6.1 kmh ENE 7.0 mph11.3 kmh 29.85 in1010.8 mb 0.00 in0.0 mm 0.00 in0.0 mm 0.00 in0.0 mm
08:58 AM 52.6°F11.4°C 52.6°F11.4°C 100% 4.8 mph NE7.7 kmh NE 6.4 mph10.3 kmh 29.85 in1010.8 mb 0.00 in0.0 mm 0.00 in0.0 mm 0.00 in0.0 mm
08:56 AM 52.6°F11.4°C 52.6°F11.4°C 100% Calm Calm -- 29.85 in1010.8 mb 0.00 in0.0 mm 0.00 in0.0 mm 0.00 in0.0 mm
08:55 AM 52.4°F11.3°C 52.4°F11.3°C 100% Calm Calm 4.8 mph7.7 kmh 29.85 in1010.8 mb 0.00 in0.0 mm 0.00 in0.0 mm 0.00 in0.0 mm
08:53 AM 52.4°F11.3°C 52.4°F11.3°C 100% Calm Calm 6.4 mph10.3 kmh 29.85 in1010.8 mb 0.00 in0.0 mm 0.00 in0.0 mm 0.00 in0.0 mm
08:52 AM 52.4°F11.3°C 52.4°F11.3°C 100% Calm Calm 7.0 mph11.3 kmh 29.85 in1010.8 mb 0.00 in0.0 mm 0.00 in0.0 mm 0.00 in0.0 mm
08:50 AM 52.4°F11.3°C 52.4°F11.3°C 100% Calm Calm 9.1 mph14.6 kmh 29.85 in1010.8 mb 0.00 in0.0 mm 0.00 in0.0 mm 0.00 in0.0 mm
08:49 AM 52.4°F11.3°C 52.4°F11.3°C 100% Calm Calm 9.1 mph14.6 kmh 29.85 in1010.8 mb 0.00 in0.0 mm 0.00 in0.0 mm 0.00 in0.0 mm
08:48 AM 52.2°F11.2°C 52.2°F11.2°C 100% 2.7 mph E4.3 kmh E 9.1 mph14.6 kmh 29.85 in1010.8 mb 0.00 in0.0 mm 0.00 in0.0 mm 0.00 in0.0 mm
08:46 AM 52.2°F11.2°C 52.2°F11.2°C 100% 3.8 mph ENE6.1 kmh ENE 9.1 mph14.6 kmh 29.85 in1010.8 mb 0.00 in0.0 mm 0.00 in0.0 mm 0.00 in0.0 mm
08:45 AM 52.1°F11.2°C 52.1°F11.2°C 100% 7.0 mph NE11.3 kmh NE 9.1 mph14.6 kmh 29.85 in1010.8 mb 0.00 in0.0 mm 0.00 in0.0 mm 0.00 in0.0 mm
08:43 AM 52.1°F11.2°C 52.1°F11.2°C 100% 7.5 mph E12.1 kmh E 9.1 mph14.6 kmh 29.85 in1010.8 mb 0.00 in0.0 mm 0.00 in0.0 mm 0.00 in0.0 mm
08:42 AM 52.1°F11.2°C 52.1°F11.2°C 100% Calm Calm 8.6 mph13.8 kmh 29.85 in1010.8 mb 0.00 in0.0 mm 0.00 in0.0 mm 0.00 in0.0 mm
08:41 AM 52.1°F11.2°C 52.1°F11.2°C 100% 7.0 mph ENE11.3 kmh ENE 8.6 mph13.8 kmh 29.85 in1010.8 mb 0.00 in0.0 mm 0.00 in0.0 mm 0.00 in0.0 mm
08:39 AM 52.1°F11.2°C 52.1°F11.2°C 100% 6.4 mph NE10.3 kmh NE 9.1 mph14.6 kmh 29.85 in1010.8 mb 0.00 in0.0 mm 0.00 in0.0 mm 0.00 in0.0 mm
08:38 AM 52.1°F11.2°C 52.1°F11.2°C 100% 4.3 mph E6.9 kmh E 9.1 mph14.6 kmh 29.85 in1010.8 mb 0.00 in0.0 mm 0.00 in0.0 mm 0.00 in0.0 mm
08:37 AM 52.1°F11.2°C 52.1°F11.2°C 100% Calm Calm 9.1 mph14.6 kmh 29.85 in1010.8 mb 0.00 in0.0 mm 0.00 in0.0 mm 0.00 in0.0 mm
08:35 AM 52.1°F11.2°C 52.1°F11.2°C 100% 2.7 mph ESE4.3 kmh ESE 9.9 mph15.9 kmh 29.85 in1010.8 mb 0.00 in0.0 mm 0.00 in0.0 mm 0.00 in0.0 mm
08:34 AM 52.1°F11.2°C 52.1°F11.2°C 100% 4.3 mph SSE6.9 kmh SSE 9.9 mph15.9 kmh 29.85 in1010.8 mb 0.00 in0.0 mm 0.00 in0.0 mm 0.00 in0.0 mm
08:33 AM 52.1°F11.2°C 52.1°F11.2°C 100% 7.0 mph E11.3 kmh E 9.9 mph15.9 kmh 29.85 in1010.8 mb 0.00 in0.0 mm 0.00 in0.0 mm 0.00 in0.0 mm
08:32 AM 52.1°F11.2°C 52.1°F11.2°C 100% 6.4 mph ESE10.3 kmh ESE 9.9 mph15.9 kmh 29.85 in1010.8 mb 0.00 in0.0 mm 0.00 in0.0 mm 0.00 in0.0 mm
08:31 AM 52.1°F11.2°C 52.1°F11.2°C 100% 4.3 mph SSE6.9 kmh SSE 9.9 mph15.9 kmh 29.85 in1010.8 mb 0.00 in0.0 mm 0.00 in0.0 mm 0.00 in0.0 mm
08:30 AM 52.1°F11.2°C 52.1°F11.2°C 100% 5.4 mph SE8.7 kmh SE 9.9 mph15.9 kmh 29.85 in1010.8 mb 0.00 in0.0 mm 0.00 in0.0 mm 0.00 in0.0 mm
08:29 AM 52.1°F11.2°C 52.1°F11.2°C 100% 9.7 mph E15.6 kmh E 9.7 mph15.6 kmh 29.85 in1010.8 mb 0.00 in0.0 mm 0.00 in0.0 mm 0.00 in0.0 mm
08:27 AM 51.9°F11.1°C 51.9°F11.1°C 100% 4.3 mph ENE6.9 kmh ENE 9.1 mph14.6 kmh 29.85 in1010.8 mb 0.00 in0.0 mm 0.00 in0.0 mm 0.00 in0.0 mm
08:25 AM 51.9°F11.1°C 51.9°F11.1°C 100% 2.7 mph SE4.3 kmh SE 9.1 mph14.6 kmh 29.85 in1010.8 mb 0.00 in0.0 mm 0.00 in0.0 mm 0.00 in0.0 mm
08:24 AM 52.1°F11.2°C 52.1°F11.2°C 100% Calm Calm 9.1 mph14.6 kmh 29.85 in1010.8 mb 0.00 in0.0 mm 0.00 in0.0 mm 0.00 in0.0 mm
08:23 AM 52.1°F11.2°C 52.1°F11.2°C 100% 6.4 mph ESE10.3 kmh ESE 9.1 mph14.6 kmh 29.85 in1010.8 mb 0.00 in0.0 mm 0.00 in0.0 mm 0.00 in0.0 mm
08:22 AM 52.1°F11.2°C 52.1°F11.2°C 100% 3.8 mph ENE6.1 kmh ENE 10.5 mph16.9 kmh 29.85 in1010.8 mb 0.00 in0.0 mm 0.00 in0.0 mm 0.00 in0.0 mm
08:20 AM 52.1°F11.2°C 52.1°F11.2°C 100% Calm Calm 12.6 mph20.3 kmh 29.85 in1010.8 mb 0.00 in0.0 mm 0.00 in0.0 mm 0.00 in0.0 mm
08:18 AM 51.9°F11.1°C 51.9°F11.1°C 100% 2.7 mph E4.3 kmh E 12.6 mph20.3 kmh 29.85 in1010.8 mb 0.00 in0.0 mm 0.00 in0.0 mm 0.00 in0.0 mm
08:17 AM 51.9°F11.1°C 51.9°F11.1°C 100% 6.4 mph E10.3 kmh E 12.6 mph20.3 kmh 29.85 in1010.8 mb 0.00 in0.0 mm 0.00 in0.0 mm 0.00 in0.0 mm
08:16 AM 51.9°F11.1°C 51.9°F11.1°C 100% Calm Calm 12.6 mph20.3 kmh 29.85 in1010.8 mb 0.00 in0.0 mm 0.00 in0.0 mm 0.00 in0.0 mm
08:15 AM 51.9°F11.1°C 51.9°F11.1°C 100% 7.0 mph E11.3 kmh E 12.6 mph20.3 kmh 29.85 in1010.8 mb 0.00 in0.0 mm 0.00 in0.0 mm 0.00 in0.0 mm
08:13 AM 51.9°F11.1°C 51.9°F11.1°C 100% 2.7 mph ESE4.3 kmh ESE 13.2 mph21.2 kmh 29.85 in1010.8 mb 0.00 in0.0 mm 0.00 in0.0 mm 0.00 in0.0 mm
08:11 AM 51.9°F11.1°C 51.9°F11.1°C 100% 3.8 mph ENE6.1 kmh ENE 13.2 mph21.2 kmh 29.85 in1010.8 mb 0.00 in0.0 mm 0.00 in0.0 mm 0.00 in0.0 mm
08:10 AM 52.1°F11.2°C 52.1°F11.2°C 100% Calm Calm 13.2 mph21.2 kmh 29.85 in1010.8 mb 0.00 in0.0 mm 0.00 in0.0 mm 0.00 in0.0 mm
08:08 AM 51.9°F11.1°C 51.9°F11.1°C 100% 3.2 mph E5.1 kmh E 13.2 mph21.2 kmh 29.85 in1010.8 mb 0.00 in0.0 mm 0.00 in0.0 mm 0.00 in0.0 mm
08:06 AM 51.9°F11.1°C 51.9°F11.1°C 100% 13.2 mph E21.2 kmh E 13.2 mph21.2 kmh 29.85 in1010.8 mb 0.00 in0.0 mm 0.00 in0.0 mm 0.00 in0.0 mm
08:04 AM 51.9°F11.1°C 51.9°F11.1°C 100% 7.0 mph NE11.3 kmh NE 9.1 mph14.6 kmh 29.85 in1010.8 mb 0.00 in0.0 mm 0.00 in0.0 mm 0.00 in0.0 mm
08:03 AM 51.7°F10.9°C 51.7°F10.9°C 100% 3.8 mph E6.1 kmh E 9.9 mph15.9 kmh 29.85 in1010.8 mb 0.00 in0.0 mm 0.00 in0.0 mm 0.00 in0.0 mm
08:02 AM 51.7°F10.9°C 51.7°F10.9°C 100% 2.7 mph SE4.3 kmh SE 9.9 mph15.9 kmh 29.85 in1010.8 mb 0.00 in0.0 mm 0.00 in0.0 mm 0.00 in0.0 mm
08:00 AM 51.5°F10.8°C 51.5°F10.8°C 100% 3.8 mph SSE6.1 kmh SSE 9.9 mph15.9 kmh 29.85 in1010.8 mb 0.00 in0.0 mm 0.00 in0.0 mm 0.00 in0.0 mm
07:59 AM 51.5°F10.8°C 51.5°F10.8°C 100% 4.8 mph ENE7.7 kmh ENE 9.9 mph15.9 kmh 29.85 in1010.8 mb 0.00 in0.0 mm 0.00 in0.0 mm 0.00 in0.0 mm
07:57 AM 51.5°F10.8°C 51.5°F10.8°C 100% Calm Calm 9.9 mph15.9 kmh 29.85 in1010.8 mb 0.00 in0.0 mm 0.00 in0.0 mm 0.00 in0.0 mm
07:56 AM 51.3°F10.7°C 51.3°F10.7°C 100% Calm Calm 9.1 mph14.6 kmh 29.88 in1011.9 mb 0.00 in0.0 mm 0.00 in0.0 mm 0.00 in0.0 mm
07:54 AM 51.3°F10.7°C 51.3°F10.7°C 100% 7.0 mph ENE11.3 kmh ENE 7.5 mph12.1 kmh 29.88 in1011.9 mb 0.00 in0.0 mm 0.00 in0.0 mm 0.00 in0.0 mm
07:53 AM 51.3°F10.7°C 51.3°F10.7°C 100% Calm Calm 7.5 mph12.1 kmh 29.88 in1011.9 mb 0.00 in0.0 mm 0.00 in0.0 mm 0.00 in0.0 mm
07:52 AM 51.3°F10.7°C 51.3°F10.7°C 100% 7.0 mph E11.3 kmh E 7.5 mph12.1 kmh 29.88 in1011.9 mb 0.00 in0.0 mm 0.00 in0.0 mm 0.00 in0.0 mm
07:51 AM 51.3°F10.7°C 51.3°F10.7°C 100% 4.3 mph E6.9 kmh E 7.5 mph12.1 kmh 29.88 in1011.9 mb 0.00 in0.0 mm 0.00 in0.0 mm 0.00 in0.0 mm
07:49 AM 51.3°F10.7°C 51.3°F10.7°C 100% Calm Calm 9.1 mph14.6 kmh 29.88 in1011.9 mb 0.00 in0.0 mm 0.00 in0.0 mm 0.00 in0.0 mm
07:48 AM 51.3°F10.7°C 51.3°F10.7°C 100% 4.3 mph ENE6.9 kmh ENE 9.1 mph14.6 kmh 29.88 in1011.9 mb 0.00 in0.0 mm 0.00 in0.0 mm 0.00 in0.0 mm
07:47 AM 51.3°F10.7°C 51.3°F10.7°C 100% 3.2 mph SE5.1 kmh SE 9.1 mph14.6 kmh 29.88 in1011.9 mb 0.00 in0.0 mm 0.00 in0.0 mm 0.00 in0.0 mm
07:45 AM 51.3°F10.7°C 51.3°F10.7°C 100% Calm Calm 9.1 mph14.6 kmh 29.88 in1011.9 mb 0.00 in0.0 mm 0.00 in0.0 mm 0.00 in0.0 mm
07:41 AM 51.3°F10.7°C 51.3°F10.7°C 100% Calm Calm 9.7 mph15.6 kmh 29.88 in1011.9 mb 0.00 in0.0 mm 0.00 in0.0 mm 0.00 in0.0 mm
07:39 AM 51.3°F10.7°C 51.3°F10.7°C 100% 3.2 mph ESE5.1 kmh ESE 9.9 mph15.9 kmh 29.88 in1011.9 mb 0.00 in0.0 mm 0.00 in0.0 mm 0.00 in0.0 mm
07:38 AM 51.2°F10.7°C 51.2°F10.7°C 100% 6.4 mph ENE10.3 kmh ENE 9.9 mph15.9 kmh 29.88 in1011.9 mb 0.00 in0.0 mm 0.00 in0.0 mm 0.00 in0.0 mm
07:37 AM 51.2°F10.7°C 51.2°F10.7°C 100% 3.2 mph NE5.1 kmh NE 9.9 mph15.9 kmh 29.88 in1011.9 mb 0.00 in0.0 mm 0.00 in0.0 mm 0.00 in0.0 mm
07:36 AM 51.3°F10.7°C 51.3°F10.7°C 100% 2.7 mph ESE4.3 kmh ESE 9.9 mph15.9 kmh 29.88 in1011.9 mb 0.00 in0.0 mm 0.00 in0.0 mm 0.00 in0.0 mm
07:32 AM 51.3°F10.7°C 51.3°F10.7°C 100% 4.3 mph E6.9 kmh E 9.9 mph15.9 kmh 29.88 in1011.9 mb 0.00 in0.0 mm 0.00 in0.0 mm 0.00 in0.0 mm
07:31 AM 51.3°F10.7°C 51.3°F10.7°C 100% 9.9 mph E15.9 kmh E 9.9 mph15.9 kmh 29.88 in1011.9 mb 0.00 in0.0 mm 0.00 in0.0 mm 0.00 in0.0 mm
07:30 AM 51.2°F10.7°C 51.2°F10.7°C 100% Calm Calm 11.5 mph18.5 kmh 29.88 in1011.9 mb 0.00 in0.0 mm 0.00 in0.0 mm 0.00 in0.0 mm
07:29 AM 51.2°F10.7°C 51.2°F10.7°C 100% Calm Calm 11.5 mph18.5 kmh 29.88 in1011.9 mb 0.00 in0.0 mm 0.00 in0.0 mm 0.00 in0.0 mm
07:28 AM 51.2°F10.7°C 51.2°F10.7°C 100% 3.2 mph E5.1 kmh E 11.5 mph18.5 kmh 29.88 in1011.9 mb 0.00 in0.0 mm 0.00 in0.0 mm 0.00 in0.0 mm
07:27 AM 51.3°F10.7°C 51.3°F10.7°C 100% Calm Calm 11.5 mph18.5 kmh 29.88 in1011.9 mb 0.00 in0.0 mm 0.00 in0.0 mm 0.00 in0.0 mm
07:26 AM 51.3°F10.7°C 51.3°F10.7°C 100% 4.3 mph SSE6.9 kmh SSE 11.5 mph18.5 kmh 29.88 in1011.9 mb 0.00 in0.0 mm 0.00 in0.0 mm 0.00 in0.0 mm
07:24 AM 51.2°F10.7°C 51.2°F10.7°C 100% Calm Calm 11.5 mph18.5 kmh 29.88 in1011.9 mb 0.00 in0.0 mm 0.00 in0.0 mm 0.00 in0.0 mm
07:23 AM 51.2°F10.7°C 51.2°F10.7°C 100% 7.0 mph SE11.3 kmh SE 11.5 mph18.5 kmh 29.88 in1011.9 mb 0.00 in0.0 mm 0.00 in0.0 mm 0.00 in0.0 mm
07:21 AM 51.2°F10.7°C 51.2°F10.7°C 100% 3.2 mph S5.1 kmh S 7.5 mph12.1 kmh 29.88 in1011.9 mb 0.00 in0.0 mm 0.00 in0.0 mm 0.00 in0.0 mm
07:20 AM 51.2°F10.7°C 51.2°F10.7°C 100% 3.2 mph SE5.1 kmh SE 7.5 mph12.1 kmh 29.88 in1011.9 mb 0.00 in0.0 mm 0.00 in0.0 mm 0.00 in0.0 mm
07:19 AM 51.2°F10.7°C 51.2°F10.7°C 100% 4.8 mph ESE7.7 kmh ESE 7.5 mph12.1 kmh 29.88 in1011.9 mb 0.00 in0.0 mm 0.00 in0.0 mm 0.00 in0.0 mm
07:18 AM 51.2°F10.7°C 51.2°F10.7°C 100% 4.3 mph SE6.9 kmh SE 7.5 mph12.1 kmh 29.88 in1011.9 mb 0.00 in0.0 mm 0.00 in0.0 mm 0.00 in0.0 mm
07:17 AM 51.0°F10.6°C 51.0°F10.6°C 100% 5.9 mph E9.5 kmh E 7.5 mph12.1 kmh 29.88 in1011.9 mb 0.00 in0.0 mm 0.00 in0.0 mm 0.00 in0.0 mm
07:16 AM 51.0°F10.6°C 51.0°F10.6°C 100% 3.2 mph SSE5.1 kmh SSE 7.5 mph12.1 kmh 29.88 in1011.9 mb 0.00 in0.0 mm 0.00 in0.0 mm 0.00 in0.0 mm
07:15 AM 51.0°F10.6°C 51.0°F10.6°C 100% 3.8 mph S6.1 kmh S 7.5 mph12.1 kmh 29.88 in1011.9 mb 0.00 in0.0 mm 0.00 in0.0 mm 0.00 in0.0 mm
07:14 AM 51.0°F10.6°C 51.0°F10.6°C 100% Calm Calm 7.5 mph12.1 kmh 29.88 in1011.9 mb 0.00 in0.0 mm 0.00 in0.0 mm 0.00 in0.0 mm
07:13 AM 51.0°F10.6°C 51.0°F10.6°C 100% 7.5 mph E12.1 kmh E 9.1 mph14.6 kmh 29.88 in1011.9 mb 0.00 in0.0 mm 0.00 in0.0 mm 0.00 in0.0 mm
07:11 AM 51.0°F10.6°C 51.0°F10.6°C 100% 4.3 mph E6.9 kmh E 9.1 mph14.6 kmh 29.88 in1011.9 mb 0.00 in0.0 mm 0.00 in0.0 mm 0.00 in0.0 mm
07:10 AM 51.0°F10.6°C 51.0°F10.6°C 100% Calm Calm 9.7 mph15.6 kmh 29.88 in1011.9 mb 0.00 in0.0 mm 0.00 in0.0 mm 0.00 in0.0 mm
07:08 AM 51.0°F10.6°C 51.0°F10.6°C 100% Calm Calm 9.7 mph15.6 kmh 29.88 in1011.9 mb 0.00 in0.0 mm 0.00 in0.0 mm 0.00 in0.0 mm
07:07 AM 51.0°F10.6°C 51.0°F10.6°C 100% 4.3 mph ESE6.9 kmh ESE 9.7 mph15.6 kmh 29.88 in1011.9 mb 0.00 in0.0 mm 0.00 in0.0 mm 0.00 in0.0 mm
07:06 AM 51.0°F10.6°C 51.0°F10.6°C 100% Calm Calm 9.7 mph15.6 kmh 29.88 in1011.9 mb 0.00 in0.0 mm 0.00 in0.0 mm 0.00 in0.0 mm
07:04 AM 50.8°F10.4°C 50.8°F10.4°C 100% 9.1 mph S14.6 kmh S 9.7 mph15.6 kmh 29.88 in1011.9 mb 0.00 in0.0 mm 0.00 in0.0 mm 0.00 in0.0 mm
07:03 AM 51.0°F10.6°C 51.0°F10.6°C 100% 3.2 mph SE5.1 kmh SE 9.7 mph15.6 kmh 29.88 in1011.9 mb 0.00 in0.0 mm 0.00 in0.0 mm 0.00 in0.0 mm
07:02 AM 51.0°F10.6°C 51.0°F10.6°C 100% 8.6 mph ENE13.8 kmh ENE 9.7 mph15.6 kmh 29.88 in1011.9 mb 0.00 in0.0 mm 0.00 in0.0 mm 0.00 in0.0 mm
07:00 AM 50.8°F10.4°C 50.8°F10.4°C 100% Calm Calm 10.5 mph16.9 kmh 29.88 in1011.9 mb 0.00 in0.0 mm 0.00 in0.0 mm 0.00 in0.0 mm
06:59 AM 50.8°F10.4°C 50.8°F10.4°C 100% 3.2 mph SE5.1 kmh SE 10.5 mph16.9 kmh 29.88 in1011.9 mb 0.00 in0.0 mm 0.00 in0.0 mm 0.00 in0.0 mm
06:58 AM 50.8°F10.4°C 50.8°F10.4°C 100% 9.1 mph ENE14.6 kmh ENE 10.5 mph16.9 kmh 29.88 in1011.9 mb 0.00 in0.0 mm 0.00 in0.0 mm 0.00 in0.0 mm
06:57 AM 50.8°F10.4°C 50.8°F10.4°C 100% Calm Calm 10.5 mph16.9 kmh 29.88 in1011.9 mb 0.00 in0.0 mm 0.00 in0.0 mm 0.00 in0.0 mm
06:56 AM 50.8°F10.4°C 50.8°F10.4°C 100% 2.7 mph E4.3 kmh E 10.5 mph16.9 kmh 29.88 in1011.9 mb 0.00 in0.0 mm 0.00 in0.0 mm 0.00 in0.0 mm
06:54 AM 50.8°F10.4°C 50.8°F10.4°C 100% 4.3 mph NE6.9 kmh NE 10.5 mph16.9 kmh 29.88 in1011.9 mb 0.00 in0.0 mm 0.00 in0.0 mm 0.00 in0.0 mm
06:53 AM 50.8°F10.4°C 50.8°F10.4°C 100% 5.9 mph E9.5 kmh E 10.5 mph16.9 kmh 29.88 in1011.9 mb 0.00 in0.0 mm 0.00 in0.0 mm 0.00 in0.0 mm
06:52 AM 50.8°F10.4°C 50.8°F10.4°C 100% 4.3 mph ESE6.9 kmh ESE 9.7 mph15.6 kmh 29.88 in1011.9 mb 0.00 in0.0 mm 0.00 in0.0 mm 0.00 in0.0 mm
06:50 AM 50.8°F10.4°C 50.8°F10.4°C 100% 5.9 mph SE9.5 kmh SE 10.5 mph16.9 kmh 29.88 in1011.9 mb 0.00 in0.0 mm 0.00 in0.0 mm 0.00 in0.0 mm
06:49 AM 50.8°F10.4°C 50.8°F10.4°C 100% 5.9 mph NE9.5 kmh NE 10.5 mph16.9 kmh 29.88 in1011.9 mb 0.00 in0.0 mm 0.00 in0.0 mm 0.00 in0.0 mm
06:48 AM 50.8°F10.4°C 50.8°F10.4°C 100% Calm Calm 10.5 mph16.9 kmh 29.88 in1011.9 mb 0.00 in0.0 mm 0.00 in0.0 mm 0.00 in0.0 mm
06:47 AM 50.8°F10.4°C 50.8°F10.4°C 100% 9.1 mph E14.6 kmh E 10.5 mph16.9 kmh 29.88 in1011.9 mb 0.00 in0.0 mm 0.00 in0.0 mm 0.00 in0.0 mm
06:46 AM 50.8°F10.4°C 50.8°F10.4°C 100% 4.3 mph E6.9 kmh E 10.5 mph16.9 kmh 29.88 in1011.9 mb 0.00 in0.0 mm 0.00 in0.0 mm 0.00 in0.0 mm
06:45 AM 50.8°F10.4°C 50.8°F10.4°C 100% 7.5 mph NE12.1 kmh NE 10.5 mph16.9 kmh 29.88 in1011.9 mb 0.00 in0.0 mm 0.00 in0.0 mm 0.00 in0.0 mm
06:44 AM 50.8°F10.4°C 50.8°F10.4°C 100% 6.4 mph E10.3 kmh E 10.5 mph16.9 kmh 29.88 in1011.9 mb 0.00 in0.0 mm 0.00 in0.0 mm 0.00 in0.0 mm
06:42 AM 50.8°F10.4°C 50.8°F10.4°C 100% 7.5 mph E12.1 kmh E 9.7 mph15.6 kmh 29.88 in1011.9 mb 0.00 in0.0 mm 0.00 in0.0 mm 0.00 in0.0 mm
06:41 AM 50.8°F10.4°C 50.8°F10.4°C 100% 3.8 mph ENE6.1 kmh ENE 7.5 mph12.1 kmh 29.88 in1011.9 mb 0.00 in0.0 mm 0.00 in0.0 mm 0.00 in0.0 mm
06:40 AM 50.8°F10.4°C 50.8°F10.4°C 100% 5.9 mph ESE9.5 kmh ESE 7.5 mph12.1 kmh 29.88 in1011.9 mb 0.00 in0.0 mm 0.00 in0.0 mm 0.00 in0.0 mm
06:39 AM 50.8°F10.4°C 50.8°F10.4°C 100% Calm Calm 7.5 mph12.1 kmh 29.88 in1011.9 mb 0.00 in0.0 mm 0.00 in0.0 mm 0.00 in0.0 mm
06:38 AM 50.8°F10.4°C 50.8°F10.4°C 100% Calm Calm 7.5 mph12.1 kmh 29.88 in1011.9 mb 0.00 in0.0 mm 0.00 in0.0 mm 0.00 in0.0 mm
06:37 AM 50.8°F10.4°C 50.8°F10.4°C 100% Calm Calm 7.5 mph12.1 kmh 29.88 in1011.9 mb 0.00 in0.0 mm 0.00 in0.0 mm 0.00 in0.0 mm
06:36 AM 50.8°F10.4°C 50.8°F10.4°C 100% Calm Calm 7.5 mph12.1 kmh 29.88 in1011.9 mb 0.00 in0.0 mm 0.00 in0.0 mm 0.00 in0.0 mm
06:35 AM 50.8°F10.4°C 50.8°F10.4°C 100% 7.0 mph ENE11.3 kmh ENE 7.5 mph12.1 kmh 29.88 in1011.9 mb 0.00 in0.0 mm 0.00 in0.0 mm 0.00 in0.0 mm
06:34 AM 50.8°F10.4°C 50.8°F10.4°C 100% Calm Calm 7.0 mph11.3 kmh 29.88 in1011.9 mb 0.00 in0.0 mm 0.00 in0.0 mm 0.00 in0.0 mm
06:33 AM 50.8°F10.4°C 50.8°F10.4°C 100% Calm Calm 7.0 mph11.3 kmh 29.88 in1011.9 mb 0.00 in0.0 mm 0.00 in0.0 mm 0.00 in0.0 mm
06:32 AM 50.8°F10.4°C 50.8°F10.4°C 100% Calm Calm 7.0 mph11.3 kmh 29.88 in1011.9 mb 0.00 in0.0 mm 0.00 in0.0 mm 0.00 in0.0 mm
06:31 AM 50.8°F10.4°C 50.8°F10.4°C 100% Calm Calm 7.0 mph11.3 kmh 29.88 in1011.9 mb 0.00 in0.0 mm 0.00 in0.0 mm 0.00 in0.0 mm
06:29 AM 50.8°F10.4°C 50.8°F10.4°C 100% Calm Calm 7.0 mph11.3 kmh 29.88 in1011.9 mb 0.00 in0.0 mm 0.00 in0.0 mm 0.00 in0.0 mm
06:28 AM 50.8°F10.4°C 50.8°F10.4°C 100% 5.9 mph NE9.5 kmh NE 7.0 mph11.3 kmh 29.88 in1011.9 mb 0.00 in0.0 mm 0.00 in0.0 mm 0.00 in0.0 mm
06:27 AM 50.8°F10.4°C 50.8°F10.4°C 100% Calm Calm 7.0 mph11.3 kmh 29.88 in1011.9 mb 0.00 in0.0 mm 0.00 in0.0 mm 0.00 in0.0 mm
06:26 AM 50.8°F10.4°C 50.8°F10.4°C 100% Calm Calm 7.0 mph11.3 kmh 29.88 in1011.9 mb 0.00 in0.0 mm 0.00 in0.0 mm 0.00 in0.0 mm
06:25 AM 50.8°F10.4°C 50.8°F10.4°C 100% Calm Calm 7.0 mph11.3 kmh 29.88 in1011.9 mb 0.00 in0.0 mm 0.00 in0.0 mm 0.00 in0.0 mm
06:24 AM 50.8°F10.4°C 50.8°F10.4°C 100% Calm Calm 7.0 mph11.3 kmh 29.88 in1011.9 mb 0.00 in0.0 mm 0.00 in0.0 mm 0.00 in0.0 mm
06:23 AM 50.8°F10.4°C 50.8°F10.4°C 100% 3.8 mph ENE6.1 kmh ENE 7.0 mph11.3 kmh 29.88 in1011.9 mb 0.00 in0.0 mm 0.00 in0.0 mm 0.00 in0.0 mm
06:22 AM 50.8°F10.4°C 50.8°F10.4°C 100% Calm Calm 7.0 mph11.3 kmh 29.88 in1011.9 mb 0.00 in0.0 mm 0.00 in0.0 mm 0.00 in0.0 mm
06:21 AM 50.8°F10.4°C 50.8°F10.4°C 100% 4.3 mph NE6.9 kmh NE 7.0 mph11.3 kmh 29.88 in1011.9 mb 0.00 in0.0 mm 0.00 in0.0 mm 0.00 in0.0 mm
06:20 AM 50.8°F10.4°C 50.8°F10.4°C 100% 7.0 mph NE11.3 kmh NE 7.0 mph11.3 kmh 29.88 in1011.9 mb 0.00 in0.0 mm 0.00 in0.0 mm 0.00 in0.0 mm
06:19 AM 50.8°F10.4°C 50.8°F10.4°C 100% Calm Calm 4.3 mph6.9 kmh 29.88 in1011.9 mb 0.00 in0.0 mm 0.00 in0.0 mm 0.00 in0.0 mm
06:18 AM 50.8°F10.4°C 50.8°F10.4°C 100% 2.7 mph ENE4.3 kmh ENE 7.0 mph11.3 kmh 29.88 in1011.9 mb 0.00 in0.0 mm 0.00 in0.0 mm 0.00 in0.0 mm
06:17 AM 50.8°F10.4°C 50.8°F10.4°C 100% Calm Calm 7.0 mph11.3 kmh 29.88 in1011.9 mb 0.00 in0.0 mm 0.00 in0.0 mm 0.00 in0.0 mm
06:16 AM 50.8°F10.4°C 50.8°F10.4°C 100% Calm Calm 7.0 mph11.3 kmh 29.88 in1011.9 mb 0.00 in0.0 mm 0.00 in0.0 mm 0.00 in0.0 mm
06:14 AM 50.8°F10.4°C 50.8°F10.4°C 100% Calm Calm 7.0 mph11.3 kmh 29.88 in1011.9 mb 0.00 in0.0 mm 0.00 in0.0 mm 0.00 in0.0 mm
06:12 AM 50.8°F10.4°C 50.8°F10.4°C 100% 2.7 mph NE4.3 kmh NE 7.0 mph11.3 kmh 29.88 in1011.9 mb 0.00 in0.0 mm 0.00 in0.0 mm 0.00 in0.0 mm
06:11 AM 50.8°F10.4°C 50.8°F10.4°C 100% 7.0 mph NE11.3 kmh NE 7.0 mph11.3 kmh 29.88 in1011.9 mb 0.00 in0.0 mm 0.00 in0.0 mm 0.00 in0.0 mm
06:10 AM 50.8°F10.4°C 50.8°F10.4°C 100% 3.8 mph ESE6.1 kmh ESE 5.9 mph9.5 kmh 29.88 in1011.9 mb 0.00 in0.0 mm 0.00 in0.0 mm 0.00 in0.0 mm
06:09 AM 50.8°F10.4°C 50.8°F10.4°C 100% 4.3 mph ENE6.9 kmh ENE 5.9 mph9.5 kmh 29.88 in1011.9 mb 0.00 in0.0 mm 0.00 in0.0 mm 0.00 in0.0 mm
06:07 AM 50.8°F10.4°C 50.8°F10.4°C 100% Calm Calm 5.9 mph9.5 kmh 29.88 in1011.9 mb 0.00 in0.0 mm 0.00 in0.0 mm 0.00 in0.0 mm
06:06 AM 50.8°F10.4°C 50.8°F10.4°C 100% 3.2 mph ESE5.1 kmh ESE 5.9 mph9.5 kmh 29.88 in1011.9 mb 0.00 in0.0 mm 0.00 in0.0 mm 0.00 in0.0 mm
06:05 AM 50.8°F10.4°C 50.8°F10.4°C 100% 3.8 mph NE6.1 kmh NE 5.9 mph9.5 kmh 29.88 in1011.9 mb 0.00 in0.0 mm 0.00 in0.0 mm 0.00 in0.0 mm
06:04 AM 50.8°F10.4°C 50.8°F10.4°C 100% 3.2 mph NE5.1 kmh NE 5.9 mph9.5 kmh 29.88 in1011.9 mb 0.00 in0.0 mm 0.00 in0.0 mm 0.00 in0.0 mm
06:02 AM 50.8°F10.4°C 50.8°F10.4°C 100% Calm Calm -- 29.88 in1011.9 mb 0.00 in0.0 mm 0.00 in0.0 mm 0.00 in0.0 mm
06:01 AM 50.8°F10.4°C 50.8°F10.4°C 100% Calm Calm -- 29.88 in1011.9 mb 0.00 in0.0 mm 0.00 in0.0 mm 0.00 in0.0 mm
06:00 AM 50.8°F10.4°C 50.8°F10.4°C 100% Calm Calm 2.7 mph4.3 kmh 29.88 in1011.9 mb 0.00 in0.0 mm 0.00 in0.0 mm 0.00 in0.0 mm
05:58 AM 50.8°F10.4°C 50.8°F10.4°C 100% Calm Calm 6.4 mph10.3 kmh 29.88 in1011.9 mb 0.00 in0.0 mm 0.00 in0.0 mm 0.00 in0.0 mm
05:57 AM 50.8°F10.4°C 50.8°F10.4°C 100% Calm Calm 6.4 mph10.3 kmh 29.88 in1011.9 mb 0.00 in0.0 mm 0.00 in0.0 mm 0.00 in0.0 mm
05:56 AM 50.8°F10.4°C 50.8°F10.4°C 100% Calm Calm 6.4 mph10.3 kmh 29.88 in1011.9 mb 0.00 in0.0 mm 0.00 in0.0 mm 0.00 in0.0 mm
05:55 AM 50.8°F10.4°C 50.8°F10.4°C 100% Calm Calm 6.4 mph10.3 kmh 29.88 in1011.9 mb 0.00 in0.0 mm 0.00 in0.0 mm 0.00 in0.0 mm
05:53 AM 50.8°F10.4°C 50.8°F10.4°C 100% Calm Calm 6.4 mph10.3 kmh 29.88 in1011.9 mb 0.00 in0.0 mm 0.00 in0.0 mm 0.00 in0.0 mm
05:51 AM 50.8°F10.4°C 50.8°F10.4°C 100% 6.4 mph ENE10.3 kmh ENE 6.4 mph10.3 kmh 29.88 in1011.9 mb 0.00 in0.0 mm 0.00 in0.0 mm 0.00 in0.0 mm
05:50 AM 50.8°F10.4°C 50.8°F10.4°C 100% Calm Calm 4.3 mph6.9 kmh 29.88 in1011.9 mb 0.00 in0.0 mm 0.00 in0.0 mm 0.00 in0.0 mm
05:49 AM 50.8°F10.4°C 50.8°F10.4°C 100% Calm Calm 4.3 mph6.9 kmh 29.88 in1011.9 mb 0.00 in0.0 mm 0.00 in0.0 mm 0.00 in0.0 mm
05:48 AM 50.8°F10.4°C 50.8°F10.4°C 100% Calm Calm 4.3 mph6.9 kmh 29.88 in1011.9 mb 0.00 in0.0 mm 0.00 in0.0 mm 0.00 in0.0 mm
05:46 AM 50.8°F10.4°C 50.8°F10.4°C 100% Calm Calm 4.3 mph6.9 kmh 29.88 in1011.9 mb 0.00 in0.0 mm 0.00 in0.0 mm 0.00 in0.0 mm
05:44 AM 50.8°F10.4°C 50.8°F10.4°C 100% Calm Calm 4.3 mph6.9 kmh 29.88 in1011.9 mb 0.00 in0.0 mm 0.00 in0.0 mm 0.00 in0.0 mm
05:43 AM 50.8°F10.4°C 50.8°F10.4°C 100% 2.7 mph E4.3 kmh E 4.3 mph6.9 kmh 29.88 in1011.9 mb 0.00 in0.0 mm 0.00 in0.0 mm 0.00 in0.0 mm
05:42 AM 51.0°F10.6°C 51.0°F10.6°C 100% Calm Calm 4.8 mph7.7 kmh 29.88 in1011.9 mb 0.00 in0.0 mm 0.00 in0.0 mm 0.00 in0.0 mm
05:40 AM 51.0°F10.6°C 51.0°F10.6°C 100% Calm Calm 5.4 mph8.7 kmh 29.88 in1011.9 mb 0.00 in0.0 mm 0.00 in0.0 mm 0.00 in0.0 mm
05:39 AM 51.0°F10.6°C 51.0°F10.6°C 100% Calm Calm 5.4 mph8.7 kmh 29.88 in1011.9 mb 0.00 in0.0 mm 0.00 in0.0 mm 0.00 in0.0 mm
05:37 AM 51.0°F10.6°C 51.0°F10.6°C 100% Calm Calm 5.4 mph8.7 kmh 29.88 in1011.9 mb 0.00 in0.0 mm 0.00 in0.0 mm 0.00 in0.0 mm
05:36 AM 51.0°F10.6°C 51.0°F10.6°C 100% Calm Calm 5.4 mph8.7 kmh 29.88 in1011.9 mb 0.00 in0.0 mm 0.00 in0.0 mm 0.00 in0.0 mm
05:34 AM 51.0°F10.6°C 51.0°F10.6°C 100% 3.8 mph NE6.1 kmh NE 5.4 mph8.7 kmh 29.88 in1011.9 mb 0.00 in0.0 mm 0.00 in0.0 mm 0.00 in0.0 mm
05:33 AM 51.0°F10.6°C 51.0°F10.6°C 100% Calm Calm -- 29.88 in1011.9 mb 0.00 in0.0 mm 0.00 in0.0 mm 0.00 in0.0 mm
05:32 AM 51.0°F10.6°C 51.0°F10.6°C 100% Calm Calm -- 29.88 in1011.9 mb 0.00 in0.0 mm 0.00 in0.0 mm 0.00 in0.0 mm
05:31 AM 51.0°F10.6°C 51.0°F10.6°C 100% Calm Calm -- 29.88 in1011.9 mb 0.00 in0.0 mm 0.00 in0.0 mm 0.00 in0.0 mm
05:29 AM 51.0°F10.6°C 51.0°F10.6°C 100% Calm Calm -- 29.88 in1011.9 mb 0.00 in0.0 mm 0.00 in0.0 mm 0.00 in0.0 mm
05:28 AM 51.0°F10.6°C 51.0°F10.6°C 100% Calm Calm -- 29.88 in1011.9 mb 0.00 in0.0 mm 0.00 in0.0 mm 0.00 in0.0 mm
05:27 AM 51.0°F10.6°C 51.0°F10.6°C 100% Calm Calm -- 29.88 in1011.9 mb 0.00 in0.0 mm 0.00 in0.0 mm 0.00 in0.0 mm
05:25 AM 51.0°F10.6°C 51.0°F10.6°C 100% Calm Calm -- 29.88 in1011.9 mb 0.00 in0.0 mm 0.00 in0.0 mm 0.00 in0.0 mm
05:24 AM 51.0°F10.6°C 51.0°F10.6°C 100% Calm Calm -- 29.88 in1011.9 mb 0.00 in0.0 mm 0.00 in0.0 mm 0.00 in0.0 mm
05:22 AM 51.0°F10.6°C 51.0°F10.6°C 100% Calm Calm -- 29.88 in1011.9 mb 0.00 in0.0 mm 0.00 in0.0 mm 0.00 in0.0 mm
05:20 AM 50.8°F10.4°C 50.8°F10.4°C 100% Calm Calm -- 29.88 in1011.9 mb 0.00 in0.0 mm 0.00 in0.0 mm 0.00 in0.0 mm
05:19 AM 50.8°F10.4°C 50.8°F10.4°C 100% Calm Calm -- 29.88 in1011.9 mb 0.00 in0.0 mm 0.00 in0.0 mm 0.00 in0.0 mm
05:18 AM 50.8°F10.4°C 50.8°F10.4°C 100% Calm Calm -- 29.88 in1011.9 mb 0.00 in0.0 mm 0.00 in0.0 mm 0.00 in0.0 mm
05:17 AM 50.8°F10.4°C 50.8°F10.4°C 100% Calm Calm -- 29.88 in1011.9 mb 0.00 in0.0 mm 0.00 in0.0 mm 0.00 in0.0 mm
05:15 AM 51.0°F10.6°C 51.0°F10.6°C 100% Calm Calm 3.2 mph5.1 kmh 29.88 in1011.9 mb 0.00 in0.0 mm 0.00 in0.0 mm 0.00 in0.0 mm
05:14 AM 51.0°F10.6°C 51.0°F10.6°C 100% Calm Calm 3.2 mph5.1 kmh 29.88 in1011.9 mb 0.00 in0.0 mm 0.00 in0.0 mm 0.00 in0.0 mm
05:13 AM 51.0°F10.6°C 51.0°F10.6°C 100% Calm Calm 4.3 mph6.9 kmh 29.88 in1011.9 mb 0.00 in0.0 mm 0.00 in0.0 mm 0.00 in0.0 mm
05:12 AM 51.0°F10.6°C 51.0°F10.6°C 100% Calm Calm 4.3 mph6.9 kmh 29.88 in1011.9 mb 0.00 in0.0 mm 0.00 in0.0 mm 0.00 in0.0 mm
05:11 AM 51.0°F10.6°C 51.0°F10.6°C 100% Calm Calm 4.3 mph6.9 kmh 29.88 in1011.9 mb 0.00 in0.0 mm 0.00 in0.0 mm 0.00 in0.0 mm
05:09 AM 51.0°F10.6°C 51.0°F10.6°C 100% Calm Calm 4.3 mph6.9 kmh 29.88 in1011.9 mb 0.00 in0.0 mm 0.00 in0.0 mm 0.00 in0.0 mm
05:08 AM 50.8°F10.4°C 50.8°F10.4°C 100% 3.2 mph ENE5.1 kmh ENE 4.8 mph7.7 kmh 29.88 in1011.9 mb 0.00 in0.0 mm 0.00 in0.0 mm 0.00 in0.0 mm
05:07 AM 50.8°F10.4°C 50.8°F10.4°C 100% Calm Calm 5.9 mph9.5 kmh 29.88 in1011.9 mb 0.00 in0.0 mm 0.00 in0.0 mm 0.00 in0.0 mm
05:05 AM 50.8°F10.4°C 50.8°F10.4°C 100% 2.7 mph E4.3 kmh E 5.9 mph9.5 kmh 29.88 in1011.9 mb 0.00 in0.0 mm 0.00 in0.0 mm 0.00 in0.0 mm
05:04 AM 50.8°F10.4°C 50.8°F10.4°C 100% Calm Calm 5.9 mph9.5 kmh 29.88 in1011.9 mb 0.00 in0.0 mm 0.00 in0.0 mm 0.00 in0.0 mm
05:03 AM 50.8°F10.4°C 50.8°F10.4°C 100% Calm Calm 5.9 mph9.5 kmh 29.88 in1011.9 mb 0.00 in0.0 mm 0.00 in0.0 mm 0.00 in0.0 mm
05:01 AM 50.8°F10.4°C 50.8°F10.4°C 100% 4.8 mph E7.7 kmh E 5.9 mph9.5 kmh 29.88 in1011.9 mb 0.00 in0.0 mm 0.00 in0.0 mm 0.00 in0.0 mm
04:59 AM 50.8°F10.4°C 50.8°F10.4°C 100% Calm Calm 4.8 mph7.7 kmh 29.88 in1011.9 mb 0.00 in0.0 mm 0.00 in0.0 mm 0.00 in0.0 mm
04:58 AM 50.8°F10.4°C 50.8°F10.4°C 100% Calm Calm 4.8 mph7.7 kmh 29.88 in1011.9 mb 0.00 in0.0 mm 0.00 in0.0 mm 0.00 in0.0 mm
04:57 AM 50.8°F10.4°C 50.8°F10.4°C 100% Calm Calm 5.9 mph9.5 kmh 29.85 in1010.8 mb 0.00 in0.0 mm 0.00 in0.0 mm 0.00 in0.0 mm
04:55 AM 50.8°F10.4°C 50.8°F10.4°C 100% Calm Calm 5.9 mph9.5 kmh 29.85 in1010.8 mb 0.00 in0.0 mm 0.00 in0.0 mm 0.00 in0.0 mm
04:54 AM 50.8°F10.4°C 50.8°F10.4°C 100% Calm Calm 5.9 mph9.5 kmh 29.85 in1010.8 mb 0.00 in0.0 mm 0.00 in0.0 mm 0.00 in0.0 mm
04:53 AM 50.8°F10.4°C 50.8°F10.4°C 100% 4.3 mph ENE6.9 kmh ENE 7.5 mph12.1 kmh 29.85 in1010.8 mb 0.00 in0.0 mm 0.00 in0.0 mm 0.00 in0.0 mm
04:51 AM 50.8°F10.4°C 50.8°F10.4°C 100% Calm Calm 7.5 mph12.1 kmh 29.85 in1010.8 mb 0.00 in0.0 mm 0.00 in0.0 mm 0.00 in0.0 mm
04:50 AM 51.0°F10.6°C 51.0°F10.6°C 100% 3.2 mph SE5.1 kmh SE 7.5 mph12.1 kmh 29.85 in1010.8 mb 0.00 in0.0 mm 0.00 in0.0 mm 0.00 in0.0 mm
04:48 AM 51.0°F10.6°C 51.0°F10.6°C 100% Calm Calm 7.5 mph12.1 kmh 29.85 in1010.8 mb 0.00 in0.0 mm 0.00 in0.0 mm 0.00 in0.0 mm
04:47 AM 51.0°F10.6°C 51.0°F10.6°C 100% 4.3 mph SE6.9 kmh SE 7.5 mph12.1 kmh 29.85 in1010.8 mb 0.00 in0.0 mm 0.00 in0.0 mm 0.00 in0.0 mm
04:46 AM 51.0°F10.6°C 51.0°F10.6°C 100% 4.8 mph E7.7 kmh E 7.5 mph12.1 kmh 29.85 in1010.8 mb 0.00 in0.0 mm 0.00 in0.0 mm 0.00 in0.0 mm
04:44 AM 51.0°F10.6°C 51.0°F10.6°C 100% 3.8 mph E6.1 kmh E 6.4 mph10.3 kmh 29.85 in1010.8 mb 0.00 in0.0 mm 0.00 in0.0 mm 0.00 in0.0 mm
04:43 AM 51.0°F10.6°C 51.0°F10.6°C 100% Calm Calm 6.4 mph10.3 kmh 29.85 in1010.8 mb 0.00 in0.0 mm 0.00 in0.0 mm 0.00 in0.0 mm
04:42 AM 51.0°F10.6°C 51.0°F10.6°C 100% Calm Calm 6.4 mph10.3 kmh 29.88 in1011.9 mb 0.00 in0.0 mm 0.00 in0.0 mm 0.00 in0.0 mm
04:40 AM 51.0°F10.6°C 51.0°F10.6°C 100% 2.7 mph ESE4.3 kmh ESE 6.4 mph10.3 kmh 29.88 in1011.9 mb 0.00 in0.0 mm 0.00 in0.0 mm 0.00 in0.0 mm
04:39 AM 51.0°F10.6°C 51.0°F10.6°C 100% 6.4 mph E10.3 kmh E 7.0 mph11.3 kmh 29.88 in1011.9 mb 0.00 in0.0 mm 0.00 in0.0 mm 0.00 in0.0 mm
04:37 AM 51.0°F10.6°C 51.0°F10.6°C 100% Calm Calm 7.0 mph11.3 kmh 29.88 in1011.9 mb 0.00 in0.0 mm 0.00 in0.0 mm 0.00 in0.0 mm
04:36 AM 51.0°F10.6°C 51.0°F10.6°C 100% Calm Calm 7.0 mph11.3 kmh 29.88 in1011.9 mb 0.00 in0.0 mm 0.00 in0.0 mm 0.00 in0.0 mm
04:34 AM 51.0°F10.6°C 51.0°F10.6°C 100% Calm Calm 7.0 mph11.3 kmh 29.88 in1011.9 mb 0.00 in0.0 mm 0.00 in0.0 mm 0.00 in0.0 mm
04:33 AM 51.0°F10.6°C 51.0°F10.6°C 100% 3.2 mph E5.1 kmh E 7.0 mph11.3 kmh 29.88 in1011.9 mb 0.00 in0.0 mm 0.00 in0.0 mm 0.00 in0.0 mm
04:32 AM 51.0°F10.6°C 51.0°F10.6°C 100% 6.4 mph E10.3 kmh E 7.0 mph11.3 kmh 29.88 in1011.9 mb 0.00 in0.0 mm 0.00 in0.0 mm 0.00 in0.0 mm
04:30 AM 51.0°F10.6°C 51.0°F10.6°C 100% Calm Calm 7.0 mph11.3 kmh 29.88 in1011.9 mb 0.00 in0.0 mm 0.00 in0.0 mm 0.00 in0.0 mm
04:29 AM 51.2°F10.7°C 51.2°F10.7°C 100% 3.8 mph E6.1 kmh E 6.4 mph10.3 kmh 29.88 in1011.9 mb 0.00 in0.0 mm 0.00 in0.0 mm 0.00 in0.0 mm
04:27 AM 51.2°F10.7°C 51.2°F10.7°C 100% 3.8 mph E6.1 kmh E 6.4 mph10.3 kmh 29.88 in1011.9 mb 0.00 in0.0 mm 0.00 in0.0 mm 0.00 in0.0 mm
04:26 AM 51.2°F10.7°C 51.2°F10.7°C 100% 5.9 mph E9.5 kmh E 6.4 mph10.3 kmh 29.88 in1011.9 mb 0.00 in0.0 mm 0.00 in0.0 mm 0.00 in0.0 mm
04:25 AM 51.2°F10.7°C 51.2°F10.7°C 100% 4.8 mph ENE7.7 kmh ENE 4.8 mph7.7 kmh 29.88 in1011.9 mb 0.00 in0.0 mm 0.00 in0.0 mm 0.00 in0.0 mm
04:23 AM 51.2°F10.7°C 51.2°F10.7°C 100% Calm Calm 3.8 mph6.1 kmh 29.88 in1011.9 mb 0.00 in0.0 mm 0.00 in0.0 mm 0.00 in0.0 mm
04:22 AM 51.2°F10.7°C 51.2°F10.7°C 100% Calm Calm -- 29.88 in1011.9 mb 0.00 in0.0 mm 0.00 in0.0 mm 0.00 in0.0 mm
04:20 AM 51.2°F10.7°C 51.2°F10.7°C 100% Calm Calm -- 29.88 in1011.9 mb 0.00 in0.0 mm 0.00 in0.0 mm 0.00 in0.0 mm
04:19 AM 51.2°F10.7°C 51.2°F10.7°C 100% Calm Calm -- 29.88 in1011.9 mb 0.00 in0.0 mm 0.00 in0.0 mm 0.00 in0.0 mm
04:18 AM 51.2°F10.7°C 51.2°F10.7°C 100% Calm Calm -- 29.88 in1011.9 mb 0.00 in0.0 mm 0.00 in0.0 mm 0.00 in0.0 mm
04:16 AM 51.2°F10.7°C 51.2°F10.7°C 100% Calm Calm -- 29.88 in1011.9 mb 0.00 in0.0 mm 0.00 in0.0 mm 0.00 in0.0 mm
04:15 AM 51.2°F10.7°C 51.2°F10.7°C 100% Calm Calm -- 29.88 in1011.9 mb 0.00 in0.0 mm 0.00 in0.0 mm 0.00 in0.0 mm
04:13 AM 51.3°F10.7°C 51.3°F10.7°C 100% Calm Calm -- 29.88 in1011.9 mb 0.00 in0.0 mm 0.00 in0.0 mm 0.00 in0.0 mm
04:12 AM 51.3°F10.7°C 51.3°F10.7°C 100% Calm Calm -- 29.88 in1011.9 mb 0.00 in0.0 mm 0.00 in0.0 mm 0.00 in0.0 mm
04:10 AM 51.3°F10.7°C 51.3°F10.7°C 100% Calm Calm 4.3 mph6.9 kmh 29.88 in1011.9 mb 0.00 in0.0 mm 0.00 in0.0 mm 0.00 in0.0 mm
04:08 AM 51.3°F10.7°C 51.3°F10.7°C 100% Calm Calm 4.8 mph7.7 kmh 29.88 in1011.9 mb 0.00 in0.0 mm 0.00 in0.0 mm 0.00 in0.0 mm
04:06 AM 51.3°F10.7°C 51.3°F10.7°C 100% Calm Calm 4.8 mph7.7 kmh 29.88 in1011.9 mb 0.00 in0.0 mm 0.00 in0.0 mm 0.00 in0.0 mm
04:05 AM 51.3°F10.7°C 51.3°F10.7°C 100% Calm Calm 4.8 mph7.7 kmh 29.88 in1011.9 mb 0.00 in0.0 mm 0.00 in0.0 mm 0.00 in0.0 mm
04:04 AM 51.3°F10.7°C 51.3°F10.7°C 100% Calm Calm 4.8 mph7.7 kmh 29.88 in1011.9 mb 0.00 in0.0 mm 0.00 in0.0 mm 0.00 in0.0 mm
04:02 AM 51.3°F10.7°C 51.3°F10.7°C 100% 4.3 mph NNE6.9 kmh NNE 4.8 mph7.7 kmh 29.88 in1011.9 mb 0.00 in0.0 mm 0.00 in0.0 mm 0.00 in0.0 mm
04:01 AM 51.3°F10.7°C 51.3°F10.7°C 100% Calm Calm 3.8 mph6.1 kmh 29.88 in1011.9 mb 0.00 in0.0 mm 0.00 in0.0 mm 0.00 in0.0 mm
03:59 AM 51.3°F10.7°C 51.3°F10.7°C 100% Calm Calm 3.8 mph6.1 kmh 29.88 in1011.9 mb 0.00 in0.0 mm 0.00 in0.0 mm 0.00 in0.0 mm
03:58 AM 51.3°F10.7°C 51.3°F10.7°C 100% Calm Calm 7.5 mph12.1 kmh 29.88 in1011.9 mb 0.00 in0.0 mm 0.00 in0.0 mm 0.00 in0.0 mm
03:57 AM 51.3°F10.7°C 51.3°F10.7°C 100% Calm Calm 7.5 mph12.1 kmh 29.88 in1011.9 mb 0.00 in0.0 mm 0.00 in0.0 mm 0.00 in0.0 mm
03:56 AM 51.3°F10.7°C 51.3°F10.7°C 100% 3.8 mph ESE6.1 kmh ESE 7.5 mph12.1 kmh 29.88 in1011.9 mb 0.00 in0.0 mm 0.00 in0.0 mm 0.00 in0.0 mm
03:54 AM 51.3°F10.7°C 51.3°F10.7°C 100% Calm Calm 7.5 mph12.1 kmh 29.88 in1011.9 mb 0.00 in0.0 mm 0.00 in0.0 mm 0.00 in0.0 mm
03:52 AM 51.3°F10.7°C 51.3°F10.7°C 100% 3.8 mph ENE6.1 kmh ENE 7.5 mph12.1 kmh 29.88 in1011.9 mb 0.00 in0.0 mm 0.00 in0.0 mm 0.00 in0.0 mm
03:51 AM 51.3°F10.7°C 51.3°F10.7°C 100% 3.8 mph S6.1 kmh S 6.4 mph10.3 kmh 29.88 in1011.9 mb 0.00 in0.0 mm 0.00 in0.0 mm 0.00 in0.0 mm
03:49 AM 51.3°F10.7°C 51.3°F10.7°C 100% Calm Calm 7.0 mph11.3 kmh 29.88 in1011.9 mb 0.00 in0.0 mm 0.00 in0.0 mm 0.00 in0.0 mm
03:47 AM 51.5°F10.8°C 51.5°F10.8°C 100% Calm Calm 7.0 mph11.3 kmh 29.88 in1011.9 mb 0.00 in0.0 mm 0.00 in0.0 mm 0.00 in0.0 mm
03:45 AM 51.5°F10.8°C 51.5°F10.8°C 100% 5.9 mph E9.5 kmh E 7.0 mph11.3 kmh 29.88 in1011.9 mb 0.00 in0.0 mm 0.00 in0.0 mm 0.00 in0.0 mm
03:44 AM 51.5°F10.8°C 51.5°F10.8°C 100% 2.7 mph E4.3 kmh E 7.0 mph11.3 kmh 29.88 in1011.9 mb 0.00 in0.0 mm 0.00 in0.0 mm 0.00 in0.0 mm
03:43 AM 51.5°F10.8°C 51.5°F10.8°C 100% 4.8 mph SE7.7 kmh SE 7.0 mph11.3 kmh 29.88 in1011.9 mb 0.00 in0.0 mm 0.00 in0.0 mm 0.00 in0.0 mm
03:42 AM 51.5°F10.8°C 51.5°F10.8°C 100% Calm Calm 7.0 mph11.3 kmh 29.88 in1011.9 mb 0.00 in0.0 mm 0.00 in0.0 mm 0.00 in0.0 mm
03:41 AM 51.5°F10.8°C 51.5°F10.8°C 100% Calm Calm 7.0 mph11.3 kmh 29.88 in1011.9 mb 0.00 in0.0 mm 0.00 in0.0 mm 0.00 in0.0 mm
03:40 AM 51.5°F10.8°C 51.5°F10.8°C 100% Calm Calm 7.0 mph11.3 kmh 29.88 in1011.9 mb 0.00 in0.0 mm 0.00 in0.0 mm 0.00 in0.0 mm
03:38 AM 51.5°F10.8°C 51.5°F10.8°C 100% 5.9 mph NNE9.5 kmh NNE 7.0 mph11.3 kmh 29.88 in1011.9 mb 0.00 in0.0 mm 0.00 in0.0 mm 0.00 in0.0 mm
03:37 AM 51.5°F10.8°C 51.5°F10.8°C 100% 2.7 mph E4.3 kmh E 7.0 mph11.3 kmh 29.88 in1011.9 mb 0.00 in0.0 mm 0.00 in0.0 mm 0.00 in0.0 mm
03:36 AM 51.5°F10.8°C 51.5°F10.8°C 100% Calm Calm 6.4 mph10.3 kmh 29.88 in1011.9 mb 0.00 in0.0 mm 0.00 in0.0 mm 0.00 in0.0 mm
03:34 AM 51.7°F10.9°C 51.7°F10.9°C 100% 5.9 mph ENE9.5 kmh ENE 6.4 mph10.3 kmh 29.88 in1011.9 mb 0.00 in0.0 mm 0.00 in0.0 mm 0.00 in0.0 mm
03:33 AM 51.7°F10.9°C 51.7°F10.9°C 100% 3.8 mph E6.1 kmh E 4.8 mph7.7 kmh 29.88 in1011.9 mb 0.00 in0.0 mm 0.00 in0.0 mm 0.00 in0.0 mm
03:31 AM 51.7°F10.9°C 51.7°F10.9°C 100% 3.8 mph E6.1 kmh E 4.8 mph7.7 kmh 29.88 in1011.9 mb 0.00 in0.0 mm 0.00 in0.0 mm 0.00 in0.0 mm
03:30 AM 51.7°F10.9°C 51.7°F10.9°C 100% 3.8 mph ESE6.1 kmh ESE 4.8 mph7.7 kmh 29.88 in1011.9 mb 0.00 in0.0 mm 0.00 in0.0 mm 0.00 in0.0 mm
03:28 AM 51.7°F10.9°C 51.7°F10.9°C 100% 3.2 mph ENE5.1 kmh ENE 4.8 mph7.7 kmh 29.88 in1011.9 mb 0.00 in0.0 mm 0.00 in0.0 mm 0.00 in0.0 mm
03:27 AM 51.7°F10.9°C 51.7°F10.9°C 100% 2.7 mph E4.3 kmh E 4.8 mph7.7 kmh 29.88 in1011.9 mb 0.00 in0.0 mm 0.00 in0.0 mm 0.00 in0.0 mm
03:26 AM 51.7°F10.9°C 51.7°F10.9°C 100% Calm Calm 7.0 mph11.3 kmh 29.88 in1011.9 mb 0.00 in0.0 mm 0.00 in0.0 mm 0.00 in0.0 mm
03:24 AM 51.7°F10.9°C 51.7°F10.9°C 100% Calm Calm 7.0 mph11.3 kmh 29.88 in1011.9 mb 0.00 in0.0 mm 0.00 in0.0 mm 0.00 in0.0 mm
03:23 AM 51.7°F10.9°C 51.7°F10.9°C 100% Calm Calm 7.0 mph11.3 kmh 29.88 in1011.9 mb 0.00 in0.0 mm 0.00 in0.0 mm 0.00 in0.0 mm
03:22 AM 51.7°F10.9°C 51.7°F10.9°C 100% Calm Calm 7.0 mph11.3 kmh 29.88 in1011.9 mb 0.00 in0.0 mm 0.00 in0.0 mm 0.00 in0.0 mm
03:20 AM 51.9°F11.1°C 51.9°F11.1°C 100% 3.2 mph ENE5.1 kmh ENE 7.0 mph11.3 kmh 29.88 in1011.9 mb 0.00 in0.0 mm 0.00 in0.0 mm 0.00 in0.0 mm
03:19 AM 51.9°F11.1°C 51.9°F11.1°C 100% Calm Calm 3.8 mph6.1 kmh 29.88 in1011.9 mb 0.00 in0.0 mm 0.00 in0.0 mm 0.00 in0.0 mm
03:18 AM 51.9°F11.1°C 51.9°F11.1°C 100% Calm Calm -- 29.88 in1011.9 mb 0.00 in0.0 mm 0.00 in0.0 mm 0.00 in0.0 mm
03:16 AM 51.9°F11.1°C 51.9°F11.1°C 100% Calm Calm -- 29.88 in1011.9 mb 0.00 in0.0 mm 0.00 in0.0 mm 0.00 in0.0 mm
03:14 AM 51.7°F10.9°C 51.7°F10.9°C 100% Calm Calm -- 29.88 in1011.9 mb 0.00 in0.0 mm 0.00 in0.0 mm 0.00 in0.0 mm
03:13 AM 51.7°F10.9°C 51.7°F10.9°C 100% Calm Calm -- 29.88 in1011.9 mb 0.00 in0.0 mm 0.00 in0.0 mm 0.00 in0.0 mm
03:12 AM 51.7°F10.9°C 51.7°F10.9°C 100% Calm Calm -- 29.88 in1011.9 mb 0.00 in0.0 mm 0.00 in0.0 mm 0.00 in0.0 mm
03:11 AM 51.7°F10.9°C 51.7°F10.9°C 100% Calm Calm -- 29.88 in1011.9 mb 0.00 in0.0 mm 0.00 in0.0 mm 0.00 in0.0 mm
03:09 AM 51.7°F10.9°C 51.7°F10.9°C 100% Calm Calm -- 29.88 in1011.9 mb 0.00 in0.0 mm 0.00 in0.0 mm 0.00 in0.0 mm
03:07 AM 51.7°F10.9°C 51.7°F10.9°C 100% Calm Calm -- 29.88 in1011.9 mb 0.00 in0.0 mm 0.00 in0.0 mm 0.00 in0.0 mm
03:06 AM 51.7°F10.9°C 51.7°F10.9°C 100% Calm Calm -- 29.88 in1011.9 mb 0.00 in0.0 mm 0.00 in0.0 mm 0.00 in0.0 mm
03:05 AM 51.7°F10.9°C 51.7°F10.9°C 100% Calm Calm -- 29.88 in1011.9 mb 0.00 in0.0 mm 0.00 in0.0 mm 0.00 in0.0 mm
03:04 AM 51.7°F10.9°C 51.7°F10.9°C 100% Calm Calm -- 29.88 in1011.9 mb 0.00 in0.0 mm 0.00 in0.0 mm 0.00 in0.0 mm
03:02 AM 51.7°F10.9°C 51.7°F10.9°C 100% Calm Calm -- 29.88 in1011.9 mb 0.00 in0.0 mm 0.00 in0.0 mm 0.00 in0.0 mm
03:00 AM 51.7°F10.9°C 51.7°F10.9°C 100% Calm Calm -- 29.88 in1011.9 mb 0.00 in0.0 mm 0.00 in0.0 mm 0.00 in0.0 mm
02:59 AM 51.7°F10.9°C 51.7°F10.9°C 100% Calm Calm -- 29.88 in1011.9 mb 0.00 in0.0 mm 0.00 in0.0 mm 0.00 in0.0 mm
02:58 AM 51.7°F10.9°C 51.7°F10.9°C 100% Calm Calm -- 29.88 in1011.9 mb 0.00 in0.0 mm 0.00 in0.0 mm 0.00 in0.0 mm
02:56 AM 51.7°F10.9°C 51.7°F10.9°C 100% Calm Calm -- 29.88 in1011.9 mb 0.00 in0.0 mm 0.00 in0.0 mm 0.00 in0.0 mm
02:55 AM 51.7°F10.9°C 51.7°F10.9°C 100% Calm Calm -- 29.88 in1011.9 mb 0.00 in0.0 mm 0.00 in0.0 mm 0.00 in0.0 mm
02:53 AM 51.7°F10.9°C 51.7°F10.9°C 100% Calm Calm -- 29.88 in1011.9 mb 0.00 in0.0 mm 0.00 in0.0 mm 0.00 in0.0 mm
02:52 AM 51.7°F10.9°C 51.7°F10.9°C 100% Calm Calm 3.8 mph6.1 kmh 29.88 in1011.9 mb 0.00 in0.0 mm 0.00 in0.0 mm 0.00 in0.0 mm
02:51 AM 51.7°F10.9°C 51.7°F10.9°C 100% Calm Calm 3.8 mph6.1 kmh 29.88 in1011.9 mb 0.00 in0.0 mm 0.00 in0.0 mm 0.00 in0.0 mm
02:50 AM 51.7°F10.9°C 51.7°F10.9°C 100% Calm Calm 3.8 mph6.1 kmh 29.88 in1011.9 mb 0.00 in0.0 mm 0.00 in0.0 mm 0.00 in0.0 mm
02:48 AM 51.7°F10.9°C 51.7°F10.9°C 100% Calm Calm 3.8 mph6.1 kmh 29.88 in1011.9 mb 0.00 in0.0 mm 0.00 in0.0 mm 0.00 in0.0 mm
02:46 AM 51.7°F10.9°C 51.7°F10.9°C 100% Calm Calm 3.8 mph6.1 kmh 29.88 in1011.9 mb 0.00 in0.0 mm 0.00 in0.0 mm 0.00 in0.0 mm
02:45 AM 51.7°F10.9°C 51.7°F10.9°C 100% Calm Calm 3.8 mph6.1 kmh 29.88 in1011.9 mb 0.00 in0.0 mm 0.00 in0.0 mm 0.00 in0.0 mm
02:44 AM 51.7°F10.9°C 51.7°F10.9°C 100% Calm Calm -- 29.88 in1011.9 mb 0.00 in0.0 mm 0.00 in0.0 mm 0.00 in0.0 mm
02:43 AM 51.7°F10.9°C 51.7°F10.9°C 100% Calm Calm -- 29.88 in1011.9 mb 0.00 in0.0 mm 0.00 in0.0 mm 0.00 in0.0 mm
02:41 AM 51.9°F11.1°C 51.9°F11.1°C 100% Calm Calm -- 29.88 in1011.9 mb 0.00 in0.0 mm 0.00 in0.0 mm 0.00 in0.0 mm
02:40 AM 51.9°F11.1°C 51.9°F11.1°C 100% Calm Calm 4.3 mph6.9 kmh 29.88 in1011.9 mb 0.00 in0.0 mm 0.00 in0.0 mm 0.00 in0.0 mm
02:38 AM 51.9°F11.1°C 51.9°F11.1°C 100% Calm Calm 4.3 mph6.9 kmh 29.88 in1011.9 mb 0.00 in0.0 mm 0.00 in0.0 mm 0.00 in0.0 mm
02:37 AM 51.9°F11.1°C 51.9°F11.1°C 100% Calm Calm 4.3 mph6.9 kmh 29.88 in1011.9 mb 0.00 in0.0 mm 0.00 in0.0 mm 0.00 in0.0 mm
02:35 AM 51.9°F11.1°C 51.9°F11.1°C 100% Calm Calm 4.3 mph6.9 kmh 29.88 in1011.9 mb 0.00 in0.0 mm 0.00 in0.0 mm 0.00 in0.0 mm
02:34 AM 51.9°F11.1°C 51.9°F11.1°C 100% Calm Calm 4.3 mph6.9 kmh 29.88 in1011.9 mb 0.00 in0.0 mm 0.00 in0.0 mm 0.00 in0.0 mm
02:33 AM 51.9°F11.1°C 51.9°F11.1°C 100% 4.3 mph E6.9 kmh E 4.3 mph6.9 kmh 29.88 in1011.9 mb 0.00 in0.0 mm 0.00 in0.0 mm 0.00 in0.0 mm
02:31 AM 51.9°F11.1°C 51.9°F11.1°C 100% 4.3 mph NE6.9 kmh NE 4.3 mph6.9 kmh 29.88 in1011.9 mb 0.00 in0.0 mm 0.00 in0.0 mm 0.00 in0.0 mm
02:30 AM 51.9°F11.1°C 51.9°F11.1°C 100% Calm Calm -- 29.88 in1011.9 mb 0.00 in0.0 mm 0.00 in0.0 mm 0.00 in0.0 mm
02:28 AM 51.9°F11.1°C 51.9°F11.1°C 100% Calm Calm -- 29.88 in1011.9 mb 0.00 in0.0 mm 0.00 in0.0 mm 0.00 in0.0 mm
02:27 AM 51.9°F11.1°C 51.9°F11.1°C 100% Calm Calm -- 29.88 in1011.9 mb 0.00 in0.0 mm 0.00 in0.0 mm 0.00 in0.0 mm
02:25 AM 51.9°F11.1°C 51.9°F11.1°C 100% Calm Calm -- 29.88 in1011.9 mb 0.00 in0.0 mm 0.00 in0.0 mm 0.00 in0.0 mm
02:24 AM 51.9°F11.1°C 51.9°F11.1°C 100% Calm Calm -- 29.88 in1011.9 mb 0.00 in0.0 mm 0.00 in0.0 mm 0.00 in0.0 mm
02:23 AM 51.9°F11.1°C 51.9°F11.1°C 100% Calm Calm -- 29.88 in1011.9 mb 0.00 in0.0 mm 0.00 in0.0 mm 0.00 in0.0 mm
02:21 AM 51.9°F11.1°C 51.9°F11.1°C 100% Calm Calm -- 29.88 in1011.9 mb 0.00 in0.0 mm 0.00 in0.0 mm 0.00 in0.0 mm
02:20 AM 51.9°F11.1°C 51.9°F11.1°C 100% Calm Calm -- 29.88 in1011.9 mb 0.00 in0.0 mm 0.00 in0.0 mm 0.00 in0.0 mm
02:19 AM 51.9°F11.1°C 51.9°F11.1°C 100% Calm Calm -- 29.88 in1011.9 mb 0.00 in0.0 mm 0.00 in0.0 mm 0.00 in0.0 mm
02:17 AM 51.9°F11.1°C 51.9°F11.1°C 100% Calm Calm -- 29.88 in1011.9 mb 0.00 in0.0 mm 0.00 in0.0 mm 0.00 in0.0 mm
02:16 AM 51.9°F11.1°C 51.9°F11.1°C 100% Calm Calm 4.3 mph6.9 kmh 29.88 in1011.9 mb 0.00 in0.0 mm 0.00 in0.0 mm 0.00 in0.0 mm
02:14 AM 51.9°F11.1°C 51.9°F11.1°C 100% Calm Calm 6.4 mph10.3 kmh 29.88 in1011.9 mb 0.00 in0.0 mm 0.00 in0.0 mm 0.00 in0.0 mm
02:13 AM 51.9°F11.1°C 51.9°F11.1°C 100% Calm Calm 6.4 mph10.3 kmh 29.88 in1011.9 mb 0.00 in0.0 mm 0.00 in0.0 mm 0.00 in0.0 mm
02:11 AM 51.9°F11.1°C 51.9°F11.1°C 100% Calm Calm 6.4 mph10.3 kmh 29.88 in1011.9 mb 0.00 in0.0 mm 0.00 in0.0 mm 0.00 in0.0 mm
02:10 AM 51.9°F11.1°C 51.9°F11.1°C 100% Calm Calm 6.4 mph10.3 kmh 29.88 in1011.9 mb 0.00 in0.0 mm 0.00 in0.0 mm 0.00 in0.0 mm
02:09 AM 51.9°F11.1°C 51.9°F11.1°C 100% Calm Calm 6.4 mph10.3 kmh 29.88 in1011.9 mb 0.00 in0.0 mm 0.00 in0.0 mm 0.00 in0.0 mm
02:07 AM 51.9°F11.1°C 51.9°F11.1°C 100% 3.2 mph S5.1 kmh S 6.4 mph10.3 kmh 29.88 in1011.9 mb 0.00 in0.0 mm 0.00 in0.0 mm 0.00 in0.0 mm
02:06 AM 51.9°F11.1°C 51.9°F11.1°C 100% Calm Calm 7.0 mph11.3 kmh 29.88 in1011.9 mb 0.00 in0.0 mm 0.00 in0.0 mm 0.00 in0.0 mm
02:04 AM 51.9°F11.1°C 51.9°F11.1°C 100% 4.8 mph E7.7 kmh E 7.0 mph11.3 kmh 29.88 in1011.9 mb 0.00 in0.0 mm 0.00 in0.0 mm 0.00 in0.0 mm
02:03 AM 51.9°F11.1°C 51.9°F11.1°C 100% Calm Calm 7.0 mph11.3 kmh 29.88 in1011.9 mb 0.00 in0.0 mm 0.00 in0.0 mm 0.00 in0.0 mm
02:02 AM 51.9°F11.1°C 51.9°F11.1°C 100% Calm Calm 7.0 mph11.3 kmh 29.88 in1011.9 mb 0.00 in0.0 mm 0.00 in0.0 mm 0.00 in0.0 mm
02:00 AM 51.9°F11.1°C 51.9°F11.1°C 100% Calm Calm 7.0 mph11.3 kmh 29.88 in1011.9 mb 0.00 in0.0 mm 0.00 in0.0 mm 0.00 in0.0 mm
01:59 AM 51.9°F11.1°C 51.9°F11.1°C 100% 4.3 mph SE6.9 kmh SE 4.8 mph7.7 kmh 29.88 in1011.9 mb 0.00 in0.0 mm 0.00 in0.0 mm 0.00 in0.0 mm
01:58 AM 51.9°F11.1°C 51.9°F11.1°C 100% Calm Calm 4.3 mph6.9 kmh 29.88 in1011.9 mb 0.00 in0.0 mm 0.00 in0.0 mm 0.00 in0.0 mm
01:56 AM 51.9°F11.1°C 51.9°F11.1°C 100% Calm Calm 4.3 mph6.9 kmh 29.91 in1012.9 mb 0.00 in0.0 mm 0.00 in0.0 mm 0.00 in0.0 mm
01:55 AM 51.9°F11.1°C 51.9°F11.1°C 100% Calm Calm -- 29.91 in1012.9 mb 0.00 in0.0 mm 0.00 in0.0 mm 0.00 in0.0 mm
01:53 AM 51.9°F11.1°C 51.9°F11.1°C 100% Calm Calm -- 29.91 in1012.9 mb 0.00 in0.0 mm 0.00 in0.0 mm 0.00 in0.0 mm
01:52 AM 52.1°F11.2°C 52.1°F11.2°C 100% Calm Calm -- 29.91 in1012.9 mb 0.00 in0.0 mm 0.00 in0.0 mm 0.00 in0.0 mm
01:50 AM 52.1°F11.2°C 52.1°F11.2°C 100% Calm Calm -- 29.91 in1012.9 mb 0.00 in0.0 mm 0.00 in0.0 mm 0.00 in0.0 mm
01:48 AM 52.1°F11.2°C 52.1°F11.2°C 100% Calm Calm -- 29.91 in1012.9 mb 0.00 in0.0 mm 0.00 in0.0 mm 0.00 in0.0 mm
01:46 AM 52.1°F11.2°C 52.1°F11.2°C 100% Calm Calm -- 29.91 in1012.9 mb 0.00 in0.0 mm 0.00 in0.0 mm 0.00 in0.0 mm
01:45 AM 52.1°F11.2°C 52.1°F11.2°C 100% Calm Calm -- 29.91 in1012.9 mb 0.00 in0.0 mm 0.00 in0.0 mm 0.00 in0.0 mm
01:43 AM 52.1°F11.2°C 52.1°F11.2°C 100% Calm Calm 4.3 mph6.9 kmh 29.91 in1012.9 mb 0.00 in0.0 mm 0.00 in0.0 mm 0.00 in0.0 mm
01:42 AM 52.1°F11.2°C 52.1°F11.2°C 100% Calm Calm 4.3 mph6.9 kmh 29.91 in1012.9 mb 0.00 in0.0 mm 0.00 in0.0 mm 0.00 in0.0 mm
01:41 AM 52.1°F11.2°C 52.1°F11.2°C 100% Calm Calm 4.3 mph6.9 kmh 29.91 in1012.9 mb 0.00 in0.0 mm 0.00 in0.0 mm 0.00 in0.0 mm
01:39 AM 52.1°F11.2°C 52.1°F11.2°C 100% Calm Calm 4.3 mph6.9 kmh 29.91 in1012.9 mb 0.00 in0.0 mm 0.00 in0.0 mm 0.00 in0.0 mm
01:38 AM 52.1°F11.2°C 52.1°F11.2°C 100% Calm Calm 4.3 mph6.9 kmh 29.91 in1012.9 mb 0.00 in0.0 mm 0.00 in0.0 mm 0.00 in0.0 mm
01:36 AM 52.1°F11.2°C 52.1°F11.2°C 100% Calm Calm 2.7 mph4.3 kmh 29.91 in1012.9 mb 0.00 in0.0 mm 0.00 in0.0 mm 0.00 in0.0 mm
01:34 AM 52.1°F11.2°C 52.1°F11.2°C 100% 2.7 mph ENE4.3 kmh ENE 2.7 mph4.3 kmh 29.91 in1012.9 mb 0.00 in0.0 mm 0.00 in0.0 mm 0.00 in0.0 mm
01:32 AM 52.1°F11.2°C 52.1°F11.2°C 100% Calm Calm -- 29.91 in1012.9 mb 0.00 in0.0 mm 0.00 in0.0 mm 0.00 in0.0 mm
01:31 AM 52.1°F11.2°C 52.1°F11.2°C 100% Calm Calm 4.3 mph6.9 kmh 29.91 in1012.9 mb 0.00 in0.0 mm 0.00 in0.0 mm 0.00 in0.0 mm
01:29 AM 52.1°F11.2°C 52.1°F11.2°C 100% Calm Calm 4.3 mph6.9 kmh 29.91 in1012.9 mb 0.00 in0.0 mm 0.00 in0.0 mm 0.00 in0.0 mm
01:28 AM 52.1°F11.2°C 52.1°F11.2°C 100% Calm Calm 6.4 mph10.3 kmh 29.91 in1012.9 mb 0.00 in0.0 mm 0.00 in0.0 mm 0.00 in0.0 mm
01:27 AM 52.1°F11.2°C 52.1°F11.2°C 100% Calm Calm 6.4 mph10.3 kmh 29.91 in1012.9 mb 0.00 in0.0 mm 0.00 in0.0 mm 0.00 in0.0 mm
01:25 AM 52.1°F11.2°C 52.1°F11.2°C 100% Calm Calm 6.4 mph10.3 kmh 29.91 in1012.9 mb 0.00 in0.0 mm 0.00 in0.0 mm 0.00 in0.0 mm
01:24 AM 52.1°F11.2°C 52.1°F11.2°C 100% 4.3 mph E6.9 kmh E 6.4 mph10.3 kmh 29.91 in1012.9 mb 0.00 in0.0 mm 0.00 in0.0 mm 0.00 in0.0 mm
01:22 AM 52.1°F11.2°C 52.1°F11.2°C 100% 3.2 mph E5.1 kmh E 6.4 mph10.3 kmh 29.91 in1012.9 mb 0.00 in0.0 mm 0.00 in0.0 mm 0.00 in0.0 mm
01:21 AM 52.1°F11.2°C 52.1°F11.2°C 100% Calm Calm 6.4 mph10.3 kmh 29.91 in1012.9 mb 0.00 in0.0 mm 0.00 in0.0 mm 0.00 in0.0 mm
01:20 AM 52.1°F11.2°C 52.1°F11.2°C 100% Calm Calm 6.4 mph10.3 kmh 29.91 in1012.9 mb 0.00 in0.0 mm 0.00 in0.0 mm 0.00 in0.0 mm
01:18 AM 52.1°F11.2°C 52.1°F11.2°C 100% Calm Calm 6.4 mph10.3 kmh 29.91 in1012.9 mb 0.00 in0.0 mm 0.00 in0.0 mm 0.00 in0.0 mm
01:17 AM 52.1°F11.2°C 52.1°F11.2°C 100% Calm Calm 6.4 mph10.3 kmh 29.91 in1012.9 mb 0.00 in0.0 mm 0.00 in0.0 mm 0.00 in0.0 mm
01:15 AM 52.1°F11.2°C 52.1°F11.2°C 100% Calm Calm 4.8 mph7.7 kmh 29.91 in1012.9 mb 0.00 in0.0 mm 0.00 in0.0 mm 0.00 in0.0 mm
01:14 AM 52.1°F11.2°C 52.1°F11.2°C 100% Calm Calm 4.8 mph7.7 kmh 29.91 in1012.9 mb 0.00 in0.0 mm 0.00 in0.0 mm 0.00 in0.0 mm
01:13 AM 52.1°F11.2°C 52.1°F11.2°C 100% 3.8 mph E6.1 kmh E 4.8 mph7.7 kmh 29.91 in1012.9 mb 0.00 in0.0 mm 0.00 in0.0 mm 0.00 in0.0 mm
01:11 AM 52.1°F11.2°C 52.1°F11.2°C 100% 3.8 mph NE6.1 kmh NE 4.8 mph7.7 kmh 29.91 in1012.9 mb 0.00 in0.0 mm 0.00 in0.0 mm 0.00 in0.0 mm
01:10 AM 52.1°F11.2°C 52.1°F11.2°C 100% Calm Calm 3.2 mph5.1 kmh 29.91 in1012.9 mb 0.00 in0.0 mm 0.00 in0.0 mm 0.00 in0.0 mm
01:08 AM 52.1°F11.2°C 52.1°F11.2°C 100% Calm Calm 7.0 mph11.3 kmh 29.91 in1012.9 mb 0.00 in0.0 mm 0.00 in0.0 mm 0.00 in0.0 mm
01:07 AM 52.2°F11.2°C 52.2°F11.2°C 100% Calm Calm 7.0 mph11.3 kmh 29.91 in1012.9 mb 0.00 in0.0 mm 0.00 in0.0 mm 0.00 in0.0 mm
01:06 AM 52.2°F11.2°C 52.2°F11.2°C 100% Calm Calm 7.0 mph11.3 kmh 29.91 in1012.9 mb 0.00 in0.0 mm 0.00 in0.0 mm 0.00 in0.0 mm
01:05 AM 52.2°F11.2°C 52.2°F11.2°C 100% Calm Calm 7.0 mph11.3 kmh 29.91 in1012.9 mb 0.00 in0.0 mm 0.00 in0.0 mm 0.00 in0.0 mm
01:03 AM 52.2°F11.2°C 52.2°F11.2°C 100% 3.2 mph SE5.1 kmh SE 7.0 mph11.3 kmh 29.91 in1012.9 mb 0.00 in0.0 mm 0.00 in0.0 mm 0.00 in0.0 mm
01:01 AM 52.2°F11.2°C 52.2°F11.2°C 100% Calm Calm -- 29.91 in1012.9 mb 0.00 in0.0 mm 0.00 in0.0 mm 0.00 in0.0 mm
01:00 AM 52.2°F11.2°C 52.2°F11.2°C 100% Calm Calm -- 29.91 in1012.9 mb 0.00 in0.0 mm 0.00 in0.0 mm 0.00 in0.0 mm
12:59 AM 52.2°F11.2°C 52.2°F11.2°C 100% Calm Calm -- 29.91 in1012.9 mb 0.00 in0.0 mm 0.00 in0.0 mm 0.00 in0.0 mm
12:58 AM 52.2°F11.2°C 52.2°F11.2°C 100% Calm Calm -- 29.91 in1012.9 mb 0.00 in0.0 mm 0.00 in0.0 mm 0.00 in0.0 mm
12:57 AM 52.2°F11.2°C 52.2°F11.2°C 100% Calm Calm -- 29.91 in1012.9 mb 0.00 in0.0 mm 0.00 in0.0 mm 0.00 in0.0 mm
12:56 AM 52.2°F11.2°C 52.2°F11.2°C 100% Calm Calm 4.3 mph6.9 kmh 29.91 in1012.9 mb 0.00 in0.0 mm 0.00 in0.0 mm 0.00 in0.0 mm
12:54 AM 52.2°F11.2°C 52.2°F11.2°C 100% Calm Calm 4.3 mph6.9 kmh 29.91 in1012.9 mb 0.00 in0.0 mm 0.00 in0.0 mm 0.00 in0.0 mm
12:53 AM 52.2°F11.2°C 52.2°F11.2°C 100% Calm Calm 4.3 mph6.9 kmh 29.91 in1012.9 mb 0.00 in0.0 mm 0.00 in0.0 mm 0.00 in0.0 mm
12:52 AM 52.4°F11.3°C 52.4°F11.3°C 100% Calm Calm 4.3 mph6.9 kmh 29.91 in1012.9 mb 0.00 in0.0 mm 0.00 in0.0 mm 0.00 in0.0 mm
12:50 AM 52.4°F11.3°C 52.4°F11.3°C 100% Calm Calm 4.3 mph6.9 kmh 29.91 in1012.9 mb 0.00 in0.0 mm 0.00 in0.0 mm 0.00 in0.0 mm
12:49 AM 52.4°F11.3°C 52.4°F11.3°C 100% Calm Calm 4.3 mph6.9 kmh 29.91 in1012.9 mb 0.00 in0.0 mm 0.00 in0.0 mm 0.00 in0.0 mm
12:47 AM 52.4°F11.3°C 52.4°F11.3°C 100% 3.2 mph SE5.1 kmh SE 3.2 mph5.1 kmh 29.91 in1012.9 mb 0.00 in0.0 mm 0.00 in0.0 mm 0.00 in0.0 mm
12:46 AM 52.4°F11.3°C 52.4°F11.3°C 100% Calm Calm -- 29.91 in1012.9 mb 0.00 in0.0 mm 0.00 in0.0 mm 0.00 in0.0 mm
12:45 AM 52.4°F11.3°C 52.4°F11.3°C 100% Calm Calm -- 29.91 in1012.9 mb 0.00 in0.0 mm 0.00 in0.0 mm 0.00 in0.0 mm
12:44 AM 52.4°F11.3°C 52.4°F11.3°C 100% Calm Calm -- 29.91 in1012.9 mb 0.00 in0.0 mm 0.00 in0.0 mm 0.00 in0.0 mm
12:42 AM 52.4°F11.3°C 52.4°F11.3°C 100% Calm Calm -- 29.91 in1012.9 mb 0.00 in0.0 mm 0.00 in0.0 mm 0.00 in0.0 mm
12:40 AM 52.4°F11.3°C 52.4°F11.3°C 100% Calm Calm -- 29.91 in1012.9 mb 0.00 in0.0 mm 0.00 in0.0 mm 0.00 in0.0 mm
12:39 AM 52.4°F11.3°C 52.4°F11.3°C 100% Calm Calm -- 29.91 in1012.9 mb 0.00 in0.0 mm 0.00 in0.0 mm 0.00 in0.0 mm
12:38 AM 52.4°F11.3°C 52.4°F11.3°C 100% Calm Calm -- 29.91 in1012.9 mb 0.00 in0.0 mm 0.00 in0.0 mm 0.00 in0.0 mm
12:36 AM 52.4°F11.3°C 52.4°F11.3°C 100% Calm Calm -- 29.91 in1012.9 mb 0.00 in0.0 mm 0.00 in0.0 mm 0.00 in0.0 mm
12:35 AM 52.4°F11.3°C 52.4°F11.3°C 100% Calm Calm -- 29.91 in1012.9 mb 0.00 in0.0 mm 0.00 in0.0 mm 0.00 in0.0 mm
12:34 AM 52.4°F11.3°C 52.4°F11.3°C 100% Calm Calm -- 29.91 in1012.9 mb 0.00 in0.0 mm 0.00 in0.0 mm 0.00 in0.0 mm
12:32 AM 52.4°F11.3°C 52.4°F11.3°C 100% Calm Calm 3.2 mph5.1 kmh 29.91 in1012.9 mb 0.00 in0.0 mm 0.00 in0.0 mm 0.00 in0.0 mm
12:31 AM 52.4°F11.3°C 52.4°F11.3°C 100% Calm Calm 3.2 mph5.1 kmh 29.91 in1012.9 mb 0.00 in0.0 mm 0.00 in0.0 mm 0.00 in0.0 mm
12:29 AM 52.4°F11.3°C 52.4°F11.3°C 100% Calm Calm 3.2 mph5.1 kmh 29.91 in1012.9 mb 0.00 in0.0 mm 0.00 in0.0 mm 0.00 in0.0 mm
12:28 AM 52.4°F11.3°C 52.4°F11.3°C 100% Calm Calm 3.2 mph5.1 kmh 29.91 in1012.9 mb 0.00 in0.0 mm 0.00 in0.0 mm 0.00 in0.0 mm
12:27 AM 52.4°F11.3°C 52.4°F11.3°C 100% Calm Calm 3.2 mph5.1 kmh 29.91 in1012.9 mb 0.00 in0.0 mm 0.00 in0.0 mm 0.00 in0.0 mm
12:25 AM 52.4°F11.3°C 52.4°F11.3°C 100% Calm Calm -- 29.91 in1012.9 mb 0.00 in0.0 mm 0.00 in0.0 mm 0.00 in0.0 mm
12:24 AM 52.4°F11.3°C 52.4°F11.3°C 100% Calm Calm -- 29.91 in1012.9 mb 0.00 in0.0 mm 0.00 in0.0 mm 0.00 in0.0 mm
12:22 AM 52.4°F11.3°C 52.4°F11.3°C 100% Calm Calm -- 29.91 in1012.9 mb 0.00 in0.0 mm 0.00 in0.0 mm 0.00 in0.0 mm
12:21 AM 52.4°F11.3°C 52.4°F11.3°C 100% Calm Calm -- 29.91 in1012.9 mb 0.00 in0.0 mm 0.00 in0.0 mm 0.00 in0.0 mm
12:20 AM 52.4°F11.3°C 52.4°F11.3°C 100% Calm Calm -- 29.91 in1012.9 mb 0.00 in0.0 mm 0.00 in0.0 mm 0.00 in0.0 mm
12:18 AM 52.4°F11.3°C 52.4°F11.3°C 100% Calm Calm -- 29.91 in1012.9 mb 0.00 in0.0 mm 0.00 in0.0 mm 0.00 in0.0 mm
12:17 AM 52.4°F11.3°C 52.4°F11.3°C 100% Calm Calm -- 29.91 in1012.9 mb 0.00 in0.0 mm 0.00 in0.0 mm 0.00 in0.0 mm
12:15 AM 52.4°F11.3°C 52.4°F11.3°C 100% Calm Calm -- 29.91 in1012.9 mb 0.00 in0.0 mm 0.00 in0.0 mm 0.00 in0.0 mm
12:14 AM 52.2°F11.2°C 52.2°F11.2°C 100% Calm Calm -- 29.91 in1012.9 mb 0.00 in0.0 mm 0.00 in0.0 mm 0.00 in0.0 mm
12:12 AM 52.2°F11.2°C 52.2°F11.2°C 100% Calm Calm -- 29.91 in1012.9 mb 0.00 in0.0 mm 0.00 in0.0 mm 0.00 in0.0 mm
12:11 AM 52.2°F11.2°C 52.2°F11.2°C 100% Calm Calm -- 29.91 in1012.9 mb 0.00 in0.0 mm 0.00 in0.0 mm 0.00 in0.0 mm
12:10 AM 52.4°F11.3°C 52.4°F11.3°C 100% Calm Calm 2.7 mph4.3 kmh 29.91 in1012.9 mb 0.00 in0.0 mm 0.00 in0.0 mm 0.00 in0.0 mm
12:08 AM 52.4°F11.3°C 52.4°F11.3°C 100% Calm Calm 4.8 mph7.7 kmh 29.91 in1012.9 mb 0.00 in0.0 mm 0.00 in0.0 mm 0.00 in0.0 mm
12:07 AM 52.4°F11.3°C 52.4°F11.3°C 100% Calm Calm 4.8 mph7.7 kmh 29.91 in1012.9 mb 0.00 in0.0 mm 0.00 in0.0 mm 0.00 in0.0 mm
12:06 AM 52.4°F11.3°C 52.4°F11.3°C 100% Calm Calm 4.8 mph7.7 kmh 29.91 in1012.9 mb 0.00 in0.0 mm 0.00 in0.0 mm 0.00 in0.0 mm
12:04 AM 52.4°F11.3°C 52.4°F11.3°C 100% Calm Calm 4.8 mph7.7 kmh 29.91 in1012.9 mb 0.00 in0.0 mm 0.00 in0.0 mm 0.00 in0.0 mm
12:03 AM 52.4°F11.3°C 52.4°F11.3°C 100% Calm Calm 4.8 mph7.7 kmh 29.91 in1012.9 mb 0.00 in0.0 mm 0.00 in0.0 mm 0.00 in0.0 mm
12:01 AM 52.4°F11.3°C 52.4°F11.3°C 100% Calm Calm 4.8 mph7.7 kmh 29.91 in1012.9 mb 0.00 in0.0 mm 0.00 in0.0 mm 0.00 in0.0 mm
12:00 AM 52.4°F11.3°C 52.4°F11.3°C 100% Calm Calm 4.8 mph7.7 kmh 29.91 in1012.9 mb 0.00 in0.0 mm 0.00 in0.0 mm 0.00 in0.0 mm